<?xml version="1.0" encoding="UTF-8" standalone="no" ?>
<gpx xmlns="http://www.topografix.com/GPX/1/1" xmlns:xsi="http://www.w3.org/2001/XMLSchema-instance" xsi:schemaLocation="http://www.topografix.com/GPX/1/1 http://www.topografix.com/GPX/1/1/gpx.xsd" version="1.1" creator="VisuGPX - https://www.visugpx.com">
  <metadata>
    <name>Bourguignon/Neuchatel-urtiere </name>
    <desc><![CDATA[vtt bourguigon-Warembourg-Neuchatel/urtiere-Pont de roide]]></desc>
  </metadata>
  <trk>
    <name><![CDATA[2016-09-25 09:00]]></name>
    <desc><![CDATA[<p>Heure de départ: 09/25/2016 09:00</p><p>Heure d'arrivée: 09/25/2016 11:14</p><p>Distance: 32,8 km (02:14)</p><p>Temps déplacement: 01:58</p><p>Vitesse moyenne: 14,66 km/h</p><p>Vitesse moyenne mouv.: 16,65 km/h</p><p>Vitesse Max.: 46km/h</p><p>Altitude minimale: 329 m</p><p>Altitude maximale: 568 m</p><p>Vitesse de montée: 584,7 m/h</p><p>Vitesse de descente: -1020 m/h</p><p>Gain d'altitude: 683 m</p><p>Perte d'altitude: -670 m</p><p>Temps de montée: 01:10</p><p>Temps de descente: 00:39</p><hr align="center" width="480" style="height: 2px; width: 517px"/>]]></desc>
    <trkseg>
      <trkpt lat="47.41398" lon="6.78412">
        <ele>333.31</ele>
        <time>2016-09-25T07:00:34Z</time>
      </trkpt>
      <trkpt lat="47.41417" lon="6.78409">
        <ele>335.53</ele>
        <time>2016-09-25T07:02:58Z</time>
      </trkpt>
      <trkpt lat="47.41412" lon="6.78453">
        <ele>331.56</ele>
        <time>2016-09-25T07:04:23Z</time>
      </trkpt>
      <trkpt lat="47.41407" lon="6.78425">
        <ele>333.63</ele>
        <time>2016-09-25T07:04:48Z</time>
      </trkpt>
      <trkpt lat="47.41423" lon="6.78411">
        <ele>336.97</ele>
        <time>2016-09-25T07:06:40Z</time>
      </trkpt>
      <trkpt lat="47.41407" lon="6.78423">
        <ele>338.94</ele>
        <time>2016-09-25T07:07:14Z</time>
      </trkpt>
      <trkpt lat="47.41415" lon="6.78448">
        <ele>342.08</ele>
        <time>2016-09-25T07:07:54Z</time>
      </trkpt>
      <trkpt lat="47.41433" lon="6.78439">
        <ele>342.91</ele>
        <time>2016-09-25T07:08:01Z</time>
      </trkpt>
      <trkpt lat="47.41443" lon="6.78415">
        <ele>343.55</ele>
        <time>2016-09-25T07:08:09Z</time>
      </trkpt>
      <trkpt lat="47.41449" lon="6.7839">
        <ele>343.67</ele>
        <time>2016-09-25T07:08:17Z</time>
      </trkpt>
      <trkpt lat="47.41456" lon="6.78363">
        <ele>344.36</ele>
        <time>2016-09-25T07:08:25Z</time>
      </trkpt>
      <trkpt lat="47.41462" lon="6.78337">
        <ele>344.42</ele>
        <time>2016-09-25T07:08:33Z</time>
      </trkpt>
      <trkpt lat="47.41468" lon="6.78311">
        <ele>344.57</ele>
        <time>2016-09-25T07:08:41Z</time>
      </trkpt>
      <trkpt lat="47.41473" lon="6.78285">
        <ele>344.79</ele>
        <time>2016-09-25T07:08:46Z</time>
      </trkpt>
      <trkpt lat="47.41478" lon="6.78258">
        <ele>344.83</ele>
        <time>2016-09-25T07:08:54Z</time>
      </trkpt>
      <trkpt lat="47.41486" lon="6.78231">
        <ele>344.93</ele>
        <time>2016-09-25T07:09:01Z</time>
      </trkpt>
      <trkpt lat="47.41491" lon="6.78203">
        <ele>344.7</ele>
        <time>2016-09-25T07:09:09Z</time>
      </trkpt>
      <trkpt lat="47.41496" lon="6.78176">
        <ele>344.89</ele>
        <time>2016-09-25T07:09:17Z</time>
      </trkpt>
      <trkpt lat="47.41487" lon="6.78153">
        <ele>344.99</ele>
        <time>2016-09-25T07:09:28Z</time>
      </trkpt>
      <trkpt lat="47.41468" lon="6.78146">
        <ele>345.33</ele>
        <time>2016-09-25T07:09:36Z</time>
      </trkpt>
      <trkpt lat="47.4145" lon="6.78133">
        <ele>345.69</ele>
        <time>2016-09-25T07:09:42Z</time>
      </trkpt>
      <trkpt lat="47.41434" lon="6.7812">
        <ele>345.81</ele>
        <time>2016-09-25T07:09:49Z</time>
      </trkpt>
      <trkpt lat="47.41415" lon="6.78108">
        <ele>346.21</ele>
        <time>2016-09-25T07:09:56Z</time>
      </trkpt>
      <trkpt lat="47.41398" lon="6.78094">
        <ele>346.34</ele>
        <time>2016-09-25T07:10:01Z</time>
      </trkpt>
      <trkpt lat="47.41382" lon="6.78077">
        <ele>346.45</ele>
        <time>2016-09-25T07:10:08Z</time>
      </trkpt>
      <trkpt lat="47.41374" lon="6.7805">
        <ele>346.33</ele>
        <time>2016-09-25T07:10:14Z</time>
      </trkpt>
      <trkpt lat="47.41368" lon="6.78022">
        <ele>346.43</ele>
        <time>2016-09-25T07:10:21Z</time>
      </trkpt>
      <trkpt lat="47.41362" lon="6.77995">
        <ele>346.39</ele>
        <time>2016-09-25T07:10:26Z</time>
      </trkpt>
      <trkpt lat="47.41359" lon="6.77969">
        <ele>346.29</ele>
        <time>2016-09-25T07:10:33Z</time>
      </trkpt>
      <trkpt lat="47.41362" lon="6.77937">
        <ele>346.26</ele>
        <time>2016-09-25T07:10:38Z</time>
      </trkpt>
      <trkpt lat="47.41366" lon="6.77911">
        <ele>346.6</ele>
        <time>2016-09-25T07:10:45Z</time>
      </trkpt>
      <trkpt lat="47.41373" lon="6.77883">
        <ele>346.51</ele>
        <time>2016-09-25T07:10:50Z</time>
      </trkpt>
      <trkpt lat="47.41383" lon="6.77859">
        <ele>346.22</ele>
        <time>2016-09-25T07:10:56Z</time>
      </trkpt>
      <trkpt lat="47.41394" lon="6.77834">
        <ele>346.27</ele>
        <time>2016-09-25T07:11:01Z</time>
      </trkpt>
      <trkpt lat="47.41403" lon="6.7781">
        <ele>346.1</ele>
        <time>2016-09-25T07:11:06Z</time>
      </trkpt>
      <trkpt lat="47.41413" lon="6.77787">
        <ele>345.77</ele>
        <time>2016-09-25T07:11:12Z</time>
      </trkpt>
      <trkpt lat="47.41424" lon="6.77761">
        <ele>345.37</ele>
        <time>2016-09-25T07:11:17Z</time>
      </trkpt>
      <trkpt lat="47.41432" lon="6.77733">
        <ele>345.33</ele>
        <time>2016-09-25T07:11:24Z</time>
      </trkpt>
      <trkpt lat="47.41439" lon="6.77706">
        <ele>345.4</ele>
        <time>2016-09-25T07:11:30Z</time>
      </trkpt>
      <trkpt lat="47.41447" lon="6.77677">
        <ele>346.21</ele>
        <time>2016-09-25T07:11:37Z</time>
      </trkpt>
      <trkpt lat="47.41455" lon="6.7765">
        <ele>345.67</ele>
        <time>2016-09-25T07:11:42Z</time>
      </trkpt>
      <trkpt lat="47.41466" lon="6.77625">
        <ele>345.65</ele>
        <time>2016-09-25T07:11:49Z</time>
      </trkpt>
      <trkpt lat="47.41484" lon="6.7761">
        <ele>345.43</ele>
        <time>2016-09-25T07:11:57Z</time>
      </trkpt>
      <trkpt lat="47.41502" lon="6.77606">
        <ele>345.46</ele>
        <time>2016-09-25T07:12:01Z</time>
      </trkpt>
      <trkpt lat="47.41521" lon="6.77604">
        <ele>343.98</ele>
        <time>2016-09-25T07:12:06Z</time>
      </trkpt>
      <trkpt lat="47.41542" lon="6.77601">
        <ele>344.65</ele>
        <time>2016-09-25T07:12:13Z</time>
      </trkpt>
      <trkpt lat="47.41562" lon="6.77602">
        <ele>347.43</ele>
        <time>2016-09-25T07:12:17Z</time>
      </trkpt>
      <trkpt lat="47.41582" lon="6.77607">
        <ele>347.37</ele>
        <time>2016-09-25T07:12:22Z</time>
      </trkpt>
      <trkpt lat="47.41601" lon="6.77612">
        <ele>346.76</ele>
        <time>2016-09-25T07:12:28Z</time>
      </trkpt>
      <trkpt lat="47.4162" lon="6.77622">
        <ele>345.27</ele>
        <time>2016-09-25T07:12:33Z</time>
      </trkpt>
      <trkpt lat="47.41638" lon="6.77635">
        <ele>346.45</ele>
        <time>2016-09-25T07:12:37Z</time>
      </trkpt>
      <trkpt lat="47.41655" lon="6.77652">
        <ele>350.55</ele>
        <time>2016-09-25T07:12:42Z</time>
      </trkpt>
      <trkpt lat="47.4167" lon="6.77667">
        <ele>350.95</ele>
        <time>2016-09-25T07:12:48Z</time>
      </trkpt>
      <trkpt lat="47.41687" lon="6.77676">
        <ele>350.73</ele>
        <time>2016-09-25T07:12:53Z</time>
      </trkpt>
      <trkpt lat="47.41706" lon="6.77676">
        <ele>351.39</ele>
        <time>2016-09-25T07:12:57Z</time>
      </trkpt>
      <trkpt lat="47.41725" lon="6.77666">
        <ele>351.72</ele>
        <time>2016-09-25T07:13:04Z</time>
      </trkpt>
      <trkpt lat="47.41743" lon="6.77658">
        <ele>352.19</ele>
        <time>2016-09-25T07:13:09Z</time>
      </trkpt>
      <trkpt lat="47.41762" lon="6.77649">
        <ele>352.65</ele>
        <time>2016-09-25T07:13:17Z</time>
      </trkpt>
      <trkpt lat="47.41781" lon="6.77638">
        <ele>352.31</ele>
        <time>2016-09-25T07:13:24Z</time>
      </trkpt>
      <trkpt lat="47.41798" lon="6.77626">
        <ele>352.92</ele>
        <time>2016-09-25T07:13:29Z</time>
      </trkpt>
      <trkpt lat="47.41815" lon="6.77611">
        <ele>353.62</ele>
        <time>2016-09-25T07:13:36Z</time>
      </trkpt>
      <trkpt lat="47.41828" lon="6.77591">
        <ele>354.29</ele>
        <time>2016-09-25T07:13:41Z</time>
      </trkpt>
      <trkpt lat="47.41837" lon="6.77568">
        <ele>355.36</ele>
        <time>2016-09-25T07:13:48Z</time>
      </trkpt>
      <trkpt lat="47.41845" lon="6.77544">
        <ele>356.61</ele>
        <time>2016-09-25T07:13:53Z</time>
      </trkpt>
      <trkpt lat="47.41853" lon="6.7752">
        <ele>357.68</ele>
        <time>2016-09-25T07:14:00Z</time>
      </trkpt>
      <trkpt lat="47.41861" lon="6.77495">
        <ele>358.36</ele>
        <time>2016-09-25T07:14:05Z</time>
      </trkpt>
      <trkpt lat="47.41866" lon="6.77468">
        <ele>359.02</ele>
        <time>2016-09-25T07:14:12Z</time>
      </trkpt>
      <trkpt lat="47.41866" lon="6.77436">
        <ele>361.32</ele>
        <time>2016-09-25T07:14:17Z</time>
      </trkpt>
      <trkpt lat="47.4186" lon="6.77407">
        <ele>365.33</ele>
        <time>2016-09-25T07:14:22Z</time>
      </trkpt>
      <trkpt lat="47.41857" lon="6.77378">
        <ele>365.36</ele>
        <time>2016-09-25T07:14:29Z</time>
      </trkpt>
      <trkpt lat="47.41861" lon="6.77348">
        <ele>365.21</ele>
        <time>2016-09-25T07:14:34Z</time>
      </trkpt>
      <trkpt lat="47.41865" lon="6.77322">
        <ele>364.76</ele>
        <time>2016-09-25T07:14:41Z</time>
      </trkpt>
      <trkpt lat="47.41867" lon="6.77295">
        <ele>364.06</ele>
        <time>2016-09-25T07:14:46Z</time>
      </trkpt>
      <trkpt lat="47.4187" lon="6.77267">
        <ele>363.46</ele>
        <time>2016-09-25T07:14:53Z</time>
      </trkpt>
      <trkpt lat="47.4187" lon="6.77237">
        <ele>363.29</ele>
        <time>2016-09-25T07:15:00Z</time>
      </trkpt>
      <trkpt lat="47.41877" lon="6.77209">
        <ele>363.47</ele>
        <time>2016-09-25T07:15:08Z</time>
      </trkpt>
      <trkpt lat="47.41883" lon="6.7718">
        <ele>363.93</ele>
        <time>2016-09-25T07:15:16Z</time>
      </trkpt>
      <trkpt lat="47.41889" lon="6.77154">
        <ele>364.7</ele>
        <time>2016-09-25T07:15:21Z</time>
      </trkpt>
      <trkpt lat="47.41894" lon="6.77128">
        <ele>365.84</ele>
        <time>2016-09-25T07:15:29Z</time>
      </trkpt>
      <trkpt lat="47.41898" lon="6.77099">
        <ele>367.48</ele>
        <time>2016-09-25T07:15:37Z</time>
      </trkpt>
      <trkpt lat="47.41902" lon="6.77073">
        <ele>368.55</ele>
        <time>2016-09-25T07:15:41Z</time>
      </trkpt>
      <trkpt lat="47.41906" lon="6.77043">
        <ele>370.56</ele>
        <time>2016-09-25T07:15:49Z</time>
      </trkpt>
      <trkpt lat="47.4191" lon="6.77014">
        <ele>371.94</ele>
        <time>2016-09-25T07:15:57Z</time>
      </trkpt>
      <trkpt lat="47.41916" lon="6.76985">
        <ele>373.8</ele>
        <time>2016-09-25T07:16:05Z</time>
      </trkpt>
      <trkpt lat="47.41922" lon="6.76958">
        <ele>375.66</ele>
        <time>2016-09-25T07:16:13Z</time>
      </trkpt>
      <trkpt lat="47.41927" lon="6.76928">
        <ele>376.54</ele>
        <time>2016-09-25T07:16:20Z</time>
      </trkpt>
      <trkpt lat="47.41931" lon="6.76901">
        <ele>377.05</ele>
        <time>2016-09-25T07:16:26Z</time>
      </trkpt>
      <trkpt lat="47.41936" lon="6.76872">
        <ele>377.33</ele>
        <time>2016-09-25T07:16:33Z</time>
      </trkpt>
      <trkpt lat="47.4194" lon="6.76845">
        <ele>377.48</ele>
        <time>2016-09-25T07:16:40Z</time>
      </trkpt>
      <trkpt lat="47.41944" lon="6.76816">
        <ele>377.37</ele>
        <time>2016-09-25T07:16:45Z</time>
      </trkpt>
      <trkpt lat="47.41946" lon="6.7679">
        <ele>376.91</ele>
        <time>2016-09-25T07:16:52Z</time>
      </trkpt>
      <trkpt lat="47.41948" lon="6.76758">
        <ele>376.8</ele>
        <time>2016-09-25T07:16:57Z</time>
      </trkpt>
      <trkpt lat="47.4195" lon="6.76727">
        <ele>377.17</ele>
        <time>2016-09-25T07:17:04Z</time>
      </trkpt>
      <trkpt lat="47.41951" lon="6.76698">
        <ele>377.73</ele>
        <time>2016-09-25T07:17:09Z</time>
      </trkpt>
      <trkpt lat="47.41952" lon="6.76669">
        <ele>378</ele>
        <time>2016-09-25T07:17:16Z</time>
      </trkpt>
      <trkpt lat="47.41953" lon="6.76639">
        <ele>378.81</ele>
        <time>2016-09-25T07:17:21Z</time>
      </trkpt>
      <trkpt lat="47.41953" lon="6.76609">
        <ele>379.75</ele>
        <time>2016-09-25T07:17:28Z</time>
      </trkpt>
      <trkpt lat="47.41951" lon="6.76578">
        <ele>380.67</ele>
        <time>2016-09-25T07:17:33Z</time>
      </trkpt>
      <trkpt lat="47.41948" lon="6.76552">
        <ele>382.14</ele>
        <time>2016-09-25T07:17:40Z</time>
      </trkpt>
      <trkpt lat="47.41943" lon="6.76525">
        <ele>383.45</ele>
        <time>2016-09-25T07:17:45Z</time>
      </trkpt>
      <trkpt lat="47.41939" lon="6.76495">
        <ele>384.71</ele>
        <time>2016-09-25T07:17:53Z</time>
      </trkpt>
      <trkpt lat="47.41934" lon="6.76466">
        <ele>385.48</ele>
        <time>2016-09-25T07:17:58Z</time>
      </trkpt>
      <trkpt lat="47.41931" lon="6.76438">
        <ele>387.32</ele>
        <time>2016-09-25T07:18:04Z</time>
      </trkpt>
      <trkpt lat="47.41928" lon="6.76409">
        <ele>388.38</ele>
        <time>2016-09-25T07:18:09Z</time>
      </trkpt>
      <trkpt lat="47.41924" lon="6.76381">
        <ele>389.58</ele>
        <time>2016-09-25T07:18:14Z</time>
      </trkpt>
      <trkpt lat="47.4192" lon="6.7635">
        <ele>391.13</ele>
        <time>2016-09-25T07:18:21Z</time>
      </trkpt>
      <trkpt lat="47.4192" lon="6.76321">
        <ele>392.06</ele>
        <time>2016-09-25T07:18:26Z</time>
      </trkpt>
      <trkpt lat="47.41918" lon="6.76293">
        <ele>392.47</ele>
        <time>2016-09-25T07:18:33Z</time>
      </trkpt>
      <trkpt lat="47.41917" lon="6.76263">
        <ele>392.46</ele>
        <time>2016-09-25T07:18:38Z</time>
      </trkpt>
      <trkpt lat="47.41916" lon="6.76234">
        <ele>392.03</ele>
        <time>2016-09-25T07:18:45Z</time>
      </trkpt>
      <trkpt lat="47.41915" lon="6.76204">
        <ele>391.79</ele>
        <time>2016-09-25T07:18:50Z</time>
      </trkpt>
      <trkpt lat="47.41913" lon="6.76174">
        <ele>392.01</ele>
        <time>2016-09-25T07:18:57Z</time>
      </trkpt>
      <trkpt lat="47.41912" lon="6.76147">
        <ele>392.42</ele>
        <time>2016-09-25T07:19:01Z</time>
      </trkpt>
      <trkpt lat="47.4191" lon="6.76116">
        <ele>393.26</ele>
        <time>2016-09-25T07:19:08Z</time>
      </trkpt>
      <trkpt lat="47.41911" lon="6.76086">
        <ele>393.92</ele>
        <time>2016-09-25T07:19:13Z</time>
      </trkpt>
      <trkpt lat="47.41909" lon="6.76056">
        <ele>394.98</ele>
        <time>2016-09-25T07:19:20Z</time>
      </trkpt>
      <trkpt lat="47.41905" lon="6.76027">
        <ele>396.01</ele>
        <time>2016-09-25T07:19:25Z</time>
      </trkpt>
      <trkpt lat="47.41895" lon="6.76001">
        <ele>397.47</ele>
        <time>2016-09-25T07:19:32Z</time>
      </trkpt>
      <trkpt lat="47.41876" lon="6.75998">
        <ele>399.89</ele>
        <time>2016-09-25T07:19:37Z</time>
      </trkpt>
      <trkpt lat="47.41866" lon="6.76021">
        <ele>402.76</ele>
        <time>2016-09-25T07:19:45Z</time>
      </trkpt>
      <trkpt lat="47.41864" lon="6.76048">
        <ele>405.14</ele>
        <time>2016-09-25T07:19:50Z</time>
      </trkpt>
      <trkpt lat="47.41857" lon="6.76074">
        <ele>407.38</ele>
        <time>2016-09-25T07:19:56Z</time>
      </trkpt>
      <trkpt lat="47.41848" lon="6.76098">
        <ele>409.91</ele>
        <time>2016-09-25T07:20:01Z</time>
      </trkpt>
      <trkpt lat="47.41838" lon="6.76124">
        <ele>412.14</ele>
        <time>2016-09-25T07:20:08Z</time>
      </trkpt>
      <trkpt lat="47.41829" lon="6.76148">
        <ele>413.76</ele>
        <time>2016-09-25T07:20:13Z</time>
      </trkpt>
      <trkpt lat="47.4182" lon="6.76175">
        <ele>415.94</ele>
        <time>2016-09-25T07:20:21Z</time>
      </trkpt>
      <trkpt lat="47.41814" lon="6.76202">
        <ele>417.61</ele>
        <time>2016-09-25T07:20:26Z</time>
      </trkpt>
      <trkpt lat="47.41803" lon="6.76228">
        <ele>419.02</ele>
        <time>2016-09-25T07:20:33Z</time>
      </trkpt>
      <trkpt lat="47.41795" lon="6.76252">
        <ele>420.37</ele>
        <time>2016-09-25T07:20:41Z</time>
      </trkpt>
      <trkpt lat="47.41788" lon="6.76277">
        <ele>421.79</ele>
        <time>2016-09-25T07:20:48Z</time>
      </trkpt>
      <trkpt lat="47.41781" lon="6.76303">
        <ele>422.66</ele>
        <time>2016-09-25T07:20:53Z</time>
      </trkpt>
      <trkpt lat="47.41774" lon="6.76331">
        <ele>423.37</ele>
        <time>2016-09-25T07:21:01Z</time>
      </trkpt>
      <trkpt lat="47.41772" lon="6.76361">
        <ele>424.78</ele>
        <time>2016-09-25T07:21:08Z</time>
      </trkpt>
      <trkpt lat="47.41766" lon="6.76387">
        <ele>426.31</ele>
        <time>2016-09-25T07:21:13Z</time>
      </trkpt>
      <trkpt lat="47.41759" lon="6.76414">
        <ele>428.36</ele>
        <time>2016-09-25T07:21:20Z</time>
      </trkpt>
      <trkpt lat="47.41754" lon="6.76441">
        <ele>429.98</ele>
        <time>2016-09-25T07:21:25Z</time>
      </trkpt>
      <trkpt lat="47.41747" lon="6.7647">
        <ele>430.91</ele>
        <time>2016-09-25T07:21:33Z</time>
      </trkpt>
      <trkpt lat="47.41741" lon="6.76497">
        <ele>432.15</ele>
        <time>2016-09-25T07:21:40Z</time>
      </trkpt>
      <trkpt lat="47.41737" lon="6.76526">
        <ele>433.24</ele>
        <time>2016-09-25T07:21:45Z</time>
      </trkpt>
      <trkpt lat="47.41731" lon="6.76552">
        <ele>434.38</ele>
        <time>2016-09-25T07:21:52Z</time>
      </trkpt>
      <trkpt lat="47.41722" lon="6.76576">
        <ele>436.29</ele>
        <time>2016-09-25T07:21:58Z</time>
      </trkpt>
      <trkpt lat="47.41715" lon="6.76603">
        <ele>437.68</ele>
        <time>2016-09-25T07:22:05Z</time>
      </trkpt>
      <trkpt lat="47.4171" lon="6.76629">
        <ele>437.95</ele>
        <time>2016-09-25T07:22:12Z</time>
      </trkpt>
      <trkpt lat="47.41705" lon="6.7666">
        <ele>438.29</ele>
        <time>2016-09-25T07:22:18Z</time>
      </trkpt>
      <trkpt lat="47.41702" lon="6.7669">
        <ele>438.05</ele>
        <time>2016-09-25T07:22:25Z</time>
      </trkpt>
      <trkpt lat="47.41696" lon="6.76717">
        <ele>438.25</ele>
        <time>2016-09-25T07:22:33Z</time>
      </trkpt>
      <trkpt lat="47.41694" lon="6.76743">
        <ele>438.28</ele>
        <time>2016-09-25T07:22:38Z</time>
      </trkpt>
      <trkpt lat="47.41693" lon="6.76772">
        <ele>439.03</ele>
        <time>2016-09-25T07:22:45Z</time>
      </trkpt>
      <trkpt lat="47.41695" lon="6.76799">
        <ele>444.58</ele>
        <time>2016-09-25T07:22:52Z</time>
      </trkpt>
      <trkpt lat="47.41698" lon="6.76826">
        <ele>446.46</ele>
        <time>2016-09-25T07:22:57Z</time>
      </trkpt>
      <trkpt lat="47.41706" lon="6.76853">
        <ele>447.55</ele>
        <time>2016-09-25T07:23:05Z</time>
      </trkpt>
      <trkpt lat="47.41716" lon="6.76875">
        <ele>448.49</ele>
        <time>2016-09-25T07:23:12Z</time>
      </trkpt>
      <trkpt lat="47.41726" lon="6.76901">
        <ele>448.89</ele>
        <time>2016-09-25T07:23:18Z</time>
      </trkpt>
      <trkpt lat="47.41727" lon="6.76929">
        <ele>449.01</ele>
        <time>2016-09-25T07:23:25Z</time>
      </trkpt>
      <trkpt lat="47.41722" lon="6.76959">
        <ele>449.22</ele>
        <time>2016-09-25T07:23:33Z</time>
      </trkpt>
      <trkpt lat="47.41717" lon="6.76985">
        <ele>450.36</ele>
        <time>2016-09-25T07:23:40Z</time>
      </trkpt>
      <trkpt lat="47.41708" lon="6.77011">
        <ele>451.4</ele>
        <time>2016-09-25T07:23:45Z</time>
      </trkpt>
      <trkpt lat="47.41701" lon="6.7704">
        <ele>452.38</ele>
        <time>2016-09-25T07:23:53Z</time>
      </trkpt>
      <trkpt lat="47.4169" lon="6.77064">
        <ele>453.44</ele>
        <time>2016-09-25T07:24:00Z</time>
      </trkpt>
      <trkpt lat="47.4168" lon="6.77088">
        <ele>454.44</ele>
        <time>2016-09-25T07:24:05Z</time>
      </trkpt>
      <trkpt lat="47.41671" lon="6.77113">
        <ele>455.09</ele>
        <time>2016-09-25T07:24:12Z</time>
      </trkpt>
      <trkpt lat="47.41664" lon="6.7714">
        <ele>455.71</ele>
        <time>2016-09-25T07:24:18Z</time>
      </trkpt>
      <trkpt lat="47.41657" lon="6.77164">
        <ele>456.3</ele>
        <time>2016-09-25T07:24:25Z</time>
      </trkpt>
      <trkpt lat="47.41644" lon="6.77182">
        <ele>456.98</ele>
        <time>2016-09-25T07:24:32Z</time>
      </trkpt>
      <trkpt lat="47.41625" lon="6.77172">
        <ele>458.03</ele>
        <time>2016-09-25T07:24:40Z</time>
      </trkpt>
      <trkpt lat="47.41607" lon="6.77156">
        <ele>459.35</ele>
        <time>2016-09-25T07:24:46Z</time>
      </trkpt>
      <trkpt lat="47.41593" lon="6.77135">
        <ele>459.99</ele>
        <time>2016-09-25T07:24:53Z</time>
      </trkpt>
      <trkpt lat="47.4158" lon="6.77111">
        <ele>461.18</ele>
        <time>2016-09-25T07:25:01Z</time>
      </trkpt>
      <trkpt lat="47.41562" lon="6.77108">
        <ele>461.79</ele>
        <time>2016-09-25T07:25:09Z</time>
      </trkpt>
      <trkpt lat="47.41546" lon="6.77122">
        <ele>461.18</ele>
        <time>2016-09-25T07:25:16Z</time>
      </trkpt>
      <trkpt lat="47.41527" lon="6.77133">
        <ele>460.61</ele>
        <time>2016-09-25T07:25:22Z</time>
      </trkpt>
      <trkpt lat="47.41506" lon="6.77141">
        <ele>460.57</ele>
        <time>2016-09-25T07:25:30Z</time>
      </trkpt>
      <trkpt lat="47.41487" lon="6.77143">
        <ele>460.24</ele>
        <time>2016-09-25T07:25:37Z</time>
      </trkpt>
      <trkpt lat="47.41468" lon="6.77143">
        <ele>461.04</ele>
        <time>2016-09-25T07:25:44Z</time>
      </trkpt>
      <trkpt lat="47.41449" lon="6.77139">
        <ele>462.17</ele>
        <time>2016-09-25T07:25:50Z</time>
      </trkpt>
      <trkpt lat="47.41431" lon="6.77128">
        <ele>463.76</ele>
        <time>2016-09-25T07:25:57Z</time>
      </trkpt>
      <trkpt lat="47.41414" lon="6.77114">
        <ele>464.84</ele>
        <time>2016-09-25T07:26:05Z</time>
      </trkpt>
      <trkpt lat="47.41398" lon="6.77098">
        <ele>465.99</ele>
        <time>2016-09-25T07:26:12Z</time>
      </trkpt>
      <trkpt lat="47.4138" lon="6.7708">
        <ele>466.77</ele>
        <time>2016-09-25T07:26:18Z</time>
      </trkpt>
      <trkpt lat="47.41366" lon="6.77062">
        <ele>467.61</ele>
        <time>2016-09-25T07:26:25Z</time>
      </trkpt>
      <trkpt lat="47.41352" lon="6.77039">
        <ele>469.43</ele>
        <time>2016-09-25T07:26:33Z</time>
      </trkpt>
      <trkpt lat="47.4134" lon="6.77019">
        <ele>470.34</ele>
        <time>2016-09-25T07:26:40Z</time>
      </trkpt>
      <trkpt lat="47.41322" lon="6.77007">
        <ele>471.63</ele>
        <time>2016-09-25T07:26:48Z</time>
      </trkpt>
      <trkpt lat="47.41302" lon="6.77008">
        <ele>472.98</ele>
        <time>2016-09-25T07:26:54Z</time>
      </trkpt>
      <trkpt lat="47.41283" lon="6.77">
        <ele>474.47</ele>
        <time>2016-09-25T07:27:02Z</time>
      </trkpt>
      <trkpt lat="47.41265" lon="6.76987">
        <ele>475.59</ele>
        <time>2016-09-25T07:27:09Z</time>
      </trkpt>
      <trkpt lat="47.41251" lon="6.7697">
        <ele>476.7</ele>
        <time>2016-09-25T07:27:16Z</time>
      </trkpt>
      <trkpt lat="47.41236" lon="6.76954">
        <ele>477.89</ele>
        <time>2016-09-25T07:27:22Z</time>
      </trkpt>
      <trkpt lat="47.41221" lon="6.76936">
        <ele>479.08</ele>
        <time>2016-09-25T07:27:30Z</time>
      </trkpt>
      <trkpt lat="47.41207" lon="6.76917">
        <ele>479.97</ele>
        <time>2016-09-25T07:27:38Z</time>
      </trkpt>
      <trkpt lat="47.41193" lon="6.76899">
        <ele>481.33</ele>
        <time>2016-09-25T07:27:45Z</time>
      </trkpt>
      <trkpt lat="47.41178" lon="6.76882">
        <ele>482.04</ele>
        <time>2016-09-25T07:27:53Z</time>
      </trkpt>
      <trkpt lat="47.41161" lon="6.76867">
        <ele>482.68</ele>
        <time>2016-09-25T07:28:01Z</time>
      </trkpt>
      <trkpt lat="47.41146" lon="6.76847">
        <ele>483.46</ele>
        <time>2016-09-25T07:28:09Z</time>
      </trkpt>
      <trkpt lat="47.41132" lon="6.76828">
        <ele>484.87</ele>
        <time>2016-09-25T07:28:16Z</time>
      </trkpt>
      <trkpt lat="47.41123" lon="6.76804">
        <ele>486.23</ele>
        <time>2016-09-25T07:28:22Z</time>
      </trkpt>
      <trkpt lat="47.41121" lon="6.76777">
        <ele>487.5</ele>
        <time>2016-09-25T07:28:30Z</time>
      </trkpt>
      <trkpt lat="47.41127" lon="6.76751">
        <ele>488.57</ele>
        <time>2016-09-25T07:28:37Z</time>
      </trkpt>
      <trkpt lat="47.41134" lon="6.76726">
        <ele>490.03</ele>
        <time>2016-09-25T07:28:45Z</time>
      </trkpt>
      <trkpt lat="47.41134" lon="6.76699">
        <ele>491.77</ele>
        <time>2016-09-25T07:28:52Z</time>
      </trkpt>
      <trkpt lat="47.41129" lon="6.76674">
        <ele>493.03</ele>
        <time>2016-09-25T07:28:58Z</time>
      </trkpt>
      <trkpt lat="47.4112" lon="6.7665">
        <ele>494.43</ele>
        <time>2016-09-25T07:29:06Z</time>
      </trkpt>
      <trkpt lat="47.41108" lon="6.76625">
        <ele>495.01</ele>
        <time>2016-09-25T07:29:17Z</time>
      </trkpt>
      <trkpt lat="47.41096" lon="6.76603">
        <ele>495.06</ele>
        <time>2016-09-25T07:29:25Z</time>
      </trkpt>
      <trkpt lat="47.41084" lon="6.76581">
        <ele>495.05</ele>
        <time>2016-09-25T07:29:32Z</time>
      </trkpt>
      <trkpt lat="47.41076" lon="6.76555">
        <ele>495.25</ele>
        <time>2016-09-25T07:29:40Z</time>
      </trkpt>
      <trkpt lat="47.41068" lon="6.76531">
        <ele>496.06</ele>
        <time>2016-09-25T07:29:48Z</time>
      </trkpt>
      <trkpt lat="47.4106" lon="6.76506">
        <ele>496.51</ele>
        <time>2016-09-25T07:29:57Z</time>
      </trkpt>
      <trkpt lat="47.41049" lon="6.76482">
        <ele>497.85</ele>
        <time>2016-09-25T07:30:05Z</time>
      </trkpt>
      <trkpt lat="47.41038" lon="6.76457">
        <ele>500.43</ele>
        <time>2016-09-25T07:30:13Z</time>
      </trkpt>
      <trkpt lat="47.41029" lon="6.76433">
        <ele>503.13</ele>
        <time>2016-09-25T07:30:21Z</time>
      </trkpt>
      <trkpt lat="47.41028" lon="6.76405">
        <ele>505.98</ele>
        <time>2016-09-25T07:30:29Z</time>
      </trkpt>
      <trkpt lat="47.41036" lon="6.76379">
        <ele>508.72</ele>
        <time>2016-09-25T07:30:37Z</time>
      </trkpt>
      <trkpt lat="47.41039" lon="6.76351">
        <ele>510.2</ele>
        <time>2016-09-25T07:30:45Z</time>
      </trkpt>
      <trkpt lat="47.41027" lon="6.76327">
        <ele>511.53</ele>
        <time>2016-09-25T07:30:53Z</time>
      </trkpt>
      <trkpt lat="47.41023" lon="6.763">
        <ele>512.02</ele>
        <time>2016-09-25T07:31:02Z</time>
      </trkpt>
      <trkpt lat="47.41018" lon="6.76272">
        <ele>512.5</ele>
        <time>2016-09-25T07:31:10Z</time>
      </trkpt>
      <trkpt lat="47.41013" lon="6.76244">
        <ele>512.07</ele>
        <time>2016-09-25T07:31:20Z</time>
      </trkpt>
      <trkpt lat="47.4101" lon="6.76218">
        <ele>512.53</ele>
        <time>2016-09-25T07:31:26Z</time>
      </trkpt>
      <trkpt lat="47.41007" lon="6.7619">
        <ele>513.02</ele>
        <time>2016-09-25T07:31:34Z</time>
      </trkpt>
      <trkpt lat="47.41005" lon="6.76161">
        <ele>513.51</ele>
        <time>2016-09-25T07:31:44Z</time>
      </trkpt>
      <trkpt lat="47.41002" lon="6.76132">
        <ele>514.37</ele>
        <time>2016-09-25T07:31:52Z</time>
      </trkpt>
      <trkpt lat="47.41003" lon="6.76103">
        <ele>516.77</ele>
        <time>2016-09-25T07:32:00Z</time>
      </trkpt>
      <trkpt lat="47.41003" lon="6.76074">
        <ele>519.03</ele>
        <time>2016-09-25T07:32:09Z</time>
      </trkpt>
      <trkpt lat="47.41005" lon="6.76047">
        <ele>521.51</ele>
        <time>2016-09-25T07:32:17Z</time>
      </trkpt>
      <trkpt lat="47.41005" lon="6.7602">
        <ele>523.01</ele>
        <time>2016-09-25T07:32:25Z</time>
      </trkpt>
      <trkpt lat="47.41006" lon="6.75993">
        <ele>525.24</ele>
        <time>2016-09-25T07:32:32Z</time>
      </trkpt>
      <trkpt lat="47.41009" lon="6.75963">
        <ele>527.03</ele>
        <time>2016-09-25T07:32:40Z</time>
      </trkpt>
      <trkpt lat="47.4101" lon="6.75934">
        <ele>528.54</ele>
        <time>2016-09-25T07:32:48Z</time>
      </trkpt>
      <trkpt lat="47.4101" lon="6.75905">
        <ele>530.97</ele>
        <time>2016-09-25T07:32:56Z</time>
      </trkpt>
      <trkpt lat="47.41013" lon="6.75876">
        <ele>532.66</ele>
        <time>2016-09-25T07:33:04Z</time>
      </trkpt>
      <trkpt lat="47.41016" lon="6.75846">
        <ele>534.26</ele>
        <time>2016-09-25T07:33:12Z</time>
      </trkpt>
      <trkpt lat="47.41025" lon="6.7582">
        <ele>535.39</ele>
        <time>2016-09-25T07:33:20Z</time>
      </trkpt>
      <trkpt lat="47.41028" lon="6.7579">
        <ele>536.82</ele>
        <time>2016-09-25T07:33:26Z</time>
      </trkpt>
      <trkpt lat="47.41027" lon="6.7576">
        <ele>538.05</ele>
        <time>2016-09-25T07:33:34Z</time>
      </trkpt>
      <trkpt lat="47.41025" lon="6.75729">
        <ele>538.53</ele>
        <time>2016-09-25T07:33:41Z</time>
      </trkpt>
      <trkpt lat="47.41025" lon="6.75701">
        <ele>538.78</ele>
        <time>2016-09-25T07:33:46Z</time>
      </trkpt>
      <trkpt lat="47.41026" lon="6.75675">
        <ele>539.11</ele>
        <time>2016-09-25T07:33:52Z</time>
      </trkpt>
      <trkpt lat="47.4102" lon="6.75646">
        <ele>540.08</ele>
        <time>2016-09-25T07:34:00Z</time>
      </trkpt>
      <trkpt lat="47.41017" lon="6.75616">
        <ele>540.88</ele>
        <time>2016-09-25T07:34:05Z</time>
      </trkpt>
      <trkpt lat="47.41014" lon="6.75589">
        <ele>541.05</ele>
        <time>2016-09-25T07:34:10Z</time>
      </trkpt>
      <trkpt lat="47.41015" lon="6.7556">
        <ele>541.4</ele>
        <time>2016-09-25T07:34:17Z</time>
      </trkpt>
      <trkpt lat="47.41019" lon="6.75531">
        <ele>541.89</ele>
        <time>2016-09-25T07:34:21Z</time>
      </trkpt>
      <trkpt lat="47.41022" lon="6.75501">
        <ele>542.26</ele>
        <time>2016-09-25T07:34:26Z</time>
      </trkpt>
      <trkpt lat="47.41023" lon="6.75471">
        <ele>542.66</ele>
        <time>2016-09-25T07:34:33Z</time>
      </trkpt>
      <trkpt lat="47.41025" lon="6.75443">
        <ele>542.98</ele>
        <time>2016-09-25T07:34:40Z</time>
      </trkpt>
      <trkpt lat="47.41035" lon="6.75419">
        <ele>549.58</ele>
        <time>2016-09-25T07:39:09Z</time>
      </trkpt>
      <trkpt lat="47.41052" lon="6.75404">
        <ele>549.58</ele>
        <time>2016-09-25T07:39:20Z</time>
      </trkpt>
      <trkpt lat="47.41067" lon="6.75385">
        <ele>550.26</ele>
        <time>2016-09-25T07:39:29Z</time>
      </trkpt>
      <trkpt lat="47.41082" lon="6.75365">
        <ele>551.05</ele>
        <time>2016-09-25T07:39:37Z</time>
      </trkpt>
      <trkpt lat="47.41095" lon="6.75345">
        <ele>551.72</ele>
        <time>2016-09-25T07:39:44Z</time>
      </trkpt>
      <trkpt lat="47.41108" lon="6.75323">
        <ele>552.65</ele>
        <time>2016-09-25T07:39:51Z</time>
      </trkpt>
      <trkpt lat="47.41123" lon="6.75303">
        <ele>553.53</ele>
        <time>2016-09-25T07:39:58Z</time>
      </trkpt>
      <trkpt lat="47.41138" lon="6.75285">
        <ele>554.48</ele>
        <time>2016-09-25T07:40:05Z</time>
      </trkpt>
      <trkpt lat="47.41152" lon="6.75266">
        <ele>555.55</ele>
        <time>2016-09-25T07:40:12Z</time>
      </trkpt>
      <trkpt lat="47.41154" lon="6.75239">
        <ele>558.32</ele>
        <time>2016-09-25T07:40:23Z</time>
      </trkpt>
      <trkpt lat="47.41143" lon="6.75213">
        <ele>559.82</ele>
        <time>2016-09-25T07:40:30Z</time>
      </trkpt>
      <trkpt lat="47.41132" lon="6.75189">
        <ele>561.69</ele>
        <time>2016-09-25T07:40:41Z</time>
      </trkpt>
      <trkpt lat="47.4112" lon="6.75169">
        <ele>562.91</ele>
        <time>2016-09-25T07:40:50Z</time>
      </trkpt>
      <trkpt lat="47.41109" lon="6.75143">
        <ele>563.2</ele>
        <time>2016-09-25T07:41:00Z</time>
      </trkpt>
      <trkpt lat="47.41093" lon="6.75123">
        <ele>563.72</ele>
        <time>2016-09-25T07:41:09Z</time>
      </trkpt>
      <trkpt lat="47.41074" lon="6.7511">
        <ele>564.07</ele>
        <time>2016-09-25T07:41:15Z</time>
      </trkpt>
      <trkpt lat="47.41056" lon="6.75091">
        <ele>564.65</ele>
        <time>2016-09-25T07:41:21Z</time>
      </trkpt>
      <trkpt lat="47.41041" lon="6.7507">
        <ele>563.42</ele>
        <time>2016-09-25T07:41:26Z</time>
      </trkpt>
      <trkpt lat="47.41023" lon="6.75056">
        <ele>562.58</ele>
        <time>2016-09-25T07:41:32Z</time>
      </trkpt>
      <trkpt lat="47.41006" lon="6.75045">
        <ele>562.32</ele>
        <time>2016-09-25T07:41:37Z</time>
      </trkpt>
      <trkpt lat="47.40987" lon="6.75036">
        <ele>562</ele>
        <time>2016-09-25T07:41:42Z</time>
      </trkpt>
      <trkpt lat="47.40966" lon="6.75022">
        <ele>561.82</ele>
        <time>2016-09-25T07:41:47Z</time>
      </trkpt>
      <trkpt lat="47.40949" lon="6.75008">
        <ele>561.83</ele>
        <time>2016-09-25T07:41:52Z</time>
      </trkpt>
      <trkpt lat="47.4093" lon="6.74998">
        <ele>562.17</ele>
        <time>2016-09-25T07:41:58Z</time>
      </trkpt>
      <trkpt lat="47.40915" lon="6.74984">
        <ele>562.59</ele>
        <time>2016-09-25T07:42:02Z</time>
      </trkpt>
      <trkpt lat="47.40897" lon="6.74969">
        <ele>562.48</ele>
        <time>2016-09-25T07:42:06Z</time>
      </trkpt>
      <trkpt lat="47.40879" lon="6.74953">
        <ele>562.09</ele>
        <time>2016-09-25T07:42:13Z</time>
      </trkpt>
      <trkpt lat="47.40858" lon="6.74939">
        <ele>558.76</ele>
        <time>2016-09-25T07:42:18Z</time>
      </trkpt>
      <trkpt lat="47.40839" lon="6.74928">
        <ele>558.61</ele>
        <time>2016-09-25T07:42:23Z</time>
      </trkpt>
      <trkpt lat="47.40823" lon="6.74914">
        <ele>559.43</ele>
        <time>2016-09-25T07:42:30Z</time>
      </trkpt>
      <trkpt lat="47.40805" lon="6.74899">
        <ele>560.22</ele>
        <time>2016-09-25T07:42:36Z</time>
      </trkpt>
      <trkpt lat="47.40791" lon="6.74875">
        <ele>560.93</ele>
        <time>2016-09-25T07:42:41Z</time>
      </trkpt>
      <trkpt lat="47.40783" lon="6.74848">
        <ele>566.46</ele>
        <time>2016-09-25T07:42:47Z</time>
      </trkpt>
      <trkpt lat="47.40771" lon="6.74828">
        <ele>568.22</ele>
        <time>2016-09-25T07:42:52Z</time>
      </trkpt>
      <trkpt lat="47.40755" lon="6.74804">
        <ele>567.79</ele>
        <time>2016-09-25T07:42:56Z</time>
      </trkpt>
      <trkpt lat="47.4074" lon="6.74783">
        <ele>567.59</ele>
        <time>2016-09-25T07:43:02Z</time>
      </trkpt>
      <trkpt lat="47.40726" lon="6.74766">
        <ele>567.24</ele>
        <time>2016-09-25T07:43:08Z</time>
      </trkpt>
      <trkpt lat="47.40709" lon="6.74748">
        <ele>565.91</ele>
        <time>2016-09-25T07:43:13Z</time>
      </trkpt>
      <trkpt lat="47.40696" lon="6.74727">
        <ele>565.01</ele>
        <time>2016-09-25T07:43:17Z</time>
      </trkpt>
      <trkpt lat="47.40683" lon="6.74701">
        <ele>560.25</ele>
        <time>2016-09-25T07:43:22Z</time>
      </trkpt>
      <trkpt lat="47.40671" lon="6.74678">
        <ele>558.9</ele>
        <time>2016-09-25T07:43:27Z</time>
      </trkpt>
      <trkpt lat="47.40659" lon="6.74658">
        <ele>558.68</ele>
        <time>2016-09-25T07:43:30Z</time>
      </trkpt>
      <trkpt lat="47.40648" lon="6.74637">
        <ele>558.66</ele>
        <time>2016-09-25T07:43:34Z</time>
      </trkpt>
      <trkpt lat="47.4064" lon="6.74611">
        <ele>558.5</ele>
        <time>2016-09-25T07:43:39Z</time>
      </trkpt>
      <trkpt lat="47.40631" lon="6.74584">
        <ele>558.02</ele>
        <time>2016-09-25T07:43:45Z</time>
      </trkpt>
      <trkpt lat="47.40617" lon="6.74561">
        <ele>557.72</ele>
        <time>2016-09-25T07:43:51Z</time>
      </trkpt>
      <trkpt lat="47.40607" lon="6.74538">
        <ele>557.76</ele>
        <time>2016-09-25T07:43:55Z</time>
      </trkpt>
      <trkpt lat="47.40597" lon="6.74509">
        <ele>558.21</ele>
        <time>2016-09-25T07:44:00Z</time>
      </trkpt>
      <trkpt lat="47.40584" lon="6.74483">
        <ele>558.08</ele>
        <time>2016-09-25T07:44:05Z</time>
      </trkpt>
      <trkpt lat="47.40575" lon="6.74458">
        <ele>558.07</ele>
        <time>2016-09-25T07:44:10Z</time>
      </trkpt>
      <trkpt lat="47.40562" lon="6.74439">
        <ele>557.99</ele>
        <time>2016-09-25T07:44:14Z</time>
      </trkpt>
      <trkpt lat="47.40542" lon="6.74417">
        <ele>556.63</ele>
        <time>2016-09-25T07:44:19Z</time>
      </trkpt>
      <trkpt lat="47.40528" lon="6.744">
        <ele>556.57</ele>
        <time>2016-09-25T07:44:23Z</time>
      </trkpt>
      <trkpt lat="47.40512" lon="6.74381">
        <ele>556.06</ele>
        <time>2016-09-25T07:44:27Z</time>
      </trkpt>
      <trkpt lat="47.40495" lon="6.74359">
        <ele>556.58</ele>
        <time>2016-09-25T07:44:32Z</time>
      </trkpt>
      <trkpt lat="47.40481" lon="6.74339">
        <ele>556.64</ele>
        <time>2016-09-25T07:44:36Z</time>
      </trkpt>
      <trkpt lat="47.40464" lon="6.74314">
        <ele>556.87</ele>
        <time>2016-09-25T07:44:41Z</time>
      </trkpt>
      <trkpt lat="47.4045" lon="6.74292">
        <ele>556.96</ele>
        <time>2016-09-25T07:44:46Z</time>
      </trkpt>
      <trkpt lat="47.40437" lon="6.74267">
        <ele>560.86</ele>
        <time>2016-09-25T07:44:50Z</time>
      </trkpt>
      <trkpt lat="47.40424" lon="6.74242">
        <ele>561.63</ele>
        <time>2016-09-25T07:44:56Z</time>
      </trkpt>
      <trkpt lat="47.4041" lon="6.74219">
        <ele>560.39</ele>
        <time>2016-09-25T07:45:00Z</time>
      </trkpt>
      <trkpt lat="47.40395" lon="6.74199">
        <ele>559.86</ele>
        <time>2016-09-25T07:45:04Z</time>
      </trkpt>
      <trkpt lat="47.40379" lon="6.74182">
        <ele>558.6</ele>
        <time>2016-09-25T07:45:10Z</time>
      </trkpt>
      <trkpt lat="47.40368" lon="6.7416">
        <ele>556.78</ele>
        <time>2016-09-25T07:45:15Z</time>
      </trkpt>
      <trkpt lat="47.40357" lon="6.74137">
        <ele>556.94</ele>
        <time>2016-09-25T07:45:22Z</time>
      </trkpt>
      <trkpt lat="47.40345" lon="6.74114">
        <ele>556.83</ele>
        <time>2016-09-25T07:45:29Z</time>
      </trkpt>
      <trkpt lat="47.40333" lon="6.74091">
        <ele>556.64</ele>
        <time>2016-09-25T07:45:37Z</time>
      </trkpt>
      <trkpt lat="47.40329" lon="6.74063">
        <ele>556.78</ele>
        <time>2016-09-25T07:45:49Z</time>
      </trkpt>
      <trkpt lat="47.40318" lon="6.74042">
        <ele>556.79</ele>
        <time>2016-09-25T07:45:56Z</time>
      </trkpt>
      <trkpt lat="47.40306" lon="6.74018">
        <ele>556.47</ele>
        <time>2016-09-25T07:46:03Z</time>
      </trkpt>
      <trkpt lat="47.40293" lon="6.73996">
        <ele>556.31</ele>
        <time>2016-09-25T07:46:19Z</time>
      </trkpt>
      <trkpt lat="47.40283" lon="6.73974">
        <ele>555.91</ele>
        <time>2016-09-25T07:46:25Z</time>
      </trkpt>
      <trkpt lat="47.40267" lon="6.73956">
        <ele>555.48</ele>
        <time>2016-09-25T07:46:31Z</time>
      </trkpt>
      <trkpt lat="47.40254" lon="6.73933">
        <ele>555.11</ele>
        <time>2016-09-25T07:46:39Z</time>
      </trkpt>
      <trkpt lat="47.40239" lon="6.73912">
        <ele>554.97</ele>
        <time>2016-09-25T07:46:45Z</time>
      </trkpt>
      <trkpt lat="47.40228" lon="6.73886">
        <ele>554.73</ele>
        <time>2016-09-25T07:46:51Z</time>
      </trkpt>
      <trkpt lat="47.40214" lon="6.73861">
        <ele>553.63</ele>
        <time>2016-09-25T07:46:56Z</time>
      </trkpt>
      <trkpt lat="47.40199" lon="6.73837">
        <ele>549.24</ele>
        <time>2016-09-25T07:47:00Z</time>
      </trkpt>
      <trkpt lat="47.40188" lon="6.73811">
        <ele>547.75</ele>
        <time>2016-09-25T07:47:04Z</time>
      </trkpt>
      <trkpt lat="47.4018" lon="6.73785">
        <ele>549.47</ele>
        <time>2016-09-25T07:47:08Z</time>
      </trkpt>
      <trkpt lat="47.4017" lon="6.73761">
        <ele>549.96</ele>
        <time>2016-09-25T07:47:35Z</time>
      </trkpt>
      <trkpt lat="47.4017" lon="6.73731">
        <ele>551.49</ele>
        <time>2016-09-25T07:47:43Z</time>
      </trkpt>
      <trkpt lat="47.40168" lon="6.73704">
        <ele>551.91</ele>
        <time>2016-09-25T07:47:51Z</time>
      </trkpt>
      <trkpt lat="47.40162" lon="6.73679">
        <ele>552.3</ele>
        <time>2016-09-25T07:47:58Z</time>
      </trkpt>
      <trkpt lat="47.40155" lon="6.73654">
        <ele>551.08</ele>
        <time>2016-09-25T07:48:05Z</time>
      </trkpt>
      <trkpt lat="47.40143" lon="6.7363">
        <ele>549.77</ele>
        <time>2016-09-25T07:48:10Z</time>
      </trkpt>
      <trkpt lat="47.40131" lon="6.73609">
        <ele>547.76</ele>
        <time>2016-09-25T07:48:15Z</time>
      </trkpt>
      <trkpt lat="47.40123" lon="6.73585">
        <ele>546.2</ele>
        <time>2016-09-25T07:48:18Z</time>
      </trkpt>
      <trkpt lat="47.40116" lon="6.73559">
        <ele>545.94</ele>
        <time>2016-09-25T07:48:22Z</time>
      </trkpt>
      <trkpt lat="47.40106" lon="6.73536">
        <ele>544.28</ele>
        <time>2016-09-25T07:48:26Z</time>
      </trkpt>
      <trkpt lat="47.40104" lon="6.73505">
        <ele>541.5</ele>
        <time>2016-09-25T07:48:31Z</time>
      </trkpt>
      <trkpt lat="47.40102" lon="6.73477">
        <ele>540.59</ele>
        <time>2016-09-25T07:48:35Z</time>
      </trkpt>
      <trkpt lat="47.40098" lon="6.73446">
        <ele>539.01</ele>
        <time>2016-09-25T07:48:39Z</time>
      </trkpt>
      <trkpt lat="47.40094" lon="6.73411">
        <ele>537.13</ele>
        <time>2016-09-25T07:48:43Z</time>
      </trkpt>
      <trkpt lat="47.40092" lon="6.73381">
        <ele>536.74</ele>
        <time>2016-09-25T07:48:46Z</time>
      </trkpt>
      <trkpt lat="47.40084" lon="6.73351">
        <ele>533.55</ele>
        <time>2016-09-25T07:48:49Z</time>
      </trkpt>
      <trkpt lat="47.40072" lon="6.73325">
        <ele>530.68</ele>
        <time>2016-09-25T07:48:52Z</time>
      </trkpt>
      <trkpt lat="47.40061" lon="6.73293">
        <ele>527.76</ele>
        <time>2016-09-25T07:48:55Z</time>
      </trkpt>
      <trkpt lat="47.40056" lon="6.73267">
        <ele>525.78</ele>
        <time>2016-09-25T07:48:57Z</time>
      </trkpt>
      <trkpt lat="47.40052" lon="6.73241">
        <ele>524.11</ele>
        <time>2016-09-25T07:48:59Z</time>
      </trkpt>
      <trkpt lat="47.40046" lon="6.73205">
        <ele>523.78</ele>
        <time>2016-09-25T07:49:02Z</time>
      </trkpt>
      <trkpt lat="47.40038" lon="6.73173">
        <ele>524.4</ele>
        <time>2016-09-25T07:49:05Z</time>
      </trkpt>
      <trkpt lat="47.40025" lon="6.73152">
        <ele>524.27</ele>
        <time>2016-09-25T07:49:08Z</time>
      </trkpt>
      <trkpt lat="47.40015" lon="6.73123">
        <ele>525.73</ele>
        <time>2016-09-25T07:49:12Z</time>
      </trkpt>
      <trkpt lat="47.4" lon="6.73106">
        <ele>528.55</ele>
        <time>2016-09-25T07:49:15Z</time>
      </trkpt>
      <trkpt lat="47.3999" lon="6.73083">
        <ele>533.76</ele>
        <time>2016-09-25T07:49:18Z</time>
      </trkpt>
      <trkpt lat="47.39979" lon="6.73059">
        <ele>536.65</ele>
        <time>2016-09-25T07:49:21Z</time>
      </trkpt>
      <trkpt lat="47.39964" lon="6.73039">
        <ele>536.96</ele>
        <time>2016-09-25T07:49:25Z</time>
      </trkpt>
      <trkpt lat="47.39947" lon="6.73017">
        <ele>537.98</ele>
        <time>2016-09-25T07:49:29Z</time>
      </trkpt>
      <trkpt lat="47.39934" lon="6.72996">
        <ele>536.51</ele>
        <time>2016-09-25T07:49:32Z</time>
      </trkpt>
      <trkpt lat="47.39925" lon="6.72964">
        <ele>537.52</ele>
        <time>2016-09-25T07:49:37Z</time>
      </trkpt>
      <trkpt lat="47.3992" lon="6.72937">
        <ele>537.45</ele>
        <time>2016-09-25T07:49:42Z</time>
      </trkpt>
      <trkpt lat="47.39914" lon="6.7291">
        <ele>537.14</ele>
        <time>2016-09-25T07:49:47Z</time>
      </trkpt>
      <trkpt lat="47.39908" lon="6.72879">
        <ele>532.12</ele>
        <time>2016-09-25T07:49:51Z</time>
      </trkpt>
      <trkpt lat="47.399" lon="6.7285">
        <ele>529.46</ele>
        <time>2016-09-25T07:49:56Z</time>
      </trkpt>
      <trkpt lat="47.39892" lon="6.72819">
        <ele>527.94</ele>
        <time>2016-09-25T07:50:01Z</time>
      </trkpt>
      <trkpt lat="47.39884" lon="6.72792">
        <ele>528.14</ele>
        <time>2016-09-25T07:50:06Z</time>
      </trkpt>
      <trkpt lat="47.39876" lon="6.72768">
        <ele>530.57</ele>
        <time>2016-09-25T07:50:10Z</time>
      </trkpt>
      <trkpt lat="47.39867" lon="6.72742">
        <ele>531.86</ele>
        <time>2016-09-25T07:50:14Z</time>
      </trkpt>
      <trkpt lat="47.39856" lon="6.72713">
        <ele>531.51</ele>
        <time>2016-09-25T07:50:19Z</time>
      </trkpt>
      <trkpt lat="47.39843" lon="6.72686">
        <ele>532.43</ele>
        <time>2016-09-25T07:50:23Z</time>
      </trkpt>
      <trkpt lat="47.3983" lon="6.72658">
        <ele>531.59</ele>
        <time>2016-09-25T07:50:27Z</time>
      </trkpt>
      <trkpt lat="47.3982" lon="6.72635">
        <ele>529.32</ele>
        <time>2016-09-25T07:50:30Z</time>
      </trkpt>
      <trkpt lat="47.39806" lon="6.72613">
        <ele>526.87</ele>
        <time>2016-09-25T07:50:34Z</time>
      </trkpt>
      <trkpt lat="47.39797" lon="6.72587">
        <ele>526.72</ele>
        <time>2016-09-25T07:50:38Z</time>
      </trkpt>
      <trkpt lat="47.39788" lon="6.7256">
        <ele>526.09</ele>
        <time>2016-09-25T07:50:42Z</time>
      </trkpt>
      <trkpt lat="47.39778" lon="6.72537">
        <ele>526.74</ele>
        <time>2016-09-25T07:50:46Z</time>
      </trkpt>
      <trkpt lat="47.39765" lon="6.7251">
        <ele>527.92</ele>
        <time>2016-09-25T07:50:51Z</time>
      </trkpt>
      <trkpt lat="47.39751" lon="6.72487">
        <ele>529.61</ele>
        <time>2016-09-25T07:50:55Z</time>
      </trkpt>
      <trkpt lat="47.39736" lon="6.72465">
        <ele>529.01</ele>
        <time>2016-09-25T07:50:59Z</time>
      </trkpt>
      <trkpt lat="47.39722" lon="6.72446">
        <ele>528.42</ele>
        <time>2016-09-25T07:51:03Z</time>
      </trkpt>
      <trkpt lat="47.39709" lon="6.72427">
        <ele>526.89</ele>
        <time>2016-09-25T07:51:07Z</time>
      </trkpt>
      <trkpt lat="47.39693" lon="6.72403">
        <ele>525.18</ele>
        <time>2016-09-25T07:51:11Z</time>
      </trkpt>
      <trkpt lat="47.39681" lon="6.7238">
        <ele>524.27</ele>
        <time>2016-09-25T07:51:15Z</time>
      </trkpt>
      <trkpt lat="47.39669" lon="6.72356">
        <ele>523.97</ele>
        <time>2016-09-25T07:51:19Z</time>
      </trkpt>
      <trkpt lat="47.39655" lon="6.72334">
        <ele>525.92</ele>
        <time>2016-09-25T07:51:24Z</time>
      </trkpt>
      <trkpt lat="47.39642" lon="6.72312">
        <ele>525.73</ele>
        <time>2016-09-25T07:51:28Z</time>
      </trkpt>
      <trkpt lat="47.39631" lon="6.72285">
        <ele>526.91</ele>
        <time>2016-09-25T07:51:32Z</time>
      </trkpt>
      <trkpt lat="47.39624" lon="6.72257">
        <ele>530.35</ele>
        <time>2016-09-25T07:51:36Z</time>
      </trkpt>
      <trkpt lat="47.39618" lon="6.72231">
        <ele>532.21</ele>
        <time>2016-09-25T07:51:40Z</time>
      </trkpt>
      <trkpt lat="47.39611" lon="6.72203">
        <ele>532.56</ele>
        <time>2016-09-25T07:51:44Z</time>
      </trkpt>
      <trkpt lat="47.39605" lon="6.72176">
        <ele>532.43</ele>
        <time>2016-09-25T07:51:48Z</time>
      </trkpt>
      <trkpt lat="47.39596" lon="6.72151">
        <ele>531.82</ele>
        <time>2016-09-25T07:51:52Z</time>
      </trkpt>
      <trkpt lat="47.39585" lon="6.72124">
        <ele>530.88</ele>
        <time>2016-09-25T07:51:56Z</time>
      </trkpt>
      <trkpt lat="47.39575" lon="6.72097">
        <ele>530.97</ele>
        <time>2016-09-25T07:52:00Z</time>
      </trkpt>
      <trkpt lat="47.39565" lon="6.72069">
        <ele>529.34</ele>
        <time>2016-09-25T07:52:04Z</time>
      </trkpt>
      <trkpt lat="47.39556" lon="6.72044">
        <ele>527.56</ele>
        <time>2016-09-25T07:52:07Z</time>
      </trkpt>
      <trkpt lat="47.39544" lon="6.72024">
        <ele>524.32</ele>
        <time>2016-09-25T07:52:11Z</time>
      </trkpt>
      <trkpt lat="47.39539" lon="6.71998">
        <ele>520.42</ele>
        <time>2016-09-25T07:52:15Z</time>
      </trkpt>
      <trkpt lat="47.39549" lon="6.71975">
        <ele>520.18</ele>
        <time>2016-09-25T07:52:19Z</time>
      </trkpt>
      <trkpt lat="47.39558" lon="6.71949">
        <ele>519.39</ele>
        <time>2016-09-25T07:52:23Z</time>
      </trkpt>
      <trkpt lat="47.39567" lon="6.71923">
        <ele>518.27</ele>
        <time>2016-09-25T07:52:27Z</time>
      </trkpt>
      <trkpt lat="47.39581" lon="6.71899">
        <ele>519.27</ele>
        <time>2016-09-25T07:52:32Z</time>
      </trkpt>
      <trkpt lat="47.39595" lon="6.7188">
        <ele>519.65</ele>
        <time>2016-09-25T07:52:37Z</time>
      </trkpt>
      <trkpt lat="47.39606" lon="6.71858">
        <ele>521.9</ele>
        <time>2016-09-25T07:52:43Z</time>
      </trkpt>
      <trkpt lat="47.39611" lon="6.71829">
        <ele>523.9</ele>
        <time>2016-09-25T07:52:49Z</time>
      </trkpt>
      <trkpt lat="47.39614" lon="6.718">
        <ele>524.77</ele>
        <time>2016-09-25T07:52:55Z</time>
      </trkpt>
      <trkpt lat="47.39617" lon="6.71772">
        <ele>526.71</ele>
        <time>2016-09-25T07:53:00Z</time>
      </trkpt>
      <trkpt lat="47.39619" lon="6.71743">
        <ele>527.14</ele>
        <time>2016-09-25T07:53:06Z</time>
      </trkpt>
      <trkpt lat="47.39621" lon="6.71713">
        <ele>527.24</ele>
        <time>2016-09-25T07:53:12Z</time>
      </trkpt>
      <trkpt lat="47.39622" lon="6.71686">
        <ele>529.04</ele>
        <time>2016-09-25T07:53:17Z</time>
      </trkpt>
      <trkpt lat="47.39626" lon="6.71659">
        <ele>529.35</ele>
        <time>2016-09-25T07:53:21Z</time>
      </trkpt>
      <trkpt lat="47.39629" lon="6.71633">
        <ele>530.05</ele>
        <time>2016-09-25T07:53:25Z</time>
      </trkpt>
      <trkpt lat="47.39631" lon="6.71601">
        <ele>532.64</ele>
        <time>2016-09-25T07:53:30Z</time>
      </trkpt>
      <trkpt lat="47.39632" lon="6.71568">
        <ele>537.84</ele>
        <time>2016-09-25T07:53:35Z</time>
      </trkpt>
      <trkpt lat="47.39632" lon="6.71539">
        <ele>539.35</ele>
        <time>2016-09-25T07:53:40Z</time>
      </trkpt>
      <trkpt lat="47.39628" lon="6.71512">
        <ele>538.59</ele>
        <time>2016-09-25T07:53:45Z</time>
      </trkpt>
      <trkpt lat="47.39614" lon="6.71493">
        <ele>538.17</ele>
        <time>2016-09-25T07:53:54Z</time>
      </trkpt>
      <trkpt lat="47.39611" lon="6.71465">
        <ele>537.91</ele>
        <time>2016-09-25T07:54:01Z</time>
      </trkpt>
      <trkpt lat="47.39606" lon="6.71438">
        <ele>538.4</ele>
        <time>2016-09-25T07:54:07Z</time>
      </trkpt>
      <trkpt lat="47.396" lon="6.71409">
        <ele>539.51</ele>
        <time>2016-09-25T07:54:13Z</time>
      </trkpt>
      <trkpt lat="47.3959" lon="6.71386">
        <ele>541.59</ele>
        <time>2016-09-25T07:54:20Z</time>
      </trkpt>
      <trkpt lat="47.39584" lon="6.71358">
        <ele>542.27</ele>
        <time>2016-09-25T07:54:25Z</time>
      </trkpt>
      <trkpt lat="47.39584" lon="6.71328">
        <ele>543.41</ele>
        <time>2016-09-25T07:54:32Z</time>
      </trkpt>
      <trkpt lat="47.39577" lon="6.71296">
        <ele>544.34</ele>
        <time>2016-09-25T07:54:38Z</time>
      </trkpt>
      <trkpt lat="47.39571" lon="6.71269">
        <ele>544.66</ele>
        <time>2016-09-25T07:54:43Z</time>
      </trkpt>
      <trkpt lat="47.39563" lon="6.71241">
        <ele>544.62</ele>
        <time>2016-09-25T07:54:48Z</time>
      </trkpt>
      <trkpt lat="47.3955" lon="6.71217">
        <ele>544.44</ele>
        <time>2016-09-25T07:54:54Z</time>
      </trkpt>
      <trkpt lat="47.39536" lon="6.71194">
        <ele>545.11</ele>
        <time>2016-09-25T07:54:59Z</time>
      </trkpt>
      <trkpt lat="47.39527" lon="6.71167">
        <ele>545.93</ele>
        <time>2016-09-25T07:55:04Z</time>
      </trkpt>
      <trkpt lat="47.3952" lon="6.7114">
        <ele>546.72</ele>
        <time>2016-09-25T07:55:09Z</time>
      </trkpt>
      <trkpt lat="47.39509" lon="6.71117">
        <ele>547.68</ele>
        <time>2016-09-25T07:55:15Z</time>
      </trkpt>
      <trkpt lat="47.39495" lon="6.71096">
        <ele>549.14</ele>
        <time>2016-09-25T07:55:21Z</time>
      </trkpt>
      <trkpt lat="47.39487" lon="6.71069">
        <ele>555.03</ele>
        <time>2016-09-25T07:55:25Z</time>
      </trkpt>
      <trkpt lat="47.39474" lon="6.71044">
        <ele>555.95</ele>
        <time>2016-09-25T07:55:30Z</time>
      </trkpt>
      <trkpt lat="47.39478" lon="6.71014">
        <ele>556.41</ele>
        <time>2016-09-25T07:55:35Z</time>
      </trkpt>
      <trkpt lat="47.39487" lon="6.7099">
        <ele>556.03</ele>
        <time>2016-09-25T07:55:40Z</time>
      </trkpt>
      <trkpt lat="47.39491" lon="6.70961">
        <ele>554.72</ele>
        <time>2016-09-25T07:55:44Z</time>
      </trkpt>
      <trkpt lat="47.39481" lon="6.7093">
        <ele>552.44</ele>
        <time>2016-09-25T07:55:48Z</time>
      </trkpt>
      <trkpt lat="47.39471" lon="6.70905">
        <ele>548.48</ele>
        <time>2016-09-25T07:55:51Z</time>
      </trkpt>
      <trkpt lat="47.39462" lon="6.70874">
        <ele>546.39</ele>
        <time>2016-09-25T07:55:56Z</time>
      </trkpt>
      <trkpt lat="47.39453" lon="6.70849">
        <ele>544.1</ele>
        <time>2016-09-25T07:56:00Z</time>
      </trkpt>
      <trkpt lat="47.39442" lon="6.70821">
        <ele>542.98</ele>
        <time>2016-09-25T07:56:04Z</time>
      </trkpt>
      <trkpt lat="47.39428" lon="6.70793">
        <ele>540.99</ele>
        <time>2016-09-25T07:56:08Z</time>
      </trkpt>
      <trkpt lat="47.39414" lon="6.70771">
        <ele>541.82</ele>
        <time>2016-09-25T07:56:12Z</time>
      </trkpt>
      <trkpt lat="47.39407" lon="6.70746">
        <ele>545.02</ele>
        <time>2016-09-25T07:56:15Z</time>
      </trkpt>
      <trkpt lat="47.39403" lon="6.70718">
        <ele>544.22</ele>
        <time>2016-09-25T07:56:18Z</time>
      </trkpt>
      <trkpt lat="47.39398" lon="6.70691">
        <ele>544.17</ele>
        <time>2016-09-25T07:56:21Z</time>
      </trkpt>
      <trkpt lat="47.3939" lon="6.70656">
        <ele>545.74</ele>
        <time>2016-09-25T07:56:25Z</time>
      </trkpt>
      <trkpt lat="47.39381" lon="6.70629">
        <ele>545.49</ele>
        <time>2016-09-25T07:56:28Z</time>
      </trkpt>
      <trkpt lat="47.39373" lon="6.70598">
        <ele>546.05</ele>
        <time>2016-09-25T07:56:32Z</time>
      </trkpt>
      <trkpt lat="47.39365" lon="6.70574">
        <ele>546.58</ele>
        <time>2016-09-25T07:56:35Z</time>
      </trkpt>
      <trkpt lat="47.39355" lon="6.70548">
        <ele>546.29</ele>
        <time>2016-09-25T07:56:38Z</time>
      </trkpt>
      <trkpt lat="47.39347" lon="6.70523">
        <ele>547.08</ele>
        <time>2016-09-25T07:56:41Z</time>
      </trkpt>
      <trkpt lat="47.39339" lon="6.7049">
        <ele>547.67</ele>
        <time>2016-09-25T07:56:45Z</time>
      </trkpt>
      <trkpt lat="47.39343" lon="6.70464">
        <ele>547.63</ele>
        <time>2016-09-25T07:56:48Z</time>
      </trkpt>
      <trkpt lat="47.39342" lon="6.70435">
        <ele>546.82</ele>
        <time>2016-09-25T07:56:51Z</time>
      </trkpt>
      <trkpt lat="47.39337" lon="6.70407">
        <ele>545.31</ele>
        <time>2016-09-25T07:56:54Z</time>
      </trkpt>
      <trkpt lat="47.39332" lon="6.70376">
        <ele>542.93</ele>
        <time>2016-09-25T07:56:58Z</time>
      </trkpt>
      <trkpt lat="47.39329" lon="6.70349">
        <ele>537.16</ele>
        <time>2016-09-25T08:00:14Z</time>
      </trkpt>
      <trkpt lat="47.3933" lon="6.7032">
        <ele>535.66</ele>
        <time>2016-09-25T08:00:25Z</time>
      </trkpt>
      <trkpt lat="47.39326" lon="6.70293">
        <ele>534.66</ele>
        <time>2016-09-25T08:00:34Z</time>
      </trkpt>
      <trkpt lat="47.39322" lon="6.70263">
        <ele>534.08</ele>
        <time>2016-09-25T08:00:40Z</time>
      </trkpt>
      <trkpt lat="47.39319" lon="6.70236">
        <ele>533.84</ele>
        <time>2016-09-25T08:00:45Z</time>
      </trkpt>
      <trkpt lat="47.39316" lon="6.70209">
        <ele>535.04</ele>
        <time>2016-09-25T08:00:50Z</time>
      </trkpt>
      <trkpt lat="47.3931" lon="6.70178">
        <ele>533.35</ele>
        <time>2016-09-25T08:00:55Z</time>
      </trkpt>
      <trkpt lat="47.39306" lon="6.70149">
        <ele>531.66</ele>
        <time>2016-09-25T08:00:59Z</time>
      </trkpt>
      <trkpt lat="47.39302" lon="6.70118">
        <ele>530.14</ele>
        <time>2016-09-25T08:01:03Z</time>
      </trkpt>
      <trkpt lat="47.39296" lon="6.70086">
        <ele>527.73</ele>
        <time>2016-09-25T08:01:07Z</time>
      </trkpt>
      <trkpt lat="47.39292" lon="6.70055">
        <ele>527.02</ele>
        <time>2016-09-25T08:01:11Z</time>
      </trkpt>
      <trkpt lat="47.3929" lon="6.70023">
        <ele>526.09</ele>
        <time>2016-09-25T08:01:15Z</time>
      </trkpt>
      <trkpt lat="47.39288" lon="6.69989">
        <ele>524.71</ele>
        <time>2016-09-25T08:01:19Z</time>
      </trkpt>
      <trkpt lat="47.39286" lon="6.69954">
        <ele>525.8</ele>
        <time>2016-09-25T08:01:23Z</time>
      </trkpt>
      <trkpt lat="47.39281" lon="6.69927">
        <ele>526.26</ele>
        <time>2016-09-25T08:01:26Z</time>
      </trkpt>
      <trkpt lat="47.39277" lon="6.69901">
        <ele>525.1</ele>
        <time>2016-09-25T08:01:29Z</time>
      </trkpt>
      <trkpt lat="47.39272" lon="6.69866">
        <ele>524.21</ele>
        <time>2016-09-25T08:01:33Z</time>
      </trkpt>
      <trkpt lat="47.39268" lon="6.69838">
        <ele>522.68</ele>
        <time>2016-09-25T08:01:36Z</time>
      </trkpt>
      <trkpt lat="47.39264" lon="6.69809">
        <ele>521.16</ele>
        <time>2016-09-25T08:01:39Z</time>
      </trkpt>
      <trkpt lat="47.3926" lon="6.69781">
        <ele>519.17</ele>
        <time>2016-09-25T08:01:42Z</time>
      </trkpt>
      <trkpt lat="47.39257" lon="6.69753">
        <ele>517.78</ele>
        <time>2016-09-25T08:01:45Z</time>
      </trkpt>
      <trkpt lat="47.39252" lon="6.69726">
        <ele>518.36</ele>
        <time>2016-09-25T08:01:48Z</time>
      </trkpt>
      <trkpt lat="47.39244" lon="6.69694">
        <ele>518.99</ele>
        <time>2016-09-25T08:01:52Z</time>
      </trkpt>
      <trkpt lat="47.39235" lon="6.69664">
        <ele>518.71</ele>
        <time>2016-09-25T08:01:56Z</time>
      </trkpt>
      <trkpt lat="47.39231" lon="6.69632">
        <ele>520.18</ele>
        <time>2016-09-25T08:02:00Z</time>
      </trkpt>
      <trkpt lat="47.39227" lon="6.69605">
        <ele>520.81</ele>
        <time>2016-09-25T08:02:03Z</time>
      </trkpt>
      <trkpt lat="47.39223" lon="6.69577">
        <ele>520.05</ele>
        <time>2016-09-25T08:02:06Z</time>
      </trkpt>
      <trkpt lat="47.39218" lon="6.69549">
        <ele>519.09</ele>
        <time>2016-09-25T08:02:09Z</time>
      </trkpt>
      <trkpt lat="47.39213" lon="6.69521">
        <ele>517.65</ele>
        <time>2016-09-25T08:02:13Z</time>
      </trkpt>
      <trkpt lat="47.39218" lon="6.69491">
        <ele>516.73</ele>
        <time>2016-09-25T08:02:19Z</time>
      </trkpt>
      <trkpt lat="47.39237" lon="6.69483">
        <ele>516.57</ele>
        <time>2016-09-25T08:02:25Z</time>
      </trkpt>
      <trkpt lat="47.39256" lon="6.69475">
        <ele>516.6</ele>
        <time>2016-09-25T08:02:31Z</time>
      </trkpt>
      <trkpt lat="47.39272" lon="6.69463">
        <ele>516.5</ele>
        <time>2016-09-25T08:02:37Z</time>
      </trkpt>
      <trkpt lat="47.39285" lon="6.69443">
        <ele>516.36</ele>
        <time>2016-09-25T08:02:43Z</time>
      </trkpt>
      <trkpt lat="47.39296" lon="6.69421">
        <ele>516.59</ele>
        <time>2016-09-25T08:02:49Z</time>
      </trkpt>
      <trkpt lat="47.39311" lon="6.69407">
        <ele>516.36</ele>
        <time>2016-09-25T08:02:55Z</time>
      </trkpt>
      <trkpt lat="47.39332" lon="6.69401">
        <ele>515.96</ele>
        <time>2016-09-25T08:03:02Z</time>
      </trkpt>
      <trkpt lat="47.39351" lon="6.69405">
        <ele>515.85</ele>
        <time>2016-09-25T08:03:09Z</time>
      </trkpt>
      <trkpt lat="47.39371" lon="6.69412">
        <ele>515.99</ele>
        <time>2016-09-25T08:03:18Z</time>
      </trkpt>
      <trkpt lat="47.39389" lon="6.69404">
        <ele>516.84</ele>
        <time>2016-09-25T08:03:26Z</time>
      </trkpt>
      <trkpt lat="47.39401" lon="6.69384">
        <ele>518.73</ele>
        <time>2016-09-25T08:03:35Z</time>
      </trkpt>
      <trkpt lat="47.3941" lon="6.69358">
        <ele>520.27</ele>
        <time>2016-09-25T08:03:45Z</time>
      </trkpt>
      <trkpt lat="47.39412" lon="6.69329">
        <ele>521.36</ele>
        <time>2016-09-25T08:03:54Z</time>
      </trkpt>
      <trkpt lat="47.39408" lon="6.69302">
        <ele>521.17</ele>
        <time>2016-09-25T08:04:02Z</time>
      </trkpt>
      <trkpt lat="47.39407" lon="6.69274">
        <ele>521.16</ele>
        <time>2016-09-25T08:04:10Z</time>
      </trkpt>
      <trkpt lat="47.39403" lon="6.69246">
        <ele>521.45</ele>
        <time>2016-09-25T08:04:17Z</time>
      </trkpt>
      <trkpt lat="47.39399" lon="6.69218">
        <ele>522.07</ele>
        <time>2016-09-25T08:04:24Z</time>
      </trkpt>
      <trkpt lat="47.39395" lon="6.69192">
        <ele>522.19</ele>
        <time>2016-09-25T08:04:31Z</time>
      </trkpt>
      <trkpt lat="47.39391" lon="6.69162">
        <ele>522.39</ele>
        <time>2016-09-25T08:04:38Z</time>
      </trkpt>
      <trkpt lat="47.39395" lon="6.69133">
        <ele>524.21</ele>
        <time>2016-09-25T08:04:44Z</time>
      </trkpt>
      <trkpt lat="47.394" lon="6.69104">
        <ele>525.96</ele>
        <time>2016-09-25T08:04:51Z</time>
      </trkpt>
      <trkpt lat="47.39401" lon="6.69076">
        <ele>527.96</ele>
        <time>2016-09-25T08:04:58Z</time>
      </trkpt>
      <trkpt lat="47.39404" lon="6.69048">
        <ele>529.42</ele>
        <time>2016-09-25T08:05:05Z</time>
      </trkpt>
      <trkpt lat="47.39409" lon="6.69019">
        <ele>530.85</ele>
        <time>2016-09-25T08:05:12Z</time>
      </trkpt>
      <trkpt lat="47.39415" lon="6.68991">
        <ele>532.11</ele>
        <time>2016-09-25T08:05:19Z</time>
      </trkpt>
      <trkpt lat="47.39419" lon="6.68965">
        <ele>533.32</ele>
        <time>2016-09-25T08:05:27Z</time>
      </trkpt>
      <trkpt lat="47.39423" lon="6.68938">
        <ele>534.15</ele>
        <time>2016-09-25T08:05:34Z</time>
      </trkpt>
      <trkpt lat="47.39427" lon="6.68909">
        <ele>535.1</ele>
        <time>2016-09-25T08:05:42Z</time>
      </trkpt>
      <trkpt lat="47.3943" lon="6.68883">
        <ele>535.63</ele>
        <time>2016-09-25T08:05:48Z</time>
      </trkpt>
      <trkpt lat="47.39434" lon="6.68855">
        <ele>535.98</ele>
        <time>2016-09-25T08:05:54Z</time>
      </trkpt>
      <trkpt lat="47.39438" lon="6.68828">
        <ele>537.66</ele>
        <time>2016-09-25T08:05:59Z</time>
      </trkpt>
      <trkpt lat="47.39426" lon="6.68804">
        <ele>538.78</ele>
        <time>2016-09-25T08:06:04Z</time>
      </trkpt>
      <trkpt lat="47.39409" lon="6.68792">
        <ele>541.21</ele>
        <time>2016-09-25T08:06:08Z</time>
      </trkpt>
      <trkpt lat="47.39392" lon="6.6878">
        <ele>541.28</ele>
        <time>2016-09-25T08:06:12Z</time>
      </trkpt>
      <trkpt lat="47.39376" lon="6.68768">
        <ele>540.77</ele>
        <time>2016-09-25T08:06:17Z</time>
      </trkpt>
      <trkpt lat="47.39358" lon="6.68751">
        <ele>541.05</ele>
        <time>2016-09-25T08:06:22Z</time>
      </trkpt>
      <trkpt lat="47.39341" lon="6.68734">
        <ele>540.94</ele>
        <time>2016-09-25T08:06:27Z</time>
      </trkpt>
      <trkpt lat="47.39323" lon="6.68718">
        <ele>540.24</ele>
        <time>2016-09-25T08:06:32Z</time>
      </trkpt>
      <trkpt lat="47.39306" lon="6.68704">
        <ele>538.73</ele>
        <time>2016-09-25T08:06:37Z</time>
      </trkpt>
      <trkpt lat="47.39287" lon="6.68688">
        <ele>539.12</ele>
        <time>2016-09-25T08:06:42Z</time>
      </trkpt>
      <trkpt lat="47.39268" lon="6.68672">
        <ele>540.23</ele>
        <time>2016-09-25T08:06:47Z</time>
      </trkpt>
      <trkpt lat="47.39251" lon="6.68658">
        <ele>540.81</ele>
        <time>2016-09-25T08:06:52Z</time>
      </trkpt>
      <trkpt lat="47.39234" lon="6.68641">
        <ele>540.65</ele>
        <time>2016-09-25T08:06:57Z</time>
      </trkpt>
      <trkpt lat="47.39218" lon="6.68621">
        <ele>540.08</ele>
        <time>2016-09-25T08:07:02Z</time>
      </trkpt>
      <trkpt lat="47.392" lon="6.68605">
        <ele>538.2</ele>
        <time>2016-09-25T08:07:07Z</time>
      </trkpt>
      <trkpt lat="47.3919" lon="6.68628">
        <ele>537.78</ele>
        <time>2016-09-25T08:07:13Z</time>
      </trkpt>
      <trkpt lat="47.39181" lon="6.68655">
        <ele>537.24</ele>
        <time>2016-09-25T08:07:18Z</time>
      </trkpt>
      <trkpt lat="47.39171" lon="6.68682">
        <ele>537.75</ele>
        <time>2016-09-25T08:07:23Z</time>
      </trkpt>
      <trkpt lat="47.3916" lon="6.68709">
        <ele>538.77</ele>
        <time>2016-09-25T08:07:27Z</time>
      </trkpt>
      <trkpt lat="47.39149" lon="6.68733">
        <ele>537.78</ele>
        <time>2016-09-25T08:07:31Z</time>
      </trkpt>
      <trkpt lat="47.39138" lon="6.68756">
        <ele>536.74</ele>
        <time>2016-09-25T08:07:35Z</time>
      </trkpt>
      <trkpt lat="47.3913" lon="6.68784">
        <ele>535.29</ele>
        <time>2016-09-25T08:07:40Z</time>
      </trkpt>
      <trkpt lat="47.39123" lon="6.68809">
        <ele>533.31</ele>
        <time>2016-09-25T08:07:45Z</time>
      </trkpt>
      <trkpt lat="47.39117" lon="6.68836">
        <ele>533.8</ele>
        <time>2016-09-25T08:07:50Z</time>
      </trkpt>
      <trkpt lat="47.3911" lon="6.68866">
        <ele>533.93</ele>
        <time>2016-09-25T08:07:56Z</time>
      </trkpt>
      <trkpt lat="47.391" lon="6.68895">
        <ele>534.4</ele>
        <time>2016-09-25T08:08:02Z</time>
      </trkpt>
      <trkpt lat="47.39091" lon="6.6892">
        <ele>532.96</ele>
        <time>2016-09-25T08:08:06Z</time>
      </trkpt>
      <trkpt lat="47.39081" lon="6.68947">
        <ele>530.88</ele>
        <time>2016-09-25T08:08:10Z</time>
      </trkpt>
      <trkpt lat="47.39071" lon="6.6897">
        <ele>529.57</ele>
        <time>2016-09-25T08:08:13Z</time>
      </trkpt>
      <trkpt lat="47.39056" lon="6.68996">
        <ele>528.61</ele>
        <time>2016-09-25T08:08:16Z</time>
      </trkpt>
      <trkpt lat="47.3904" lon="6.69019">
        <ele>527.27</ele>
        <time>2016-09-25T08:08:20Z</time>
      </trkpt>
      <trkpt lat="47.39025" lon="6.69039">
        <ele>525.77</ele>
        <time>2016-09-25T08:08:24Z</time>
      </trkpt>
      <trkpt lat="47.3901" lon="6.6906">
        <ele>524.3</ele>
        <time>2016-09-25T08:08:28Z</time>
      </trkpt>
      <trkpt lat="47.38996" lon="6.69081">
        <ele>523.38</ele>
        <time>2016-09-25T08:08:32Z</time>
      </trkpt>
      <trkpt lat="47.38984" lon="6.69103">
        <ele>522.87</ele>
        <time>2016-09-25T08:08:36Z</time>
      </trkpt>
      <trkpt lat="47.38965" lon="6.691">
        <ele>522.09</ele>
        <time>2016-09-25T08:08:51Z</time>
      </trkpt>
      <trkpt lat="47.38951" lon="6.69083">
        <ele>521.66</ele>
        <time>2016-09-25T08:08:59Z</time>
      </trkpt>
      <trkpt lat="47.38939" lon="6.69058">
        <ele>522.03</ele>
        <time>2016-09-25T08:09:06Z</time>
      </trkpt>
      <trkpt lat="47.38935" lon="6.69028">
        <ele>522.35</ele>
        <time>2016-09-25T08:09:13Z</time>
      </trkpt>
      <trkpt lat="47.3892" lon="6.6901">
        <ele>522.83</ele>
        <time>2016-09-25T08:09:18Z</time>
      </trkpt>
      <trkpt lat="47.38903" lon="6.68993">
        <ele>522.29</ele>
        <time>2016-09-25T08:09:23Z</time>
      </trkpt>
      <trkpt lat="47.38884" lon="6.68974">
        <ele>521.16</ele>
        <time>2016-09-25T08:09:28Z</time>
      </trkpt>
      <trkpt lat="47.38867" lon="6.68955">
        <ele>522.16</ele>
        <time>2016-09-25T08:09:31Z</time>
      </trkpt>
      <trkpt lat="47.38859" lon="6.68931">
        <ele>523.59</ele>
        <time>2016-09-25T08:09:34Z</time>
      </trkpt>
      <trkpt lat="47.3886" lon="6.68903">
        <ele>522.67</ele>
        <time>2016-09-25T08:09:38Z</time>
      </trkpt>
      <trkpt lat="47.38863" lon="6.68871">
        <ele>518.82</ele>
        <time>2016-09-25T08:09:42Z</time>
      </trkpt>
      <trkpt lat="47.38862" lon="6.68843">
        <ele>517.17</ele>
        <time>2016-09-25T08:09:46Z</time>
      </trkpt>
      <trkpt lat="47.38864" lon="6.68813">
        <ele>515.88</ele>
        <time>2016-09-25T08:09:51Z</time>
      </trkpt>
      <trkpt lat="47.38851" lon="6.68769">
        <ele>515.16</ele>
        <time>2016-09-25T08:10:19Z</time>
      </trkpt>
      <trkpt lat="47.38849" lon="6.6874">
        <ele>514.3</ele>
        <time>2016-09-25T08:10:29Z</time>
      </trkpt>
      <trkpt lat="47.38843" lon="6.68711">
        <ele>513</ele>
        <time>2016-09-25T08:10:34Z</time>
      </trkpt>
      <trkpt lat="47.3884" lon="6.68677">
        <ele>512.27</ele>
        <time>2016-09-25T08:10:38Z</time>
      </trkpt>
      <trkpt lat="47.38838" lon="6.68644">
        <ele>512.68</ele>
        <time>2016-09-25T08:10:42Z</time>
      </trkpt>
      <trkpt lat="47.3883" lon="6.68617">
        <ele>508.95</ele>
        <time>2016-09-25T08:10:45Z</time>
      </trkpt>
      <trkpt lat="47.38827" lon="6.68589">
        <ele>504.63</ele>
        <time>2016-09-25T08:10:48Z</time>
      </trkpt>
      <trkpt lat="47.38826" lon="6.68561">
        <ele>503.57</ele>
        <time>2016-09-25T08:10:52Z</time>
      </trkpt>
      <trkpt lat="47.38828" lon="6.68534">
        <ele>502.81</ele>
        <time>2016-09-25T08:10:57Z</time>
      </trkpt>
      <trkpt lat="47.3883" lon="6.68506">
        <ele>502.63</ele>
        <time>2016-09-25T08:11:03Z</time>
      </trkpt>
      <trkpt lat="47.38829" lon="6.68479">
        <ele>502.8</ele>
        <time>2016-09-25T08:11:10Z</time>
      </trkpt>
      <trkpt lat="47.38821" lon="6.68453">
        <ele>503.22</ele>
        <time>2016-09-25T08:11:16Z</time>
      </trkpt>
      <trkpt lat="47.38819" lon="6.68426">
        <ele>503.88</ele>
        <time>2016-09-25T08:11:23Z</time>
      </trkpt>
      <trkpt lat="47.38824" lon="6.68399">
        <ele>504.5</ele>
        <time>2016-09-25T08:11:32Z</time>
      </trkpt>
      <trkpt lat="47.38824" lon="6.6837">
        <ele>505.9</ele>
        <time>2016-09-25T08:11:38Z</time>
      </trkpt>
      <trkpt lat="47.38816" lon="6.68344">
        <ele>508.2</ele>
        <time>2016-09-25T08:11:46Z</time>
      </trkpt>
      <trkpt lat="47.38806" lon="6.68319">
        <ele>511.21</ele>
        <time>2016-09-25T08:11:55Z</time>
      </trkpt>
      <trkpt lat="47.38795" lon="6.68299">
        <ele>513.48</ele>
        <time>2016-09-25T08:12:04Z</time>
      </trkpt>
      <trkpt lat="47.38778" lon="6.68283">
        <ele>514.69</ele>
        <time>2016-09-25T08:12:11Z</time>
      </trkpt>
      <trkpt lat="47.38761" lon="6.68294">
        <ele>516.91</ele>
        <time>2016-09-25T08:12:16Z</time>
      </trkpt>
      <trkpt lat="47.38743" lon="6.68291">
        <ele>517.68</ele>
        <time>2016-09-25T08:12:21Z</time>
      </trkpt>
      <trkpt lat="47.38722" lon="6.68284">
        <ele>517.67</ele>
        <time>2016-09-25T08:12:26Z</time>
      </trkpt>
      <trkpt lat="47.38702" lon="6.68277">
        <ele>517.28</ele>
        <time>2016-09-25T08:12:30Z</time>
      </trkpt>
      <trkpt lat="47.38679" lon="6.68268">
        <ele>516.09</ele>
        <time>2016-09-25T08:12:34Z</time>
      </trkpt>
      <trkpt lat="47.38661" lon="6.68254">
        <ele>514.38</ele>
        <time>2016-09-25T08:12:38Z</time>
      </trkpt>
      <trkpt lat="47.38646" lon="6.68241">
        <ele>512.08</ele>
        <time>2016-09-25T08:12:42Z</time>
      </trkpt>
      <trkpt lat="47.3863" lon="6.68225">
        <ele>510.55</ele>
        <time>2016-09-25T08:12:45Z</time>
      </trkpt>
      <trkpt lat="47.38615" lon="6.68211">
        <ele>511.25</ele>
        <time>2016-09-25T08:12:48Z</time>
      </trkpt>
      <trkpt lat="47.38598" lon="6.68203">
        <ele>511.07</ele>
        <time>2016-09-25T08:12:51Z</time>
      </trkpt>
      <trkpt lat="47.38578" lon="6.68191">
        <ele>510.54</ele>
        <time>2016-09-25T08:12:56Z</time>
      </trkpt>
      <trkpt lat="47.38561" lon="6.68178">
        <ele>508.83</ele>
        <time>2016-09-25T08:13:00Z</time>
      </trkpt>
      <trkpt lat="47.38546" lon="6.68159">
        <ele>509.23</ele>
        <time>2016-09-25T08:13:05Z</time>
      </trkpt>
      <trkpt lat="47.3853" lon="6.68131">
        <ele>510.99</ele>
        <time>2016-09-25T08:13:09Z</time>
      </trkpt>
      <trkpt lat="47.38516" lon="6.68109">
        <ele>510.17</ele>
        <time>2016-09-25T08:13:12Z</time>
      </trkpt>
      <trkpt lat="47.385" lon="6.68095">
        <ele>508.66</ele>
        <time>2016-09-25T08:13:16Z</time>
      </trkpt>
      <trkpt lat="47.38482" lon="6.68082">
        <ele>507.77</ele>
        <time>2016-09-25T08:13:20Z</time>
      </trkpt>
      <trkpt lat="47.38463" lon="6.68066">
        <ele>508.01</ele>
        <time>2016-09-25T08:13:23Z</time>
      </trkpt>
      <trkpt lat="47.38448" lon="6.6805">
        <ele>509.12</ele>
        <time>2016-09-25T08:13:26Z</time>
      </trkpt>
      <trkpt lat="47.38427" lon="6.6805">
        <ele>508.16</ele>
        <time>2016-09-25T08:13:29Z</time>
      </trkpt>
      <trkpt lat="47.38408" lon="6.68057">
        <ele>509.31</ele>
        <time>2016-09-25T08:13:32Z</time>
      </trkpt>
      <trkpt lat="47.38388" lon="6.68063">
        <ele>509.94</ele>
        <time>2016-09-25T08:13:36Z</time>
      </trkpt>
      <trkpt lat="47.38368" lon="6.6806">
        <ele>507.04</ele>
        <time>2016-09-25T08:13:40Z</time>
      </trkpt>
      <trkpt lat="47.38351" lon="6.68048">
        <ele>505.31</ele>
        <time>2016-09-25T08:13:44Z</time>
      </trkpt>
      <trkpt lat="47.38333" lon="6.68039">
        <ele>505.73</ele>
        <time>2016-09-25T08:13:47Z</time>
      </trkpt>
      <trkpt lat="47.38316" lon="6.6803">
        <ele>505.36</ele>
        <time>2016-09-25T08:13:51Z</time>
      </trkpt>
      <trkpt lat="47.38296" lon="6.68016">
        <ele>505.91</ele>
        <time>2016-09-25T08:13:55Z</time>
      </trkpt>
      <trkpt lat="47.38282" lon="6.67999">
        <ele>506.3</ele>
        <time>2016-09-25T08:14:00Z</time>
      </trkpt>
      <trkpt lat="47.38267" lon="6.67979">
        <ele>507.83</ele>
        <time>2016-09-25T08:14:04Z</time>
      </trkpt>
      <trkpt lat="47.38248" lon="6.67969">
        <ele>510.54</ele>
        <time>2016-09-25T08:14:08Z</time>
      </trkpt>
      <trkpt lat="47.3824" lon="6.67997">
        <ele>510.99</ele>
        <time>2016-09-25T08:14:16Z</time>
      </trkpt>
      <trkpt lat="47.38248" lon="6.68029">
        <ele>511.55</ele>
        <time>2016-09-25T08:14:21Z</time>
      </trkpt>
      <trkpt lat="47.38229" lon="6.68051">
        <ele>508.99</ele>
        <time>2016-09-25T08:14:25Z</time>
      </trkpt>
      <trkpt lat="47.38207" lon="6.68031">
        <ele>507.85</ele>
        <time>2016-09-25T08:14:28Z</time>
      </trkpt>
      <trkpt lat="47.3819" lon="6.68013">
        <ele>507.17</ele>
        <time>2016-09-25T08:14:31Z</time>
      </trkpt>
      <trkpt lat="47.38173" lon="6.67997">
        <ele>506.04</ele>
        <time>2016-09-25T08:14:35Z</time>
      </trkpt>
      <trkpt lat="47.38154" lon="6.67983">
        <ele>504.53</ele>
        <time>2016-09-25T08:14:39Z</time>
      </trkpt>
      <trkpt lat="47.38135" lon="6.6798">
        <ele>503.58</ele>
        <time>2016-09-25T08:14:46Z</time>
      </trkpt>
      <trkpt lat="47.38116" lon="6.67981">
        <ele>503.52</ele>
        <time>2016-09-25T08:15:03Z</time>
      </trkpt>
      <trkpt lat="47.38095" lon="6.67982">
        <ele>501.69</ele>
        <time>2016-09-25T08:15:11Z</time>
      </trkpt>
      <trkpt lat="47.3807" lon="6.67979">
        <ele>499.68</ele>
        <time>2016-09-25T08:15:15Z</time>
      </trkpt>
      <trkpt lat="47.38048" lon="6.67978">
        <ele>498.39</ele>
        <time>2016-09-25T08:15:18Z</time>
      </trkpt>
      <trkpt lat="47.38027" lon="6.67977">
        <ele>496.27</ele>
        <time>2016-09-25T08:15:21Z</time>
      </trkpt>
      <trkpt lat="47.38003" lon="6.67963">
        <ele>495.11</ele>
        <time>2016-09-25T08:15:24Z</time>
      </trkpt>
      <trkpt lat="47.37985" lon="6.67955">
        <ele>494.01</ele>
        <time>2016-09-25T08:15:26Z</time>
      </trkpt>
      <trkpt lat="47.37965" lon="6.67949">
        <ele>493.88</ele>
        <time>2016-09-25T08:15:28Z</time>
      </trkpt>
      <trkpt lat="47.37946" lon="6.67944">
        <ele>493.17</ele>
        <time>2016-09-25T08:15:30Z</time>
      </trkpt>
      <trkpt lat="47.37927" lon="6.67949">
        <ele>491.29</ele>
        <time>2016-09-25T08:15:32Z</time>
      </trkpt>
      <trkpt lat="47.37902" lon="6.67949">
        <ele>490.55</ele>
        <time>2016-09-25T08:15:35Z</time>
      </trkpt>
      <trkpt lat="47.37893" lon="6.67923">
        <ele>486.19</ele>
        <time>2016-09-25T08:15:40Z</time>
      </trkpt>
      <trkpt lat="47.37903" lon="6.67892">
        <ele>484.68</ele>
        <time>2016-09-25T08:15:44Z</time>
      </trkpt>
      <trkpt lat="47.37924" lon="6.67875">
        <ele>482.33</ele>
        <time>2016-09-25T08:15:48Z</time>
      </trkpt>
      <trkpt lat="47.37945" lon="6.67861">
        <ele>478.25</ele>
        <time>2016-09-25T08:15:52Z</time>
      </trkpt>
      <trkpt lat="47.37967" lon="6.67853">
        <ele>472.17</ele>
        <time>2016-09-25T08:15:56Z</time>
      </trkpt>
      <trkpt lat="47.37986" lon="6.67839">
        <ele>468.27</ele>
        <time>2016-09-25T08:16:00Z</time>
      </trkpt>
      <trkpt lat="47.37992" lon="6.67811">
        <ele>466.2</ele>
        <time>2016-09-25T08:16:07Z</time>
      </trkpt>
      <trkpt lat="47.37973" lon="6.67816">
        <ele>455.71</ele>
        <time>2016-09-25T08:16:12Z</time>
      </trkpt>
      <trkpt lat="47.37954" lon="6.67815">
        <ele>452</ele>
        <time>2016-09-25T08:16:16Z</time>
      </trkpt>
      <trkpt lat="47.37932" lon="6.67813">
        <ele>451.11</ele>
        <time>2016-09-25T08:16:21Z</time>
      </trkpt>
      <trkpt lat="47.37913" lon="6.67811">
        <ele>449.12</ele>
        <time>2016-09-25T08:16:24Z</time>
      </trkpt>
      <trkpt lat="47.37888" lon="6.67811">
        <ele>446.59</ele>
        <time>2016-09-25T08:16:28Z</time>
      </trkpt>
      <trkpt lat="47.37862" lon="6.67814">
        <ele>443.53</ele>
        <time>2016-09-25T08:16:32Z</time>
      </trkpt>
      <trkpt lat="47.37837" lon="6.67815">
        <ele>440.79</ele>
        <time>2016-09-25T08:16:35Z</time>
      </trkpt>
      <trkpt lat="47.37811" lon="6.67822">
        <ele>437.27</ele>
        <time>2016-09-25T08:16:37Z</time>
      </trkpt>
      <trkpt lat="47.37795" lon="6.67837">
        <ele>436.28</ele>
        <time>2016-09-25T08:16:40Z</time>
      </trkpt>
      <trkpt lat="47.37779" lon="6.67856">
        <ele>436.37</ele>
        <time>2016-09-25T08:16:41Z</time>
      </trkpt>
      <trkpt lat="47.37765" lon="6.67885">
        <ele>436.21</ele>
        <time>2016-09-25T08:16:44Z</time>
      </trkpt>
      <trkpt lat="47.37756" lon="6.67914">
        <ele>434.66</ele>
        <time>2016-09-25T08:16:48Z</time>
      </trkpt>
      <trkpt lat="47.37751" lon="6.67943">
        <ele>437.52</ele>
        <time>2016-09-25T08:16:51Z</time>
      </trkpt>
      <trkpt lat="47.37746" lon="6.6797">
        <ele>439.62</ele>
        <time>2016-09-25T08:16:53Z</time>
      </trkpt>
      <trkpt lat="47.37743" lon="6.67999">
        <ele>439.65</ele>
        <time>2016-09-25T08:16:56Z</time>
      </trkpt>
      <trkpt lat="47.37742" lon="6.68033">
        <ele>437.92</ele>
        <time>2016-09-25T08:17:00Z</time>
      </trkpt>
      <trkpt lat="47.37746" lon="6.68067">
        <ele>436.77</ele>
        <time>2016-09-25T08:17:04Z</time>
      </trkpt>
      <trkpt lat="47.37752" lon="6.68095">
        <ele>435.19</ele>
        <time>2016-09-25T08:17:08Z</time>
      </trkpt>
      <trkpt lat="47.37762" lon="6.68119">
        <ele>431.35</ele>
        <time>2016-09-25T08:17:12Z</time>
      </trkpt>
      <trkpt lat="47.37779" lon="6.68137">
        <ele>427.71</ele>
        <time>2016-09-25T08:17:17Z</time>
      </trkpt>
      <trkpt lat="47.37792" lon="6.68159">
        <ele>428.9</ele>
        <time>2016-09-25T08:17:23Z</time>
      </trkpt>
      <trkpt lat="47.37808" lon="6.68178">
        <ele>428.86</ele>
        <time>2016-09-25T08:17:28Z</time>
      </trkpt>
      <trkpt lat="47.37825" lon="6.68198">
        <ele>428.49</ele>
        <time>2016-09-25T08:17:33Z</time>
      </trkpt>
      <trkpt lat="47.37843" lon="6.68214">
        <ele>428.96</ele>
        <time>2016-09-25T08:17:39Z</time>
      </trkpt>
      <trkpt lat="47.37859" lon="6.6823">
        <ele>429.68</ele>
        <time>2016-09-25T08:17:44Z</time>
      </trkpt>
      <trkpt lat="47.37873" lon="6.68248">
        <ele>430.62</ele>
        <time>2016-09-25T08:17:51Z</time>
      </trkpt>
      <trkpt lat="47.37888" lon="6.68265">
        <ele>432.23</ele>
        <time>2016-09-25T08:17:56Z</time>
      </trkpt>
      <trkpt lat="47.37904" lon="6.68277">
        <ele>433.74</ele>
        <time>2016-09-25T08:18:03Z</time>
      </trkpt>
      <trkpt lat="47.37918" lon="6.68295">
        <ele>435.58</ele>
        <time>2016-09-25T08:18:08Z</time>
      </trkpt>
      <trkpt lat="47.37933" lon="6.68313">
        <ele>437.07</ele>
        <time>2016-09-25T08:18:13Z</time>
      </trkpt>
      <trkpt lat="47.3795" lon="6.68331">
        <ele>438.67</ele>
        <time>2016-09-25T08:18:20Z</time>
      </trkpt>
      <trkpt lat="47.37964" lon="6.68353">
        <ele>439.92</ele>
        <time>2016-09-25T08:18:25Z</time>
      </trkpt>
      <trkpt lat="47.37974" lon="6.68385">
        <ele>444.76</ele>
        <time>2016-09-25T08:18:32Z</time>
      </trkpt>
      <trkpt lat="47.37995" lon="6.68399">
        <ele>448.5</ele>
        <time>2016-09-25T08:18:36Z</time>
      </trkpt>
      <trkpt lat="47.38019" lon="6.68405">
        <ele>446.26</ele>
        <time>2016-09-25T08:18:39Z</time>
      </trkpt>
      <trkpt lat="47.38038" lon="6.68405">
        <ele>445.91</ele>
        <time>2016-09-25T08:18:40Z</time>
      </trkpt>
      <trkpt lat="47.38057" lon="6.68401">
        <ele>445.01</ele>
        <time>2016-09-25T08:18:43Z</time>
      </trkpt>
      <trkpt lat="47.38075" lon="6.68393">
        <ele>443.47</ele>
        <time>2016-09-25T08:18:44Z</time>
      </trkpt>
      <trkpt lat="47.38099" lon="6.6838">
        <ele>439.73</ele>
        <time>2016-09-25T08:18:48Z</time>
      </trkpt>
      <trkpt lat="47.38119" lon="6.68365">
        <ele>435.6</ele>
        <time>2016-09-25T08:18:51Z</time>
      </trkpt>
      <trkpt lat="47.38138" lon="6.68347">
        <ele>432.96</ele>
        <time>2016-09-25T08:18:53Z</time>
      </trkpt>
      <trkpt lat="47.38157" lon="6.68348">
        <ele>430.63</ele>
        <time>2016-09-25T08:18:57Z</time>
      </trkpt>
      <trkpt lat="47.38165" lon="6.68374">
        <ele>430.53</ele>
        <time>2016-09-25T08:19:05Z</time>
      </trkpt>
      <trkpt lat="47.38173" lon="6.68404">
        <ele>429.6</ele>
        <time>2016-09-25T08:19:12Z</time>
      </trkpt>
      <trkpt lat="47.3818" lon="6.68429">
        <ele>429.12</ele>
        <time>2016-09-25T08:19:16Z</time>
      </trkpt>
      <trkpt lat="47.38191" lon="6.68455">
        <ele>428.68</ele>
        <time>2016-09-25T08:19:24Z</time>
      </trkpt>
      <trkpt lat="47.38208" lon="6.68474">
        <ele>428.75</ele>
        <time>2016-09-25T08:19:28Z</time>
      </trkpt>
      <trkpt lat="47.38226" lon="6.68483">
        <ele>428.97</ele>
        <time>2016-09-25T08:19:35Z</time>
      </trkpt>
      <trkpt lat="47.38242" lon="6.68507">
        <ele>429.55</ele>
        <time>2016-09-25T08:19:40Z</time>
      </trkpt>
      <trkpt lat="47.38259" lon="6.68522">
        <ele>429.75</ele>
        <time>2016-09-25T08:19:44Z</time>
      </trkpt>
      <trkpt lat="47.3828" lon="6.68535">
        <ele>429.16</ele>
        <time>2016-09-25T08:19:48Z</time>
      </trkpt>
      <trkpt lat="47.38299" lon="6.68538">
        <ele>426.36</ele>
        <time>2016-09-25T08:19:52Z</time>
      </trkpt>
      <trkpt lat="47.38319" lon="6.68545">
        <ele>426.84</ele>
        <time>2016-09-25T08:19:56Z</time>
      </trkpt>
      <trkpt lat="47.38339" lon="6.68548">
        <ele>427.98</ele>
        <time>2016-09-25T08:20:00Z</time>
      </trkpt>
      <trkpt lat="47.38358" lon="6.68551">
        <ele>428.58</ele>
        <time>2016-09-25T08:20:04Z</time>
      </trkpt>
      <trkpt lat="47.38377" lon="6.6855">
        <ele>426.84</ele>
        <time>2016-09-25T08:20:08Z</time>
      </trkpt>
      <trkpt lat="47.38396" lon="6.68547">
        <ele>425.07</ele>
        <time>2016-09-25T08:20:12Z</time>
      </trkpt>
      <trkpt lat="47.38415" lon="6.68542">
        <ele>425.61</ele>
        <time>2016-09-25T08:20:16Z</time>
      </trkpt>
      <trkpt lat="47.38434" lon="6.68533">
        <ele>425.56</ele>
        <time>2016-09-25T08:20:20Z</time>
      </trkpt>
      <trkpt lat="47.38451" lon="6.6852">
        <ele>425.05</ele>
        <time>2016-09-25T08:20:24Z</time>
      </trkpt>
      <trkpt lat="47.3847" lon="6.68512">
        <ele>425.1</ele>
        <time>2016-09-25T08:20:29Z</time>
      </trkpt>
      <trkpt lat="47.3849" lon="6.68509">
        <ele>424.42</ele>
        <time>2016-09-25T08:20:35Z</time>
      </trkpt>
      <trkpt lat="47.38508" lon="6.68517">
        <ele>424.76</ele>
        <time>2016-09-25T08:20:40Z</time>
      </trkpt>
      <trkpt lat="47.38526" lon="6.68531">
        <ele>423.79</ele>
        <time>2016-09-25T08:20:45Z</time>
      </trkpt>
      <trkpt lat="47.38543" lon="6.68542">
        <ele>423.72</ele>
        <time>2016-09-25T08:20:51Z</time>
      </trkpt>
      <trkpt lat="47.38562" lon="6.68553">
        <ele>424.16</ele>
        <time>2016-09-25T08:20:59Z</time>
      </trkpt>
      <trkpt lat="47.38577" lon="6.6857">
        <ele>426.05</ele>
        <time>2016-09-25T08:21:07Z</time>
      </trkpt>
      <trkpt lat="47.38572" lon="6.68596">
        <ele>427.55</ele>
        <time>2016-09-25T08:21:13Z</time>
      </trkpt>
      <trkpt lat="47.38567" lon="6.68627">
        <ele>432.66</ele>
        <time>2016-09-25T08:21:19Z</time>
      </trkpt>
      <trkpt lat="47.38556" lon="6.68652">
        <ele>434.84</ele>
        <time>2016-09-25T08:21:24Z</time>
      </trkpt>
      <trkpt lat="47.38538" lon="6.6866">
        <ele>435.38</ele>
        <time>2016-09-25T08:21:31Z</time>
      </trkpt>
      <trkpt lat="47.38517" lon="6.68658">
        <ele>435.73</ele>
        <time>2016-09-25T08:21:36Z</time>
      </trkpt>
      <trkpt lat="47.38498" lon="6.68659">
        <ele>436.81</ele>
        <time>2016-09-25T08:21:41Z</time>
      </trkpt>
      <trkpt lat="47.38478" lon="6.68662">
        <ele>435.86</ele>
        <time>2016-09-25T08:21:47Z</time>
      </trkpt>
      <trkpt lat="47.38461" lon="6.68665">
        <ele>436.86</ele>
        <time>2016-09-25T08:21:51Z</time>
      </trkpt>
      <trkpt lat="47.38441" lon="6.6867">
        <ele>436.77</ele>
        <time>2016-09-25T08:21:53Z</time>
      </trkpt>
      <trkpt lat="47.38417" lon="6.68675">
        <ele>437.83</ele>
        <time>2016-09-25T08:21:57Z</time>
      </trkpt>
      <trkpt lat="47.38399" lon="6.68679">
        <ele>437.69</ele>
        <time>2016-09-25T08:22:00Z</time>
      </trkpt>
      <trkpt lat="47.38379" lon="6.68685">
        <ele>436.07</ele>
        <time>2016-09-25T08:22:04Z</time>
      </trkpt>
      <trkpt lat="47.38362" lon="6.68693">
        <ele>434.52</ele>
        <time>2016-09-25T08:22:08Z</time>
      </trkpt>
      <trkpt lat="47.38342" lon="6.68704">
        <ele>433.11</ele>
        <time>2016-09-25T08:22:13Z</time>
      </trkpt>
      <trkpt lat="47.38322" lon="6.68714">
        <ele>431.76</ele>
        <time>2016-09-25T08:22:20Z</time>
      </trkpt>
      <trkpt lat="47.38303" lon="6.68722">
        <ele>432.04</ele>
        <time>2016-09-25T08:22:24Z</time>
      </trkpt>
      <trkpt lat="47.38283" lon="6.68729">
        <ele>433.41</ele>
        <time>2016-09-25T08:22:29Z</time>
      </trkpt>
      <trkpt lat="47.38264" lon="6.68736">
        <ele>434.28</ele>
        <time>2016-09-25T08:22:35Z</time>
      </trkpt>
      <trkpt lat="47.38245" lon="6.68741">
        <ele>434.94</ele>
        <time>2016-09-25T08:22:40Z</time>
      </trkpt>
      <trkpt lat="47.38227" lon="6.68745">
        <ele>433.63</ele>
        <time>2016-09-25T08:22:45Z</time>
      </trkpt>
      <trkpt lat="47.38208" lon="6.6875">
        <ele>430.86</ele>
        <time>2016-09-25T08:22:49Z</time>
      </trkpt>
      <trkpt lat="47.38189" lon="6.68757">
        <ele>429.91</ele>
        <time>2016-09-25T08:22:53Z</time>
      </trkpt>
      <trkpt lat="47.38172" lon="6.68767">
        <ele>428.11</ele>
        <time>2016-09-25T08:22:57Z</time>
      </trkpt>
      <trkpt lat="47.38155" lon="6.68777">
        <ele>426.9</ele>
        <time>2016-09-25T08:23:01Z</time>
      </trkpt>
      <trkpt lat="47.38137" lon="6.68788">
        <ele>423.56</ele>
        <time>2016-09-25T08:23:05Z</time>
      </trkpt>
      <trkpt lat="47.38117" lon="6.68798">
        <ele>421.23</ele>
        <time>2016-09-25T08:23:09Z</time>
      </trkpt>
      <trkpt lat="47.38097" lon="6.68796">
        <ele>419.64</ele>
        <time>2016-09-25T08:23:12Z</time>
      </trkpt>
      <trkpt lat="47.38081" lon="6.68784">
        <ele>417.93</ele>
        <time>2016-09-25T08:23:15Z</time>
      </trkpt>
      <trkpt lat="47.3806" lon="6.68777">
        <ele>416.8</ele>
        <time>2016-09-25T08:23:16Z</time>
      </trkpt>
      <trkpt lat="47.38042" lon="6.68783">
        <ele>416.18</ele>
        <time>2016-09-25T08:23:19Z</time>
      </trkpt>
      <trkpt lat="47.3802" lon="6.68799">
        <ele>415.39</ele>
        <time>2016-09-25T08:23:21Z</time>
      </trkpt>
      <trkpt lat="47.38003" lon="6.68814">
        <ele>415.79</ele>
        <time>2016-09-25T08:23:24Z</time>
      </trkpt>
      <trkpt lat="47.37985" lon="6.68831">
        <ele>417.45</ele>
        <time>2016-09-25T08:23:25Z</time>
      </trkpt>
      <trkpt lat="47.37968" lon="6.68848">
        <ele>419.06</ele>
        <time>2016-09-25T08:23:28Z</time>
      </trkpt>
      <trkpt lat="47.37951" lon="6.68865">
        <ele>419.37</ele>
        <time>2016-09-25T08:23:29Z</time>
      </trkpt>
      <trkpt lat="47.37933" lon="6.68884">
        <ele>417.83</ele>
        <time>2016-09-25T08:23:32Z</time>
      </trkpt>
      <trkpt lat="47.37916" lon="6.68899">
        <ele>416.48</ele>
        <time>2016-09-25T08:23:33Z</time>
      </trkpt>
      <trkpt lat="47.37897" lon="6.68912">
        <ele>414.53</ele>
        <time>2016-09-25T08:23:37Z</time>
      </trkpt>
      <trkpt lat="47.37894" lon="6.68938">
        <ele>413.89</ele>
        <time>2016-09-25T08:23:43Z</time>
      </trkpt>
      <trkpt lat="47.37899" lon="6.68964">
        <ele>412.53</ele>
        <time>2016-09-25T08:23:48Z</time>
      </trkpt>
      <trkpt lat="47.37904" lon="6.68991">
        <ele>413.68</ele>
        <time>2016-09-25T08:23:52Z</time>
      </trkpt>
      <trkpt lat="47.37909" lon="6.69019">
        <ele>414</ele>
        <time>2016-09-25T08:23:56Z</time>
      </trkpt>
      <trkpt lat="47.37914" lon="6.69051">
        <ele>414.51</ele>
        <time>2016-09-25T08:24:00Z</time>
      </trkpt>
      <trkpt lat="47.37919" lon="6.69079">
        <ele>415.71</ele>
        <time>2016-09-25T08:24:04Z</time>
      </trkpt>
      <trkpt lat="47.37922" lon="6.69109">
        <ele>417.94</ele>
        <time>2016-09-25T08:24:09Z</time>
      </trkpt>
      <trkpt lat="47.37928" lon="6.69138">
        <ele>418.92</ele>
        <time>2016-09-25T08:24:13Z</time>
      </trkpt>
      <trkpt lat="47.37933" lon="6.69165">
        <ele>417.33</ele>
        <time>2016-09-25T08:24:17Z</time>
      </trkpt>
      <trkpt lat="47.37937" lon="6.69194">
        <ele>416.58</ele>
        <time>2016-09-25T08:24:21Z</time>
      </trkpt>
      <trkpt lat="47.3794" lon="6.6922">
        <ele>418.01</ele>
        <time>2016-09-25T08:24:24Z</time>
      </trkpt>
      <trkpt lat="47.37944" lon="6.69252">
        <ele>419.28</ele>
        <time>2016-09-25T08:24:28Z</time>
      </trkpt>
      <trkpt lat="47.37948" lon="6.69281">
        <ele>417.68</ele>
        <time>2016-09-25T08:24:32Z</time>
      </trkpt>
      <trkpt lat="47.37952" lon="6.69311">
        <ele>415.46</ele>
        <time>2016-09-25T08:24:35Z</time>
      </trkpt>
      <trkpt lat="47.37957" lon="6.69343">
        <ele>414.01</ele>
        <time>2016-09-25T08:24:37Z</time>
      </trkpt>
      <trkpt lat="47.37962" lon="6.69377">
        <ele>414.04</ele>
        <time>2016-09-25T08:24:40Z</time>
      </trkpt>
      <trkpt lat="47.37967" lon="6.6941">
        <ele>413.45</ele>
        <time>2016-09-25T08:24:44Z</time>
      </trkpt>
      <trkpt lat="47.37972" lon="6.69445">
        <ele>413.71</ele>
        <time>2016-09-25T08:24:47Z</time>
      </trkpt>
      <trkpt lat="47.37976" lon="6.69475">
        <ele>414.27</ele>
        <time>2016-09-25T08:24:49Z</time>
      </trkpt>
      <trkpt lat="47.37981" lon="6.69507">
        <ele>414.04</ele>
        <time>2016-09-25T08:24:52Z</time>
      </trkpt>
      <trkpt lat="47.37987" lon="6.69539">
        <ele>414.5</ele>
        <time>2016-09-25T08:24:56Z</time>
      </trkpt>
      <trkpt lat="47.37991" lon="6.69569">
        <ele>415.6</ele>
        <time>2016-09-25T08:24:59Z</time>
      </trkpt>
      <trkpt lat="47.37994" lon="6.69598">
        <ele>415.97</ele>
        <time>2016-09-25T08:25:01Z</time>
      </trkpt>
      <trkpt lat="47.38" lon="6.6963">
        <ele>416.67</ele>
        <time>2016-09-25T08:25:04Z</time>
      </trkpt>
      <trkpt lat="47.38006" lon="6.69662">
        <ele>415.86</ele>
        <time>2016-09-25T08:25:08Z</time>
      </trkpt>
      <trkpt lat="47.38011" lon="6.6969">
        <ele>414.57</ele>
        <time>2016-09-25T08:25:11Z</time>
      </trkpt>
      <trkpt lat="47.38016" lon="6.69719">
        <ele>414.25</ele>
        <time>2016-09-25T08:25:13Z</time>
      </trkpt>
      <trkpt lat="47.38021" lon="6.69747">
        <ele>413.61</ele>
        <time>2016-09-25T08:25:16Z</time>
      </trkpt>
      <trkpt lat="47.38026" lon="6.69775">
        <ele>414.22</ele>
        <time>2016-09-25T08:25:20Z</time>
      </trkpt>
      <trkpt lat="47.3803" lon="6.69803">
        <ele>415.23</ele>
        <time>2016-09-25T08:25:23Z</time>
      </trkpt>
      <trkpt lat="47.38035" lon="6.69833">
        <ele>416.32</ele>
        <time>2016-09-25T08:25:25Z</time>
      </trkpt>
      <trkpt lat="47.38039" lon="6.69861">
        <ele>415.78</ele>
        <time>2016-09-25T08:25:28Z</time>
      </trkpt>
      <trkpt lat="47.38044" lon="6.69889">
        <ele>413.58</ele>
        <time>2016-09-25T08:25:32Z</time>
      </trkpt>
      <trkpt lat="47.3805" lon="6.69917">
        <ele>410.9</ele>
        <time>2016-09-25T08:25:35Z</time>
      </trkpt>
      <trkpt lat="47.38057" lon="6.69945">
        <ele>409.72</ele>
        <time>2016-09-25T08:25:37Z</time>
      </trkpt>
      <trkpt lat="47.38065" lon="6.69973">
        <ele>410.52</ele>
        <time>2016-09-25T08:25:40Z</time>
      </trkpt>
      <trkpt lat="47.38076" lon="6.70004">
        <ele>412.56</ele>
        <time>2016-09-25T08:25:44Z</time>
      </trkpt>
      <trkpt lat="47.38089" lon="6.70036">
        <ele>413.44</ele>
        <time>2016-09-25T08:25:47Z</time>
      </trkpt>
      <trkpt lat="47.38091" lon="6.70067">
        <ele>412.52</ele>
        <time>2016-09-25T08:25:49Z</time>
      </trkpt>
      <trkpt lat="47.3807" lon="6.70071">
        <ele>411.28</ele>
        <time>2016-09-25T08:25:52Z</time>
      </trkpt>
      <trkpt lat="47.38047" lon="6.70063">
        <ele>410.35</ele>
        <time>2016-09-25T08:25:56Z</time>
      </trkpt>
      <trkpt lat="47.38024" lon="6.70053">
        <ele>409.81</ele>
        <time>2016-09-25T08:25:59Z</time>
      </trkpt>
      <trkpt lat="47.37999" lon="6.70044">
        <ele>407.85</ele>
        <time>2016-09-25T08:26:01Z</time>
      </trkpt>
      <trkpt lat="47.37981" lon="6.70039">
        <ele>407.14</ele>
        <time>2016-09-25T08:26:04Z</time>
      </trkpt>
      <trkpt lat="47.37964" lon="6.70033">
        <ele>405.93</ele>
        <time>2016-09-25T08:26:05Z</time>
      </trkpt>
      <trkpt lat="47.37946" lon="6.70028">
        <ele>403.75</ele>
        <time>2016-09-25T08:26:08Z</time>
      </trkpt>
      <trkpt lat="47.37922" lon="6.70022">
        <ele>399.45</ele>
        <time>2016-09-25T08:26:11Z</time>
      </trkpt>
      <trkpt lat="47.379" lon="6.70019">
        <ele>396.44</ele>
        <time>2016-09-25T08:26:13Z</time>
      </trkpt>
      <trkpt lat="47.3788" lon="6.70015">
        <ele>395.73</ele>
        <time>2016-09-25T08:26:16Z</time>
      </trkpt>
      <trkpt lat="47.37861" lon="6.70009">
        <ele>395.24</ele>
        <time>2016-09-25T08:26:20Z</time>
      </trkpt>
      <trkpt lat="47.37842" lon="6.70001">
        <ele>394.62</ele>
        <time>2016-09-25T08:26:23Z</time>
      </trkpt>
      <trkpt lat="47.37823" lon="6.69993">
        <ele>394.97</ele>
        <time>2016-09-25T08:26:25Z</time>
      </trkpt>
      <trkpt lat="47.37802" lon="6.69981">
        <ele>398.08</ele>
        <time>2016-09-25T08:26:29Z</time>
      </trkpt>
      <trkpt lat="47.37783" lon="6.69973">
        <ele>400.04</ele>
        <time>2016-09-25T08:26:33Z</time>
      </trkpt>
      <trkpt lat="47.37762" lon="6.69963">
        <ele>399.59</ele>
        <time>2016-09-25T08:26:39Z</time>
      </trkpt>
      <trkpt lat="47.37742" lon="6.69952">
        <ele>398.58</ele>
        <time>2016-09-25T08:26:44Z</time>
      </trkpt>
      <trkpt lat="47.37723" lon="6.69939">
        <ele>397.57</ele>
        <time>2016-09-25T08:26:48Z</time>
      </trkpt>
      <trkpt lat="47.37703" lon="6.69927">
        <ele>398.4</ele>
        <time>2016-09-25T08:26:53Z</time>
      </trkpt>
      <trkpt lat="47.37684" lon="6.69914">
        <ele>397.55</ele>
        <time>2016-09-25T08:26:59Z</time>
      </trkpt>
      <trkpt lat="47.37667" lon="6.69904">
        <ele>398.55</ele>
        <time>2016-09-25T08:27:03Z</time>
      </trkpt>
      <trkpt lat="47.37645" lon="6.69896">
        <ele>400.03</ele>
        <time>2016-09-25T08:27:08Z</time>
      </trkpt>
      <trkpt lat="47.37627" lon="6.69896">
        <ele>402.33</ele>
        <time>2016-09-25T08:27:12Z</time>
      </trkpt>
      <trkpt lat="47.37606" lon="6.69896">
        <ele>403.91</ele>
        <time>2016-09-25T08:27:16Z</time>
      </trkpt>
      <trkpt lat="47.37588" lon="6.69895">
        <ele>406.56</ele>
        <time>2016-09-25T08:27:20Z</time>
      </trkpt>
      <trkpt lat="47.37569" lon="6.69891">
        <ele>410.43</ele>
        <time>2016-09-25T08:27:24Z</time>
      </trkpt>
      <trkpt lat="47.37548" lon="6.69885">
        <ele>409.76</ele>
        <time>2016-09-25T08:27:29Z</time>
      </trkpt>
      <trkpt lat="47.37526" lon="6.69874">
        <ele>411.81</ele>
        <time>2016-09-25T08:27:35Z</time>
      </trkpt>
      <trkpt lat="47.37507" lon="6.69866">
        <ele>413.48</ele>
        <time>2016-09-25T08:27:40Z</time>
      </trkpt>
      <trkpt lat="47.37488" lon="6.69859">
        <ele>411.27</ele>
        <time>2016-09-25T08:27:44Z</time>
      </trkpt>
      <trkpt lat="47.37471" lon="6.69851">
        <ele>410.37</ele>
        <time>2016-09-25T08:27:48Z</time>
      </trkpt>
      <trkpt lat="47.37453" lon="6.69844">
        <ele>409.45</ele>
        <time>2016-09-25T08:27:52Z</time>
      </trkpt>
      <trkpt lat="47.37432" lon="6.69835">
        <ele>409.04</ele>
        <time>2016-09-25T08:27:57Z</time>
      </trkpt>
      <trkpt lat="47.37414" lon="6.69822">
        <ele>410.46</ele>
        <time>2016-09-25T08:28:01Z</time>
      </trkpt>
      <trkpt lat="47.37399" lon="6.69807">
        <ele>409.65</ele>
        <time>2016-09-25T08:28:05Z</time>
      </trkpt>
      <trkpt lat="47.37379" lon="6.69801">
        <ele>409.37</ele>
        <time>2016-09-25T08:28:12Z</time>
      </trkpt>
      <trkpt lat="47.37369" lon="6.69823">
        <ele>412.36</ele>
        <time>2016-09-25T08:28:16Z</time>
      </trkpt>
      <trkpt lat="47.37366" lon="6.6985">
        <ele>410.06</ele>
        <time>2016-09-25T08:28:20Z</time>
      </trkpt>
      <trkpt lat="47.37366" lon="6.69883">
        <ele>406.64</ele>
        <time>2016-09-25T08:28:24Z</time>
      </trkpt>
      <trkpt lat="47.3737" lon="6.69913">
        <ele>406.84</ele>
        <time>2016-09-25T08:28:28Z</time>
      </trkpt>
      <trkpt lat="47.37377" lon="6.69939">
        <ele>408.03</ele>
        <time>2016-09-25T08:28:31Z</time>
      </trkpt>
      <trkpt lat="47.37387" lon="6.69966">
        <ele>411.24</ele>
        <time>2016-09-25T08:28:35Z</time>
      </trkpt>
      <trkpt lat="47.37397" lon="6.69989">
        <ele>412.22</ele>
        <time>2016-09-25T08:28:37Z</time>
      </trkpt>
      <trkpt lat="47.3741" lon="6.70018">
        <ele>413.28</ele>
        <time>2016-09-25T08:28:41Z</time>
      </trkpt>
      <trkpt lat="47.37421" lon="6.70047">
        <ele>413.7</ele>
        <time>2016-09-25T08:28:45Z</time>
      </trkpt>
      <trkpt lat="47.37434" lon="6.70076">
        <ele>411.96</ele>
        <time>2016-09-25T08:28:49Z</time>
      </trkpt>
      <trkpt lat="47.37445" lon="6.70099">
        <ele>412.64</ele>
        <time>2016-09-25T08:28:52Z</time>
      </trkpt>
      <trkpt lat="47.37455" lon="6.70124">
        <ele>413.53</ele>
        <time>2016-09-25T08:28:56Z</time>
      </trkpt>
      <trkpt lat="47.37465" lon="6.70156">
        <ele>413.06</ele>
        <time>2016-09-25T08:29:00Z</time>
      </trkpt>
      <trkpt lat="47.37468" lon="6.70185">
        <ele>412.29</ele>
        <time>2016-09-25T08:29:03Z</time>
      </trkpt>
      <trkpt lat="47.37467" lon="6.70212">
        <ele>412.62</ele>
        <time>2016-09-25T08:29:05Z</time>
      </trkpt>
      <trkpt lat="47.37467" lon="6.70241">
        <ele>411.22</ele>
        <time>2016-09-25T08:29:08Z</time>
      </trkpt>
      <trkpt lat="47.37467" lon="6.70275">
        <ele>410.31</ele>
        <time>2016-09-25T08:29:12Z</time>
      </trkpt>
      <trkpt lat="47.37468" lon="6.70302">
        <ele>410.28</ele>
        <time>2016-09-25T08:29:16Z</time>
      </trkpt>
      <trkpt lat="47.37471" lon="6.70329">
        <ele>410.86</ele>
        <time>2016-09-25T08:29:19Z</time>
      </trkpt>
      <trkpt lat="47.37476" lon="6.70364">
        <ele>412.96</ele>
        <time>2016-09-25T08:29:23Z</time>
      </trkpt>
      <trkpt lat="47.37482" lon="6.70393">
        <ele>414.35</ele>
        <time>2016-09-25T08:29:25Z</time>
      </trkpt>
      <trkpt lat="47.3749" lon="6.70426">
        <ele>413.62</ele>
        <time>2016-09-25T08:29:29Z</time>
      </trkpt>
      <trkpt lat="47.37494" lon="6.70453">
        <ele>411.77</ele>
        <time>2016-09-25T08:29:32Z</time>
      </trkpt>
      <trkpt lat="47.37497" lon="6.70486">
        <ele>408.98</ele>
        <time>2016-09-25T08:29:36Z</time>
      </trkpt>
      <trkpt lat="47.37499" lon="6.70517">
        <ele>408.54</ele>
        <time>2016-09-25T08:29:40Z</time>
      </trkpt>
      <trkpt lat="47.37501" lon="6.7055">
        <ele>410.36</ele>
        <time>2016-09-25T08:29:43Z</time>
      </trkpt>
      <trkpt lat="47.37502" lon="6.70578">
        <ele>410.95</ele>
        <time>2016-09-25T08:29:45Z</time>
      </trkpt>
      <trkpt lat="47.37501" lon="6.70612">
        <ele>410.12</ele>
        <time>2016-09-25T08:29:48Z</time>
      </trkpt>
      <trkpt lat="47.37501" lon="6.70643">
        <ele>407.56</ele>
        <time>2016-09-25T08:29:52Z</time>
      </trkpt>
      <trkpt lat="47.375" lon="6.70674">
        <ele>407.12</ele>
        <time>2016-09-25T08:29:55Z</time>
      </trkpt>
      <trkpt lat="47.375" lon="6.70706">
        <ele>405.77</ele>
        <time>2016-09-25T08:29:57Z</time>
      </trkpt>
      <trkpt lat="47.375" lon="6.70741">
        <ele>406.26</ele>
        <time>2016-09-25T08:30:00Z</time>
      </trkpt>
      <trkpt lat="47.37503" lon="6.70772">
        <ele>407.88</ele>
        <time>2016-09-25T08:30:04Z</time>
      </trkpt>
      <trkpt lat="47.37508" lon="6.70801">
        <ele>407.74</ele>
        <time>2016-09-25T08:30:07Z</time>
      </trkpt>
      <trkpt lat="47.37514" lon="6.70827">
        <ele>408.47</ele>
        <time>2016-09-25T08:30:09Z</time>
      </trkpt>
      <trkpt lat="47.37523" lon="6.70856">
        <ele>409.67</ele>
        <time>2016-09-25T08:30:12Z</time>
      </trkpt>
      <trkpt lat="47.37531" lon="6.70883">
        <ele>410.68</ele>
        <time>2016-09-25T08:30:16Z</time>
      </trkpt>
      <trkpt lat="47.37537" lon="6.7091">
        <ele>412.33</ele>
        <time>2016-09-25T08:30:19Z</time>
      </trkpt>
      <trkpt lat="47.37542" lon="6.70938">
        <ele>411.24</ele>
        <time>2016-09-25T08:30:21Z</time>
      </trkpt>
      <trkpt lat="47.37546" lon="6.70967">
        <ele>408.72</ele>
        <time>2016-09-25T08:30:24Z</time>
      </trkpt>
      <trkpt lat="47.37548" lon="6.70995">
        <ele>406.47</ele>
        <time>2016-09-25T08:30:28Z</time>
      </trkpt>
      <trkpt lat="47.37548" lon="6.71023">
        <ele>404.95</ele>
        <time>2016-09-25T08:30:31Z</time>
      </trkpt>
      <trkpt lat="47.37547" lon="6.71057">
        <ele>403.53</ele>
        <time>2016-09-25T08:30:35Z</time>
      </trkpt>
      <trkpt lat="47.37545" lon="6.71092">
        <ele>402.15</ele>
        <time>2016-09-25T08:30:39Z</time>
      </trkpt>
      <trkpt lat="47.37543" lon="6.71124">
        <ele>402.18</ele>
        <time>2016-09-25T08:30:41Z</time>
      </trkpt>
      <trkpt lat="47.37539" lon="6.71158">
        <ele>402.96</ele>
        <time>2016-09-25T08:30:45Z</time>
      </trkpt>
      <trkpt lat="47.37537" lon="6.71186">
        <ele>404.85</ele>
        <time>2016-09-25T08:30:48Z</time>
      </trkpt>
      <trkpt lat="47.37539" lon="6.71213">
        <ele>405.66</ele>
        <time>2016-09-25T08:30:52Z</time>
      </trkpt>
      <trkpt lat="47.37545" lon="6.71238">
        <ele>404.34</ele>
        <time>2016-09-25T08:30:55Z</time>
      </trkpt>
      <trkpt lat="47.37553" lon="6.71263">
        <ele>404.15</ele>
        <time>2016-09-25T08:30:57Z</time>
      </trkpt>
      <trkpt lat="47.37559" lon="6.71294">
        <ele>404.75</ele>
        <time>2016-09-25T08:31:01Z</time>
      </trkpt>
      <trkpt lat="47.37541" lon="6.71307">
        <ele>405.02</ele>
        <time>2016-09-25T08:31:05Z</time>
      </trkpt>
      <trkpt lat="47.37522" lon="6.71311">
        <ele>405.77</ele>
        <time>2016-09-25T08:31:09Z</time>
      </trkpt>
      <trkpt lat="47.37501" lon="6.71316">
        <ele>407.78</ele>
        <time>2016-09-25T08:31:15Z</time>
      </trkpt>
      <trkpt lat="47.37483" lon="6.71326">
        <ele>408.16</ele>
        <time>2016-09-25T08:31:20Z</time>
      </trkpt>
      <trkpt lat="47.37485" lon="6.71357">
        <ele>408.06</ele>
        <time>2016-09-25T08:31:25Z</time>
      </trkpt>
      <trkpt lat="47.37502" lon="6.71371">
        <ele>408.32</ele>
        <time>2016-09-25T08:31:31Z</time>
      </trkpt>
      <trkpt lat="47.37522" lon="6.71381">
        <ele>408.92</ele>
        <time>2016-09-25T08:31:36Z</time>
      </trkpt>
      <trkpt lat="47.37541" lon="6.7139">
        <ele>410.18</ele>
        <time>2016-09-25T08:31:40Z</time>
      </trkpt>
      <trkpt lat="47.37561" lon="6.71398">
        <ele>410.22</ele>
        <time>2016-09-25T08:31:47Z</time>
      </trkpt>
      <trkpt lat="47.37581" lon="6.71407">
        <ele>410.21</ele>
        <time>2016-09-25T08:31:52Z</time>
      </trkpt>
      <trkpt lat="47.376" lon="6.71417">
        <ele>409.95</ele>
        <time>2016-09-25T08:31:57Z</time>
      </trkpt>
      <trkpt lat="47.37618" lon="6.71429">
        <ele>409.91</ele>
        <time>2016-09-25T08:32:04Z</time>
      </trkpt>
      <trkpt lat="47.37627" lon="6.71455">
        <ele>409.95</ele>
        <time>2016-09-25T08:32:12Z</time>
      </trkpt>
      <trkpt lat="47.3763" lon="6.71484">
        <ele>409.77</ele>
        <time>2016-09-25T08:32:20Z</time>
      </trkpt>
      <trkpt lat="47.37637" lon="6.71511">
        <ele>410.35</ele>
        <time>2016-09-25T08:32:28Z</time>
      </trkpt>
      <trkpt lat="47.37652" lon="6.71528">
        <ele>410.5</ele>
        <time>2016-09-25T08:32:37Z</time>
      </trkpt>
      <trkpt lat="47.37667" lon="6.71546">
        <ele>410.59</ele>
        <time>2016-09-25T08:32:45Z</time>
      </trkpt>
      <trkpt lat="47.37679" lon="6.71567">
        <ele>409.92</ele>
        <time>2016-09-25T08:32:52Z</time>
      </trkpt>
      <trkpt lat="47.37689" lon="6.7159">
        <ele>409.76</ele>
        <time>2016-09-25T08:33:00Z</time>
      </trkpt>
      <trkpt lat="47.37703" lon="6.71613">
        <ele>409.51</ele>
        <time>2016-09-25T08:33:08Z</time>
      </trkpt>
      <trkpt lat="47.37716" lon="6.71636">
        <ele>409.32</ele>
        <time>2016-09-25T08:33:16Z</time>
      </trkpt>
      <trkpt lat="47.37726" lon="6.71661">
        <ele>409.83</ele>
        <time>2016-09-25T08:33:24Z</time>
      </trkpt>
      <trkpt lat="47.37729" lon="6.71691">
        <ele>410.92</ele>
        <time>2016-09-25T08:33:32Z</time>
      </trkpt>
      <trkpt lat="47.37732" lon="6.71718">
        <ele>412.47</ele>
        <time>2016-09-25T08:33:39Z</time>
      </trkpt>
      <trkpt lat="47.37737" lon="6.71745">
        <ele>414.94</ele>
        <time>2016-09-25T08:33:45Z</time>
      </trkpt>
      <trkpt lat="47.37742" lon="6.71774">
        <ele>416.67</ele>
        <time>2016-09-25T08:33:52Z</time>
      </trkpt>
      <trkpt lat="47.37748" lon="6.718">
        <ele>418.41</ele>
        <time>2016-09-25T08:34:00Z</time>
      </trkpt>
      <trkpt lat="47.37749" lon="6.7183">
        <ele>420.7</ele>
        <time>2016-09-25T08:34:08Z</time>
      </trkpt>
      <trkpt lat="47.3775" lon="6.71857">
        <ele>422.66</ele>
        <time>2016-09-25T08:34:15Z</time>
      </trkpt>
      <trkpt lat="47.37751" lon="6.71888">
        <ele>424.51</ele>
        <time>2016-09-25T08:34:21Z</time>
      </trkpt>
      <trkpt lat="47.37737" lon="6.71871">
        <ele>429.26</ele>
        <time>2016-09-25T08:34:37Z</time>
      </trkpt>
      <trkpt lat="47.37731" lon="6.71846">
        <ele>431.7</ele>
        <time>2016-09-25T08:34:45Z</time>
      </trkpt>
      <trkpt lat="47.37721" lon="6.71823">
        <ele>433.44</ele>
        <time>2016-09-25T08:34:52Z</time>
      </trkpt>
      <trkpt lat="47.3771" lon="6.71799">
        <ele>435.84</ele>
        <time>2016-09-25T08:35:00Z</time>
      </trkpt>
      <trkpt lat="47.37698" lon="6.71777">
        <ele>439.46</ele>
        <time>2016-09-25T08:35:12Z</time>
      </trkpt>
      <trkpt lat="47.37706" lon="6.71804">
        <ele>444.35</ele>
        <time>2016-09-25T08:35:31Z</time>
      </trkpt>
      <trkpt lat="47.377" lon="6.71831">
        <ele>446.76</ele>
        <time>2016-09-25T08:35:44Z</time>
      </trkpt>
      <trkpt lat="47.37698" lon="6.71859">
        <ele>448.63</ele>
        <time>2016-09-25T08:35:55Z</time>
      </trkpt>
      <trkpt lat="47.37698" lon="6.71888">
        <ele>450.92</ele>
        <time>2016-09-25T08:36:04Z</time>
      </trkpt>
      <trkpt lat="47.37701" lon="6.71916">
        <ele>453.3</ele>
        <time>2016-09-25T08:36:13Z</time>
      </trkpt>
      <trkpt lat="47.37703" lon="6.71947">
        <ele>456.9</ele>
        <time>2016-09-25T08:36:21Z</time>
      </trkpt>
      <trkpt lat="47.37706" lon="6.71975">
        <ele>460.16</ele>
        <time>2016-09-25T08:36:28Z</time>
      </trkpt>
      <trkpt lat="47.37705" lon="6.72004">
        <ele>461.62</ele>
        <time>2016-09-25T08:36:33Z</time>
      </trkpt>
      <trkpt lat="47.37708" lon="6.72033">
        <ele>462.4</ele>
        <time>2016-09-25T08:36:40Z</time>
      </trkpt>
      <trkpt lat="47.37716" lon="6.72057">
        <ele>462.95</ele>
        <time>2016-09-25T08:36:44Z</time>
      </trkpt>
      <trkpt lat="47.37722" lon="6.72085">
        <ele>463.06</ele>
        <time>2016-09-25T08:36:53Z</time>
      </trkpt>
      <trkpt lat="47.37728" lon="6.72113">
        <ele>461.26</ele>
        <time>2016-09-25T08:37:07Z</time>
      </trkpt>
      <trkpt lat="47.37736" lon="6.72137">
        <ele>460.89</ele>
        <time>2016-09-25T08:37:16Z</time>
      </trkpt>
      <trkpt lat="47.3774" lon="6.72163">
        <ele>461.8</ele>
        <time>2016-09-25T08:37:24Z</time>
      </trkpt>
      <trkpt lat="47.37749" lon="6.72186">
        <ele>462.54</ele>
        <time>2016-09-25T08:37:35Z</time>
      </trkpt>
      <trkpt lat="47.37763" lon="6.72207">
        <ele>463.71</ele>
        <time>2016-09-25T08:37:48Z</time>
      </trkpt>
      <trkpt lat="47.37776" lon="6.72228">
        <ele>465.27</ele>
        <time>2016-09-25T08:37:59Z</time>
      </trkpt>
      <trkpt lat="47.37776" lon="6.72255">
        <ele>473.75</ele>
        <time>2016-09-25T08:41:04Z</time>
      </trkpt>
      <trkpt lat="47.37761" lon="6.72277">
        <ele>476.57</ele>
        <time>2016-09-25T08:41:20Z</time>
      </trkpt>
      <trkpt lat="47.37745" lon="6.72295">
        <ele>478.49</ele>
        <time>2016-09-25T08:41:24Z</time>
      </trkpt>
      <trkpt lat="47.37726" lon="6.72313">
        <ele>480.18</ele>
        <time>2016-09-25T08:41:27Z</time>
      </trkpt>
      <trkpt lat="47.37708" lon="6.72339">
        <ele>481.78</ele>
        <time>2016-09-25T08:41:29Z</time>
      </trkpt>
      <trkpt lat="47.3769" lon="6.72357">
        <ele>479.89</ele>
        <time>2016-09-25T08:41:32Z</time>
      </trkpt>
      <trkpt lat="47.37665" lon="6.72368">
        <ele>479.24</ele>
        <time>2016-09-25T08:41:36Z</time>
      </trkpt>
      <trkpt lat="47.37642" lon="6.72376">
        <ele>478.49</ele>
        <time>2016-09-25T08:41:39Z</time>
      </trkpt>
      <trkpt lat="47.37619" lon="6.72386">
        <ele>479.24</ele>
        <time>2016-09-25T08:41:41Z</time>
      </trkpt>
      <trkpt lat="47.37596" lon="6.72395">
        <ele>480.68</ele>
        <time>2016-09-25T08:41:44Z</time>
      </trkpt>
      <trkpt lat="47.37578" lon="6.72392">
        <ele>480.22</ele>
        <time>2016-09-25T08:41:48Z</time>
      </trkpt>
      <trkpt lat="47.37556" lon="6.72389">
        <ele>480.1</ele>
        <time>2016-09-25T08:41:52Z</time>
      </trkpt>
      <trkpt lat="47.37537" lon="6.72383">
        <ele>478.31</ele>
        <time>2016-09-25T08:41:56Z</time>
      </trkpt>
      <trkpt lat="47.37517" lon="6.7238">
        <ele>477.01</ele>
        <time>2016-09-25T08:42:07Z</time>
      </trkpt>
      <trkpt lat="47.37498" lon="6.72369">
        <ele>475.75</ele>
        <time>2016-09-25T08:42:15Z</time>
      </trkpt>
      <trkpt lat="47.37478" lon="6.72362">
        <ele>475.06</ele>
        <time>2016-09-25T08:42:23Z</time>
      </trkpt>
      <trkpt lat="47.37458" lon="6.72361">
        <ele>474.57</ele>
        <time>2016-09-25T08:42:31Z</time>
      </trkpt>
      <trkpt lat="47.37442" lon="6.72374">
        <ele>473.4</ele>
        <time>2016-09-25T08:42:37Z</time>
      </trkpt>
      <trkpt lat="47.37442" lon="6.72402">
        <ele>472.77</ele>
        <time>2016-09-25T08:42:45Z</time>
      </trkpt>
      <trkpt lat="47.37446" lon="6.7243">
        <ele>472.56</ele>
        <time>2016-09-25T08:42:52Z</time>
      </trkpt>
      <trkpt lat="47.37451" lon="6.72457">
        <ele>473.44</ele>
        <time>2016-09-25T08:42:59Z</time>
      </trkpt>
      <trkpt lat="47.37454" lon="6.72486">
        <ele>473.99</ele>
        <time>2016-09-25T08:43:05Z</time>
      </trkpt>
      <trkpt lat="47.37457" lon="6.72515">
        <ele>474.6</ele>
        <time>2016-09-25T08:43:15Z</time>
      </trkpt>
      <trkpt lat="47.37465" lon="6.7254">
        <ele>473.59</ele>
        <time>2016-09-25T08:43:23Z</time>
      </trkpt>
      <trkpt lat="47.37477" lon="6.7256">
        <ele>473.06</ele>
        <time>2016-09-25T08:43:28Z</time>
      </trkpt>
      <trkpt lat="47.37492" lon="6.72578">
        <ele>472.88</ele>
        <time>2016-09-25T08:43:33Z</time>
      </trkpt>
      <trkpt lat="47.37507" lon="6.72598">
        <ele>472.2</ele>
        <time>2016-09-25T08:43:40Z</time>
      </trkpt>
      <trkpt lat="47.37521" lon="6.72617">
        <ele>472.15</ele>
        <time>2016-09-25T08:43:45Z</time>
      </trkpt>
      <trkpt lat="47.37538" lon="6.72634">
        <ele>472.78</ele>
        <time>2016-09-25T08:43:52Z</time>
      </trkpt>
      <trkpt lat="47.37556" lon="6.72645">
        <ele>474.14</ele>
        <time>2016-09-25T08:43:59Z</time>
      </trkpt>
      <trkpt lat="47.37575" lon="6.7266">
        <ele>477.34</ele>
        <time>2016-09-25T08:44:08Z</time>
      </trkpt>
      <trkpt lat="47.37585" lon="6.72682">
        <ele>479.47</ele>
        <time>2016-09-25T08:44:15Z</time>
      </trkpt>
      <trkpt lat="47.37585" lon="6.7271">
        <ele>483.91</ele>
        <time>2016-09-25T08:44:20Z</time>
      </trkpt>
      <trkpt lat="47.37596" lon="6.72734">
        <ele>484.7</ele>
        <time>2016-09-25T08:44:28Z</time>
      </trkpt>
      <trkpt lat="47.37577" lon="6.72748">
        <ele>484.29</ele>
        <time>2016-09-25T08:44:36Z</time>
      </trkpt>
      <trkpt lat="47.37556" lon="6.72753">
        <ele>480.16</ele>
        <time>2016-09-25T08:44:39Z</time>
      </trkpt>
      <trkpt lat="47.3753" lon="6.72754">
        <ele>476.01</ele>
        <time>2016-09-25T08:44:41Z</time>
      </trkpt>
      <trkpt lat="47.3751" lon="6.72756">
        <ele>474.16</ele>
        <time>2016-09-25T08:44:44Z</time>
      </trkpt>
      <trkpt lat="47.37489" lon="6.72757">
        <ele>471.71</ele>
        <time>2016-09-25T08:44:45Z</time>
      </trkpt>
      <trkpt lat="47.37471" lon="6.72757">
        <ele>469.4</ele>
        <time>2016-09-25T08:44:48Z</time>
      </trkpt>
      <trkpt lat="47.37445" lon="6.72755">
        <ele>467.29</ele>
        <time>2016-09-25T08:44:49Z</time>
      </trkpt>
      <trkpt lat="47.37423" lon="6.72755">
        <ele>465.82</ele>
        <time>2016-09-25T08:44:52Z</time>
      </trkpt>
      <trkpt lat="47.37402" lon="6.72756">
        <ele>463.73</ele>
        <time>2016-09-25T08:44:53Z</time>
      </trkpt>
      <trkpt lat="47.3738" lon="6.72764">
        <ele>462.62</ele>
        <time>2016-09-25T08:44:56Z</time>
      </trkpt>
      <trkpt lat="47.37361" lon="6.72782">
        <ele>459.96</ele>
        <time>2016-09-25T08:44:57Z</time>
      </trkpt>
      <trkpt lat="47.37347" lon="6.72797">
        <ele>458.82</ele>
        <time>2016-09-25T08:45:00Z</time>
      </trkpt>
      <trkpt lat="47.37332" lon="6.72819">
        <ele>453.89</ele>
        <time>2016-09-25T08:45:03Z</time>
      </trkpt>
      <trkpt lat="47.37328" lon="6.72856">
        <ele>447.31</ele>
        <time>2016-09-25T08:45:05Z</time>
      </trkpt>
      <trkpt lat="47.3733" lon="6.72888">
        <ele>441.14</ele>
        <time>2016-09-25T08:45:08Z</time>
      </trkpt>
      <trkpt lat="47.37347" lon="6.7292">
        <ele>435.8</ele>
        <time>2016-09-25T08:45:12Z</time>
      </trkpt>
      <trkpt lat="47.37361" lon="6.7294">
        <ele>431.76</ele>
        <time>2016-09-25T08:45:13Z</time>
      </trkpt>
      <trkpt lat="47.37376" lon="6.72959">
        <ele>428.71</ele>
        <time>2016-09-25T08:45:16Z</time>
      </trkpt>
      <trkpt lat="47.37391" lon="6.72976">
        <ele>426.77</ele>
        <time>2016-09-25T08:45:17Z</time>
      </trkpt>
      <trkpt lat="47.37408" lon="6.72989">
        <ele>426.39</ele>
        <time>2016-09-25T08:45:20Z</time>
      </trkpt>
      <trkpt lat="47.37426" lon="6.72997">
        <ele>425.31</ele>
        <time>2016-09-25T08:45:21Z</time>
      </trkpt>
      <trkpt lat="47.37453" lon="6.72999">
        <ele>421.47</ele>
        <time>2016-09-25T08:45:24Z</time>
      </trkpt>
      <trkpt lat="47.37471" lon="6.73">
        <ele>417.78</ele>
        <time>2016-09-25T08:45:27Z</time>
      </trkpt>
      <trkpt lat="47.37496" lon="6.72995">
        <ele>414.82</ele>
        <time>2016-09-25T08:45:29Z</time>
      </trkpt>
      <trkpt lat="47.37519" lon="6.72986">
        <ele>414.42</ele>
        <time>2016-09-25T08:45:32Z</time>
      </trkpt>
      <trkpt lat="47.37538" lon="6.72988">
        <ele>415.59</ele>
        <time>2016-09-25T08:45:35Z</time>
      </trkpt>
      <trkpt lat="47.37556" lon="6.72992">
        <ele>415.06</ele>
        <time>2016-09-25T08:45:36Z</time>
      </trkpt>
      <trkpt lat="47.37574" lon="6.72995">
        <ele>413.57</ele>
        <time>2016-09-25T08:45:39Z</time>
      </trkpt>
      <trkpt lat="47.37592" lon="6.73">
        <ele>412.61</ele>
        <time>2016-09-25T08:45:40Z</time>
      </trkpt>
      <trkpt lat="47.3761" lon="6.73007">
        <ele>411.88</ele>
        <time>2016-09-25T08:45:43Z</time>
      </trkpt>
      <trkpt lat="47.37635" lon="6.73018">
        <ele>411.96</ele>
        <time>2016-09-25T08:45:45Z</time>
      </trkpt>
      <trkpt lat="47.37661" lon="6.73028">
        <ele>410.09</ele>
        <time>2016-09-25T08:45:48Z</time>
      </trkpt>
      <trkpt lat="47.37688" lon="6.73031">
        <ele>409.02</ele>
        <time>2016-09-25T08:45:52Z</time>
      </trkpt>
      <trkpt lat="47.37707" lon="6.7303">
        <ele>409.19</ele>
        <time>2016-09-25T08:45:53Z</time>
      </trkpt>
      <trkpt lat="47.37725" lon="6.73028">
        <ele>409.63</ele>
        <time>2016-09-25T08:45:56Z</time>
      </trkpt>
      <trkpt lat="47.37751" lon="6.73026">
        <ele>409.7</ele>
        <time>2016-09-25T08:45:59Z</time>
      </trkpt>
      <trkpt lat="47.37776" lon="6.73024">
        <ele>409.26</ele>
        <time>2016-09-25T08:46:01Z</time>
      </trkpt>
      <trkpt lat="47.37801" lon="6.73021">
        <ele>409.7</ele>
        <time>2016-09-25T08:46:04Z</time>
      </trkpt>
      <trkpt lat="47.37828" lon="6.7302">
        <ele>409.84</ele>
        <time>2016-09-25T08:46:08Z</time>
      </trkpt>
      <trkpt lat="47.37852" lon="6.73032">
        <ele>409.1</ele>
        <time>2016-09-25T08:46:11Z</time>
      </trkpt>
      <trkpt lat="47.37871" lon="6.73056">
        <ele>406.61</ele>
        <time>2016-09-25T08:46:13Z</time>
      </trkpt>
      <trkpt lat="47.37895" lon="6.73072">
        <ele>404.34</ele>
        <time>2016-09-25T08:46:16Z</time>
      </trkpt>
      <trkpt lat="47.3792" lon="6.73086">
        <ele>403.43</ele>
        <time>2016-09-25T08:46:20Z</time>
      </trkpt>
      <trkpt lat="47.37944" lon="6.73102">
        <ele>403.53</ele>
        <time>2016-09-25T08:46:23Z</time>
      </trkpt>
      <trkpt lat="47.37969" lon="6.73116">
        <ele>402.87</ele>
        <time>2016-09-25T08:46:25Z</time>
      </trkpt>
      <trkpt lat="47.37993" lon="6.73129">
        <ele>402.06</ele>
        <time>2016-09-25T08:46:28Z</time>
      </trkpt>
      <trkpt lat="47.38016" lon="6.73141">
        <ele>402.91</ele>
        <time>2016-09-25T08:46:32Z</time>
      </trkpt>
      <trkpt lat="47.38038" lon="6.7315">
        <ele>404.63</ele>
        <time>2016-09-25T08:46:35Z</time>
      </trkpt>
      <trkpt lat="47.38061" lon="6.73157">
        <ele>404.08</ele>
        <time>2016-09-25T08:46:37Z</time>
      </trkpt>
      <trkpt lat="47.38083" lon="6.73164">
        <ele>402.63</ele>
        <time>2016-09-25T08:46:40Z</time>
      </trkpt>
      <trkpt lat="47.38104" lon="6.73172">
        <ele>401.54</ele>
        <time>2016-09-25T08:46:44Z</time>
      </trkpt>
      <trkpt lat="47.38125" lon="6.73182">
        <ele>401.08</ele>
        <time>2016-09-25T08:46:47Z</time>
      </trkpt>
      <trkpt lat="47.38147" lon="6.73193">
        <ele>401.84</ele>
        <time>2016-09-25T08:46:49Z</time>
      </trkpt>
      <trkpt lat="47.38167" lon="6.73207">
        <ele>400.67</ele>
        <time>2016-09-25T08:46:52Z</time>
      </trkpt>
      <trkpt lat="47.38187" lon="6.73214">
        <ele>398.82</ele>
        <time>2016-09-25T08:46:56Z</time>
      </trkpt>
      <trkpt lat="47.38208" lon="6.73228">
        <ele>397.79</ele>
        <time>2016-09-25T08:46:59Z</time>
      </trkpt>
      <trkpt lat="47.38228" lon="6.73247">
        <ele>396.56</ele>
        <time>2016-09-25T08:47:01Z</time>
      </trkpt>
      <trkpt lat="47.38248" lon="6.73265">
        <ele>394.93</ele>
        <time>2016-09-25T08:47:04Z</time>
      </trkpt>
      <trkpt lat="47.38269" lon="6.73284">
        <ele>392.16</ele>
        <time>2016-09-25T08:47:08Z</time>
      </trkpt>
      <trkpt lat="47.38288" lon="6.73304">
        <ele>393.32</ele>
        <time>2016-09-25T08:47:11Z</time>
      </trkpt>
      <trkpt lat="47.38304" lon="6.73323">
        <ele>393.56</ele>
        <time>2016-09-25T08:47:13Z</time>
      </trkpt>
      <trkpt lat="47.38323" lon="6.73344">
        <ele>393.23</ele>
        <time>2016-09-25T08:47:16Z</time>
      </trkpt>
      <trkpt lat="47.38338" lon="6.73363">
        <ele>392.67</ele>
        <time>2016-09-25T08:47:20Z</time>
      </trkpt>
      <trkpt lat="47.38356" lon="6.73385">
        <ele>391.52</ele>
        <time>2016-09-25T08:47:23Z</time>
      </trkpt>
      <trkpt lat="47.38372" lon="6.73408">
        <ele>391.08</ele>
        <time>2016-09-25T08:47:25Z</time>
      </trkpt>
      <trkpt lat="47.38388" lon="6.73429">
        <ele>391.1</ele>
        <time>2016-09-25T08:47:28Z</time>
      </trkpt>
      <trkpt lat="47.38404" lon="6.73451">
        <ele>390.34</ele>
        <time>2016-09-25T08:47:32Z</time>
      </trkpt>
      <trkpt lat="47.38421" lon="6.73471">
        <ele>389.86</ele>
        <time>2016-09-25T08:47:35Z</time>
      </trkpt>
      <trkpt lat="47.38436" lon="6.73488">
        <ele>389.86</ele>
        <time>2016-09-25T08:47:39Z</time>
      </trkpt>
      <trkpt lat="47.38419" lon="6.73471">
        <ele>387.63</ele>
        <time>2016-09-25T08:49:04Z</time>
      </trkpt>
      <trkpt lat="47.38403" lon="6.73454">
        <ele>386.57</ele>
        <time>2016-09-25T08:49:09Z</time>
      </trkpt>
      <trkpt lat="47.38388" lon="6.73438">
        <ele>385.95</ele>
        <time>2016-09-25T08:49:15Z</time>
      </trkpt>
      <trkpt lat="47.38374" lon="6.7342">
        <ele>385.12</ele>
        <time>2016-09-25T08:49:20Z</time>
      </trkpt>
      <trkpt lat="47.38361" lon="6.73402">
        <ele>388.24</ele>
        <time>2016-09-25T08:49:24Z</time>
      </trkpt>
      <trkpt lat="47.38345" lon="6.73383">
        <ele>389.49</ele>
        <time>2016-09-25T08:49:29Z</time>
      </trkpt>
      <trkpt lat="47.3833" lon="6.73366">
        <ele>389.37</ele>
        <time>2016-09-25T08:49:35Z</time>
      </trkpt>
      <trkpt lat="47.38315" lon="6.7335">
        <ele>388.54</ele>
        <time>2016-09-25T08:49:40Z</time>
      </trkpt>
      <trkpt lat="47.38299" lon="6.73334">
        <ele>388.87</ele>
        <time>2016-09-25T08:49:45Z</time>
      </trkpt>
      <trkpt lat="47.38283" lon="6.73315">
        <ele>389.11</ele>
        <time>2016-09-25T08:49:52Z</time>
      </trkpt>
      <trkpt lat="47.38268" lon="6.73293">
        <ele>389.74</ele>
        <time>2016-09-25T08:49:56Z</time>
      </trkpt>
      <trkpt lat="47.38255" lon="6.73272">
        <ele>392.9</ele>
        <time>2016-09-25T08:50:01Z</time>
      </trkpt>
      <trkpt lat="47.38237" lon="6.73257">
        <ele>393.63</ele>
        <time>2016-09-25T08:50:08Z</time>
      </trkpt>
      <trkpt lat="47.3822" lon="6.73242">
        <ele>392.34</ele>
        <time>2016-09-25T08:50:13Z</time>
      </trkpt>
      <trkpt lat="47.38201" lon="6.73227">
        <ele>390.83</ele>
        <time>2016-09-25T08:50:20Z</time>
      </trkpt>
      <trkpt lat="47.38183" lon="6.73217">
        <ele>388.39</ele>
        <time>2016-09-25T08:50:24Z</time>
      </trkpt>
      <trkpt lat="47.38165" lon="6.73209">
        <ele>387.04</ele>
        <time>2016-09-25T08:50:28Z</time>
      </trkpt>
      <trkpt lat="47.38145" lon="6.73198">
        <ele>388.06</ele>
        <time>2016-09-25T08:50:33Z</time>
      </trkpt>
      <trkpt lat="47.38123" lon="6.73186">
        <ele>387.68</ele>
        <time>2016-09-25T08:50:37Z</time>
      </trkpt>
      <trkpt lat="47.38101" lon="6.73177">
        <ele>389.23</ele>
        <time>2016-09-25T08:50:41Z</time>
      </trkpt>
      <trkpt lat="47.38082" lon="6.73167">
        <ele>393.66</ele>
        <time>2016-09-25T08:50:45Z</time>
      </trkpt>
      <trkpt lat="47.3806" lon="6.73157">
        <ele>398.49</ele>
        <time>2016-09-25T08:50:49Z</time>
      </trkpt>
      <trkpt lat="47.38042" lon="6.7315">
        <ele>399.8</ele>
        <time>2016-09-25T08:50:52Z</time>
      </trkpt>
      <trkpt lat="47.38024" lon="6.73142">
        <ele>399.68</ele>
        <time>2016-09-25T08:50:56Z</time>
      </trkpt>
      <trkpt lat="47.38005" lon="6.73131">
        <ele>399.4</ele>
        <time>2016-09-25T08:50:59Z</time>
      </trkpt>
      <trkpt lat="47.37988" lon="6.73118">
        <ele>398</ele>
        <time>2016-09-25T08:51:01Z</time>
      </trkpt>
      <trkpt lat="47.37967" lon="6.73106">
        <ele>399.58</ele>
        <time>2016-09-25T08:51:05Z</time>
      </trkpt>
      <trkpt lat="47.37948" lon="6.73094">
        <ele>401.12</ele>
        <time>2016-09-25T08:51:09Z</time>
      </trkpt>
      <trkpt lat="47.37928" lon="6.73081">
        <ele>402.93</ele>
        <time>2016-09-25T08:51:13Z</time>
      </trkpt>
      <trkpt lat="47.37909" lon="6.73071">
        <ele>404.54</ele>
        <time>2016-09-25T08:51:17Z</time>
      </trkpt>
      <trkpt lat="47.3789" lon="6.73059">
        <ele>404.88</ele>
        <time>2016-09-25T08:51:21Z</time>
      </trkpt>
      <trkpt lat="47.37873" lon="6.73044">
        <ele>403.78</ele>
        <time>2016-09-25T08:51:25Z</time>
      </trkpt>
      <trkpt lat="47.37856" lon="6.73025">
        <ele>404.14</ele>
        <time>2016-09-25T08:51:31Z</time>
      </trkpt>
      <trkpt lat="47.37838" lon="6.73014">
        <ele>405.46</ele>
        <time>2016-09-25T08:51:36Z</time>
      </trkpt>
      <trkpt lat="47.37817" lon="6.73014">
        <ele>405.61</ele>
        <time>2016-09-25T08:51:40Z</time>
      </trkpt>
      <trkpt lat="47.37796" lon="6.73017">
        <ele>408.93</ele>
        <time>2016-09-25T08:51:45Z</time>
      </trkpt>
      <trkpt lat="47.37775" lon="6.73019">
        <ele>408.97</ele>
        <time>2016-09-25T08:51:52Z</time>
      </trkpt>
      <trkpt lat="47.37754" lon="6.73023">
        <ele>406.59</ele>
        <time>2016-09-25T08:51:57Z</time>
      </trkpt>
      <trkpt lat="47.37733" lon="6.73025">
        <ele>405.07</ele>
        <time>2016-09-25T08:52:03Z</time>
      </trkpt>
      <trkpt lat="47.37714" lon="6.73029">
        <ele>405.66</ele>
        <time>2016-09-25T08:52:08Z</time>
      </trkpt>
      <trkpt lat="47.37695" lon="6.7303">
        <ele>407.44</ele>
        <time>2016-09-25T08:52:12Z</time>
      </trkpt>
      <trkpt lat="47.37677" lon="6.7303">
        <ele>407.66</ele>
        <time>2016-09-25T08:52:17Z</time>
      </trkpt>
      <trkpt lat="47.37656" lon="6.73027">
        <ele>408.8</ele>
        <time>2016-09-25T08:52:23Z</time>
      </trkpt>
      <trkpt lat="47.37637" lon="6.73018">
        <ele>410.47</ele>
        <time>2016-09-25T08:52:28Z</time>
      </trkpt>
      <trkpt lat="47.37619" lon="6.73008">
        <ele>413.55</ele>
        <time>2016-09-25T08:52:33Z</time>
      </trkpt>
      <trkpt lat="47.37602" lon="6.73">
        <ele>414.99</ele>
        <time>2016-09-25T08:52:40Z</time>
      </trkpt>
      <trkpt lat="47.37584" lon="6.72995">
        <ele>414.75</ele>
        <time>2016-09-25T08:52:44Z</time>
      </trkpt>
      <trkpt lat="47.37563" lon="6.7299">
        <ele>414.23</ele>
        <time>2016-09-25T08:52:48Z</time>
      </trkpt>
      <trkpt lat="47.37541" lon="6.72985">
        <ele>413.2</ele>
        <time>2016-09-25T08:52:55Z</time>
      </trkpt>
      <trkpt lat="47.37521" lon="6.72985">
        <ele>413.72</ele>
        <time>2016-09-25T08:53:00Z</time>
      </trkpt>
      <trkpt lat="47.37503" lon="6.72994">
        <ele>415.17</ele>
        <time>2016-09-25T08:53:05Z</time>
      </trkpt>
      <trkpt lat="47.37484" lon="6.73004">
        <ele>417.02</ele>
        <time>2016-09-25T08:53:11Z</time>
      </trkpt>
      <trkpt lat="47.37464" lon="6.73005">
        <ele>417.75</ele>
        <time>2016-09-25T08:53:16Z</time>
      </trkpt>
      <trkpt lat="47.37444" lon="6.73007">
        <ele>417.67</ele>
        <time>2016-09-25T08:53:21Z</time>
      </trkpt>
      <trkpt lat="47.37423" lon="6.73008">
        <ele>416.32</ele>
        <time>2016-09-25T08:53:27Z</time>
      </trkpt>
      <trkpt lat="47.37405" lon="6.72998">
        <ele>415.9</ele>
        <time>2016-09-25T08:53:32Z</time>
      </trkpt>
      <trkpt lat="47.37423" lon="6.73005">
        <ele>415.34</ele>
        <time>2016-09-25T08:53:49Z</time>
      </trkpt>
      <trkpt lat="47.37443" lon="6.73007">
        <ele>415.32</ele>
        <time>2016-09-25T08:53:56Z</time>
      </trkpt>
      <trkpt lat="47.37461" lon="6.73005">
        <ele>414.78</ele>
        <time>2016-09-25T08:54:03Z</time>
      </trkpt>
      <trkpt lat="47.37484" lon="6.73007">
        <ele>415.04</ele>
        <time>2016-09-25T08:54:08Z</time>
      </trkpt>
      <trkpt lat="47.37504" lon="6.72996">
        <ele>416.35</ele>
        <time>2016-09-25T08:54:12Z</time>
      </trkpt>
      <trkpt lat="47.37527" lon="6.72988">
        <ele>414.34</ele>
        <time>2016-09-25T08:54:16Z</time>
      </trkpt>
      <trkpt lat="47.37546" lon="6.72989">
        <ele>412.79</ele>
        <time>2016-09-25T08:54:19Z</time>
      </trkpt>
      <trkpt lat="47.37569" lon="6.72993">
        <ele>412.04</ele>
        <time>2016-09-25T08:54:21Z</time>
      </trkpt>
      <trkpt lat="47.3759" lon="6.72999">
        <ele>411.48</ele>
        <time>2016-09-25T08:54:24Z</time>
      </trkpt>
      <trkpt lat="47.37615" lon="6.73007">
        <ele>411.64</ele>
        <time>2016-09-25T08:54:28Z</time>
      </trkpt>
      <trkpt lat="47.37639" lon="6.73018">
        <ele>411.25</ele>
        <time>2016-09-25T08:54:31Z</time>
      </trkpt>
      <trkpt lat="47.37664" lon="6.73029">
        <ele>412.88</ele>
        <time>2016-09-25T08:54:33Z</time>
      </trkpt>
      <trkpt lat="47.37683" lon="6.73035">
        <ele>411.65</ele>
        <time>2016-09-25T08:54:36Z</time>
      </trkpt>
      <trkpt lat="47.37702" lon="6.73037">
        <ele>408.67</ele>
        <time>2016-09-25T08:54:37Z</time>
      </trkpt>
      <trkpt lat="47.37727" lon="6.73035">
        <ele>407.52</ele>
        <time>2016-09-25T08:54:40Z</time>
      </trkpt>
      <trkpt lat="47.37752" lon="6.73032">
        <ele>407.66</ele>
        <time>2016-09-25T08:54:44Z</time>
      </trkpt>
      <trkpt lat="47.37777" lon="6.73027">
        <ele>406.63</ele>
        <time>2016-09-25T08:54:47Z</time>
      </trkpt>
      <trkpt lat="47.37802" lon="6.73022">
        <ele>406.02</ele>
        <time>2016-09-25T08:54:49Z</time>
      </trkpt>
      <trkpt lat="47.37827" lon="6.7302">
        <ele>405.51</ele>
        <time>2016-09-25T08:54:52Z</time>
      </trkpt>
      <trkpt lat="47.37852" lon="6.73027">
        <ele>405.27</ele>
        <time>2016-09-25T08:54:56Z</time>
      </trkpt>
      <trkpt lat="47.37872" lon="6.73048">
        <ele>404.24</ele>
        <time>2016-09-25T08:54:59Z</time>
      </trkpt>
      <trkpt lat="47.37895" lon="6.73069">
        <ele>402.66</ele>
        <time>2016-09-25T08:55:02Z</time>
      </trkpt>
      <trkpt lat="47.37919" lon="6.73085">
        <ele>400.06</ele>
        <time>2016-09-25T08:55:05Z</time>
      </trkpt>
      <trkpt lat="47.37943" lon="6.73098">
        <ele>397.14</ele>
        <time>2016-09-25T08:55:08Z</time>
      </trkpt>
      <trkpt lat="47.37968" lon="6.73111">
        <ele>395.03</ele>
        <time>2016-09-25T08:55:11Z</time>
      </trkpt>
      <trkpt lat="47.3799" lon="6.73125">
        <ele>394.51</ele>
        <time>2016-09-25T08:55:14Z</time>
      </trkpt>
      <trkpt lat="47.38013" lon="6.73137">
        <ele>395.35</ele>
        <time>2016-09-25T08:55:17Z</time>
      </trkpt>
      <trkpt lat="47.38035" lon="6.73148">
        <ele>395.72</ele>
        <time>2016-09-25T08:55:20Z</time>
      </trkpt>
      <trkpt lat="47.38056" lon="6.73155">
        <ele>396.19</ele>
        <time>2016-09-25T08:55:23Z</time>
      </trkpt>
      <trkpt lat="47.38079" lon="6.73162">
        <ele>395.83</ele>
        <time>2016-09-25T08:55:26Z</time>
      </trkpt>
      <trkpt lat="47.381" lon="6.7317">
        <ele>396.97</ele>
        <time>2016-09-25T08:55:29Z</time>
      </trkpt>
      <trkpt lat="47.38121" lon="6.73178">
        <ele>397.81</ele>
        <time>2016-09-25T08:55:32Z</time>
      </trkpt>
      <trkpt lat="47.38141" lon="6.73188">
        <ele>397.84</ele>
        <time>2016-09-25T08:55:35Z</time>
      </trkpt>
      <trkpt lat="47.3816" lon="6.73199">
        <ele>398.01</ele>
        <time>2016-09-25T08:55:38Z</time>
      </trkpt>
      <trkpt lat="47.38178" lon="6.73211">
        <ele>397.9</ele>
        <time>2016-09-25T08:55:41Z</time>
      </trkpt>
      <trkpt lat="47.38194" lon="6.73227">
        <ele>399.12</ele>
        <time>2016-09-25T08:55:44Z</time>
      </trkpt>
      <trkpt lat="47.38212" lon="6.73247">
        <ele>400.53</ele>
        <time>2016-09-25T08:55:47Z</time>
      </trkpt>
      <trkpt lat="47.38234" lon="6.7327">
        <ele>399.92</ele>
        <time>2016-09-25T08:55:50Z</time>
      </trkpt>
      <trkpt lat="47.38249" lon="6.73284">
        <ele>397.53</ele>
        <time>2016-09-25T08:55:52Z</time>
      </trkpt>
      <trkpt lat="47.38271" lon="6.73303">
        <ele>397.83</ele>
        <time>2016-09-25T08:55:55Z</time>
      </trkpt>
      <trkpt lat="47.38287" lon="6.73317">
        <ele>397.73</ele>
        <time>2016-09-25T08:55:57Z</time>
      </trkpt>
      <trkpt lat="47.38307" lon="6.73336">
        <ele>396.27</ele>
        <time>2016-09-25T08:56:00Z</time>
      </trkpt>
      <trkpt lat="47.38323" lon="6.7335">
        <ele>396.28</ele>
        <time>2016-09-25T08:56:02Z</time>
      </trkpt>
      <trkpt lat="47.38343" lon="6.73372">
        <ele>394.94</ele>
        <time>2016-09-25T08:56:05Z</time>
      </trkpt>
      <trkpt lat="47.38364" lon="6.73399">
        <ele>392.56</ele>
        <time>2016-09-25T08:56:08Z</time>
      </trkpt>
      <trkpt lat="47.38378" lon="6.73418">
        <ele>391.38</ele>
        <time>2016-09-25T08:56:10Z</time>
      </trkpt>
      <trkpt lat="47.38392" lon="6.73436">
        <ele>390.06</ele>
        <time>2016-09-25T08:56:12Z</time>
      </trkpt>
      <trkpt lat="47.38409" lon="6.73459">
        <ele>388.63</ele>
        <time>2016-09-25T08:56:15Z</time>
      </trkpt>
      <trkpt lat="47.38427" lon="6.73478">
        <ele>389.75</ele>
        <time>2016-09-25T08:56:18Z</time>
      </trkpt>
      <trkpt lat="47.38445" lon="6.73501">
        <ele>390.95</ele>
        <time>2016-09-25T08:56:21Z</time>
      </trkpt>
      <trkpt lat="47.38465" lon="6.73528">
        <ele>390.09</ele>
        <time>2016-09-25T08:56:24Z</time>
      </trkpt>
      <trkpt lat="47.38479" lon="6.73546">
        <ele>389.31</ele>
        <time>2016-09-25T08:56:26Z</time>
      </trkpt>
      <trkpt lat="47.38499" lon="6.73572">
        <ele>389.27</ele>
        <time>2016-09-25T08:56:29Z</time>
      </trkpt>
      <trkpt lat="47.38514" lon="6.73597">
        <ele>388.1</ele>
        <time>2016-09-25T08:56:32Z</time>
      </trkpt>
      <trkpt lat="47.3853" lon="6.73622">
        <ele>384.49</ele>
        <time>2016-09-25T08:56:35Z</time>
      </trkpt>
      <trkpt lat="47.38544" lon="6.73649">
        <ele>381.59</ele>
        <time>2016-09-25T08:56:38Z</time>
      </trkpt>
      <trkpt lat="47.38557" lon="6.73669">
        <ele>377.86</ele>
        <time>2016-09-25T08:56:40Z</time>
      </trkpt>
      <trkpt lat="47.38568" lon="6.73698">
        <ele>375.48</ele>
        <time>2016-09-25T08:56:43Z</time>
      </trkpt>
      <trkpt lat="47.38579" lon="6.73724">
        <ele>374.41</ele>
        <time>2016-09-25T08:56:46Z</time>
      </trkpt>
      <trkpt lat="47.38588" lon="6.73754">
        <ele>377.59</ele>
        <time>2016-09-25T08:56:50Z</time>
      </trkpt>
      <trkpt lat="47.38597" lon="6.73778">
        <ele>379.27</ele>
        <time>2016-09-25T08:56:54Z</time>
      </trkpt>
      <trkpt lat="47.38608" lon="6.73805">
        <ele>380.82</ele>
        <time>2016-09-25T08:56:59Z</time>
      </trkpt>
      <trkpt lat="47.3862" lon="6.73831">
        <ele>380.57</ele>
        <time>2016-09-25T08:57:02Z</time>
      </trkpt>
      <trkpt lat="47.38632" lon="6.73858">
        <ele>379.4</ele>
        <time>2016-09-25T08:57:05Z</time>
      </trkpt>
      <trkpt lat="47.38634" lon="6.73889">
        <ele>384.39</ele>
        <time>2016-09-25T08:57:08Z</time>
      </trkpt>
      <trkpt lat="47.3864" lon="6.73916">
        <ele>390.23</ele>
        <time>2016-09-25T08:57:11Z</time>
      </trkpt>
      <trkpt lat="47.38651" lon="6.73942">
        <ele>392.82</ele>
        <time>2016-09-25T08:57:14Z</time>
      </trkpt>
      <trkpt lat="47.38663" lon="6.73966">
        <ele>393.13</ele>
        <time>2016-09-25T08:57:17Z</time>
      </trkpt>
      <trkpt lat="47.38674" lon="6.73994">
        <ele>389.62</ele>
        <time>2016-09-25T08:57:20Z</time>
      </trkpt>
      <trkpt lat="47.38686" lon="6.74021">
        <ele>387.26</ele>
        <time>2016-09-25T08:57:23Z</time>
      </trkpt>
      <trkpt lat="47.38702" lon="6.74047">
        <ele>384.62</ele>
        <time>2016-09-25T08:57:26Z</time>
      </trkpt>
      <trkpt lat="47.38716" lon="6.74074">
        <ele>383.97</ele>
        <time>2016-09-25T08:57:29Z</time>
      </trkpt>
      <trkpt lat="47.3873" lon="6.74099">
        <ele>384.71</ele>
        <time>2016-09-25T08:57:32Z</time>
      </trkpt>
      <trkpt lat="47.38743" lon="6.74128">
        <ele>382.38</ele>
        <time>2016-09-25T08:57:35Z</time>
      </trkpt>
      <trkpt lat="47.38752" lon="6.74155">
        <ele>379.52</ele>
        <time>2016-09-25T08:57:38Z</time>
      </trkpt>
      <trkpt lat="47.38762" lon="6.74182">
        <ele>379.41</ele>
        <time>2016-09-25T08:57:41Z</time>
      </trkpt>
      <trkpt lat="47.38772" lon="6.7421">
        <ele>381.9</ele>
        <time>2016-09-25T08:57:44Z</time>
      </trkpt>
      <trkpt lat="47.38783" lon="6.7424">
        <ele>380.68</ele>
        <time>2016-09-25T08:57:47Z</time>
      </trkpt>
      <trkpt lat="47.38792" lon="6.74265">
        <ele>379.28</ele>
        <time>2016-09-25T08:57:49Z</time>
      </trkpt>
      <trkpt lat="47.38809" lon="6.7429">
        <ele>377.73</ele>
        <time>2016-09-25T08:57:51Z</time>
      </trkpt>
      <trkpt lat="47.38825" lon="6.74318">
        <ele>374.98</ele>
        <time>2016-09-25T08:57:53Z</time>
      </trkpt>
      <trkpt lat="47.38834" lon="6.74349">
        <ele>372.96</ele>
        <time>2016-09-25T08:57:55Z</time>
      </trkpt>
      <trkpt lat="47.38842" lon="6.74383">
        <ele>374.01</ele>
        <time>2016-09-25T08:57:57Z</time>
      </trkpt>
      <trkpt lat="47.38846" lon="6.74416">
        <ele>376.03</ele>
        <time>2016-09-25T08:57:59Z</time>
      </trkpt>
      <trkpt lat="47.38844" lon="6.74445">
        <ele>376.76</ele>
        <time>2016-09-25T08:58:01Z</time>
      </trkpt>
      <trkpt lat="47.38844" lon="6.74476">
        <ele>376.67</ele>
        <time>2016-09-25T08:58:03Z</time>
      </trkpt>
      <trkpt lat="47.38844" lon="6.74507">
        <ele>378.69</ele>
        <time>2016-09-25T08:58:05Z</time>
      </trkpt>
      <trkpt lat="47.38844" lon="6.74537">
        <ele>381.98</ele>
        <time>2016-09-25T08:58:07Z</time>
      </trkpt>
      <trkpt lat="47.38845" lon="6.74577">
        <ele>381.19</ele>
        <time>2016-09-25T08:58:10Z</time>
      </trkpt>
      <trkpt lat="47.38848" lon="6.74616">
        <ele>382.45</ele>
        <time>2016-09-25T08:58:13Z</time>
      </trkpt>
      <trkpt lat="47.38847" lon="6.74653">
        <ele>383.87</ele>
        <time>2016-09-25T08:58:16Z</time>
      </trkpt>
      <trkpt lat="47.38846" lon="6.74692">
        <ele>384.9</ele>
        <time>2016-09-25T08:58:19Z</time>
      </trkpt>
      <trkpt lat="47.38845" lon="6.74727">
        <ele>385.44</ele>
        <time>2016-09-25T08:58:22Z</time>
      </trkpt>
      <trkpt lat="47.38843" lon="6.74764">
        <ele>384.37</ele>
        <time>2016-09-25T08:58:25Z</time>
      </trkpt>
      <trkpt lat="47.38842" lon="6.74802">
        <ele>382.89</ele>
        <time>2016-09-25T08:58:28Z</time>
      </trkpt>
      <trkpt lat="47.38841" lon="6.74837">
        <ele>382.15</ele>
        <time>2016-09-25T08:58:31Z</time>
      </trkpt>
      <trkpt lat="47.38837" lon="6.74874">
        <ele>382.17</ele>
        <time>2016-09-25T08:58:34Z</time>
      </trkpt>
      <trkpt lat="47.38833" lon="6.749">
        <ele>382.59</ele>
        <time>2016-09-25T08:58:36Z</time>
      </trkpt>
      <trkpt lat="47.38828" lon="6.74936">
        <ele>382.27</ele>
        <time>2016-09-25T08:58:39Z</time>
      </trkpt>
      <trkpt lat="47.38824" lon="6.74975">
        <ele>381.22</ele>
        <time>2016-09-25T08:58:42Z</time>
      </trkpt>
      <trkpt lat="47.38824" lon="6.75004">
        <ele>380.32</ele>
        <time>2016-09-25T08:58:44Z</time>
      </trkpt>
      <trkpt lat="47.38824" lon="6.75032">
        <ele>378.93</ele>
        <time>2016-09-25T08:58:46Z</time>
      </trkpt>
      <trkpt lat="47.38825" lon="6.7506">
        <ele>377.27</ele>
        <time>2016-09-25T08:58:48Z</time>
      </trkpt>
      <trkpt lat="47.38826" lon="6.75087">
        <ele>375.93</ele>
        <time>2016-09-25T08:58:50Z</time>
      </trkpt>
      <trkpt lat="47.38829" lon="6.75125">
        <ele>374.11</ele>
        <time>2016-09-25T08:58:53Z</time>
      </trkpt>
      <trkpt lat="47.38837" lon="6.7516">
        <ele>372.06</ele>
        <time>2016-09-25T08:58:56Z</time>
      </trkpt>
      <trkpt lat="47.38847" lon="6.75192">
        <ele>372.34</ele>
        <time>2016-09-25T08:58:59Z</time>
      </trkpt>
      <trkpt lat="47.38857" lon="6.75222">
        <ele>372.38</ele>
        <time>2016-09-25T08:59:02Z</time>
      </trkpt>
      <trkpt lat="47.38868" lon="6.75251">
        <ele>372.01</ele>
        <time>2016-09-25T08:59:05Z</time>
      </trkpt>
      <trkpt lat="47.38875" lon="6.75283">
        <ele>370.39</ele>
        <time>2016-09-25T08:59:08Z</time>
      </trkpt>
      <trkpt lat="47.38878" lon="6.75313">
        <ele>369</ele>
        <time>2016-09-25T08:59:11Z</time>
      </trkpt>
      <trkpt lat="47.38884" lon="6.75343">
        <ele>367.79</ele>
        <time>2016-09-25T08:59:14Z</time>
      </trkpt>
      <trkpt lat="47.3889" lon="6.75375">
        <ele>366.55</ele>
        <time>2016-09-25T08:59:17Z</time>
      </trkpt>
      <trkpt lat="47.38892" lon="6.75409">
        <ele>364.75</ele>
        <time>2016-09-25T08:59:20Z</time>
      </trkpt>
      <trkpt lat="47.38893" lon="6.7544">
        <ele>364.24</ele>
        <time>2016-09-25T08:59:23Z</time>
      </trkpt>
      <trkpt lat="47.38882" lon="6.75467">
        <ele>365.18</ele>
        <time>2016-09-25T08:59:26Z</time>
      </trkpt>
      <trkpt lat="47.38861" lon="6.75479">
        <ele>363.95</ele>
        <time>2016-09-25T08:59:30Z</time>
      </trkpt>
      <trkpt lat="47.3884" lon="6.75482">
        <ele>364.58</ele>
        <time>2016-09-25T08:59:36Z</time>
      </trkpt>
      <trkpt lat="47.38822" lon="6.75495">
        <ele>365.78</ele>
        <time>2016-09-25T08:59:42Z</time>
      </trkpt>
      <trkpt lat="47.38808" lon="6.75518">
        <ele>365.32</ele>
        <time>2016-09-25T08:59:48Z</time>
      </trkpt>
      <trkpt lat="47.38801" lon="6.75542">
        <ele>361.42</ele>
        <time>2016-09-25T08:59:53Z</time>
      </trkpt>
      <trkpt lat="47.38798" lon="6.75576">
        <ele>360.83</ele>
        <time>2016-09-25T09:00:00Z</time>
      </trkpt>
      <trkpt lat="47.38796" lon="6.75602">
        <ele>360.83</ele>
        <time>2016-09-25T09:00:04Z</time>
      </trkpt>
      <trkpt lat="47.38789" lon="6.75631">
        <ele>360.69</ele>
        <time>2016-09-25T09:00:09Z</time>
      </trkpt>
      <trkpt lat="47.38788" lon="6.75658">
        <ele>360.03</ele>
        <time>2016-09-25T09:00:14Z</time>
      </trkpt>
      <trkpt lat="47.38792" lon="6.75687">
        <ele>361.3</ele>
        <time>2016-09-25T09:00:33Z</time>
      </trkpt>
      <trkpt lat="47.38792" lon="6.75717">
        <ele>363.18</ele>
        <time>2016-09-25T09:00:39Z</time>
      </trkpt>
      <trkpt lat="47.38793" lon="6.75749">
        <ele>365.95</ele>
        <time>2016-09-25T09:00:44Z</time>
      </trkpt>
      <trkpt lat="47.388" lon="6.75782">
        <ele>364.7</ele>
        <time>2016-09-25T09:00:48Z</time>
      </trkpt>
      <trkpt lat="47.38804" lon="6.75812">
        <ele>365.32</ele>
        <time>2016-09-25T09:00:52Z</time>
      </trkpt>
      <trkpt lat="47.38808" lon="6.75839">
        <ele>367.41</ele>
        <time>2016-09-25T09:00:56Z</time>
      </trkpt>
      <trkpt lat="47.38814" lon="6.75867">
        <ele>367.95</ele>
        <time>2016-09-25T09:01:00Z</time>
      </trkpt>
      <trkpt lat="47.3882" lon="6.75898">
        <ele>369.53</ele>
        <time>2016-09-25T09:01:04Z</time>
      </trkpt>
      <trkpt lat="47.38825" lon="6.75924">
        <ele>371.49</ele>
        <time>2016-09-25T09:01:07Z</time>
      </trkpt>
      <trkpt lat="47.38827" lon="6.75953">
        <ele>372.76</ele>
        <time>2016-09-25T09:01:11Z</time>
      </trkpt>
      <trkpt lat="47.38831" lon="6.7598">
        <ele>371.08</ele>
        <time>2016-09-25T09:01:14Z</time>
      </trkpt>
      <trkpt lat="47.38835" lon="6.76008">
        <ele>369.67</ele>
        <time>2016-09-25T09:01:17Z</time>
      </trkpt>
      <trkpt lat="47.38845" lon="6.76037">
        <ele>368.55</ele>
        <time>2016-09-25T09:01:20Z</time>
      </trkpt>
      <trkpt lat="47.38848" lon="6.76068">
        <ele>366.58</ele>
        <time>2016-09-25T09:01:24Z</time>
      </trkpt>
      <trkpt lat="47.38845" lon="6.76097">
        <ele>364.65</ele>
        <time>2016-09-25T09:01:27Z</time>
      </trkpt>
      <trkpt lat="47.3884" lon="6.76129">
        <ele>360.89</ele>
        <time>2016-09-25T09:01:31Z</time>
      </trkpt>
      <trkpt lat="47.38835" lon="6.76161">
        <ele>362.09</ele>
        <time>2016-09-25T09:01:36Z</time>
      </trkpt>
      <trkpt lat="47.3883" lon="6.76187">
        <ele>362.81</ele>
        <time>2016-09-25T09:01:41Z</time>
      </trkpt>
      <trkpt lat="47.38825" lon="6.76216">
        <ele>367.11</ele>
        <time>2016-09-25T09:01:46Z</time>
      </trkpt>
      <trkpt lat="47.38819" lon="6.76243">
        <ele>368.2</ele>
        <time>2016-09-25T09:01:51Z</time>
      </trkpt>
      <trkpt lat="47.38806" lon="6.76265">
        <ele>370.45</ele>
        <time>2016-09-25T09:01:56Z</time>
      </trkpt>
      <trkpt lat="47.38791" lon="6.76282">
        <ele>375.41</ele>
        <time>2016-09-25T09:02:00Z</time>
      </trkpt>
      <trkpt lat="47.38773" lon="6.76305">
        <ele>374.35</ele>
        <time>2016-09-25T09:02:04Z</time>
      </trkpt>
      <trkpt lat="47.38754" lon="6.76322">
        <ele>371.56</ele>
        <time>2016-09-25T09:02:08Z</time>
      </trkpt>
      <trkpt lat="47.38737" lon="6.76344">
        <ele>367.92</ele>
        <time>2016-09-25T09:02:12Z</time>
      </trkpt>
      <trkpt lat="47.3872" lon="6.76369">
        <ele>364.74</ele>
        <time>2016-09-25T09:02:16Z</time>
      </trkpt>
      <trkpt lat="47.38704" lon="6.76394">
        <ele>364.31</ele>
        <time>2016-09-25T09:02:19Z</time>
      </trkpt>
      <trkpt lat="47.38686" lon="6.76417">
        <ele>361.86</ele>
        <time>2016-09-25T09:02:22Z</time>
      </trkpt>
      <trkpt lat="47.38665" lon="6.76429">
        <ele>360.8</ele>
        <time>2016-09-25T09:02:25Z</time>
      </trkpt>
      <trkpt lat="47.38642" lon="6.7644">
        <ele>359.18</ele>
        <time>2016-09-25T09:02:28Z</time>
      </trkpt>
      <trkpt lat="47.38622" lon="6.76455">
        <ele>358.11</ele>
        <time>2016-09-25T09:02:31Z</time>
      </trkpt>
      <trkpt lat="47.38603" lon="6.76478">
        <ele>355.35</ele>
        <time>2016-09-25T09:02:34Z</time>
      </trkpt>
      <trkpt lat="47.38596" lon="6.76513">
        <ele>354.46</ele>
        <time>2016-09-25T09:02:37Z</time>
      </trkpt>
      <trkpt lat="47.38601" lon="6.76539">
        <ele>355.23</ele>
        <time>2016-09-25T09:02:40Z</time>
      </trkpt>
      <trkpt lat="47.38619" lon="6.76526">
        <ele>354.06</ele>
        <time>2016-09-25T09:02:44Z</time>
      </trkpt>
      <trkpt lat="47.3864" lon="6.76527">
        <ele>352.98</ele>
        <time>2016-09-25T09:02:47Z</time>
      </trkpt>
      <trkpt lat="47.38657" lon="6.7655">
        <ele>355.34</ele>
        <time>2016-09-25T09:02:51Z</time>
      </trkpt>
      <trkpt lat="47.38667" lon="6.7658">
        <ele>357.59</ele>
        <time>2016-09-25T09:02:54Z</time>
      </trkpt>
      <trkpt lat="47.38676" lon="6.76607">
        <ele>358.06</ele>
        <time>2016-09-25T09:02:57Z</time>
      </trkpt>
      <trkpt lat="47.38685" lon="6.76632">
        <ele>358</ele>
        <time>2016-09-25T09:03:00Z</time>
      </trkpt>
      <trkpt lat="47.38696" lon="6.76653">
        <ele>356.76</ele>
        <time>2016-09-25T09:03:03Z</time>
      </trkpt>
      <trkpt lat="47.38711" lon="6.76672">
        <ele>357.84</ele>
        <time>2016-09-25T09:03:06Z</time>
      </trkpt>
      <trkpt lat="47.38728" lon="6.76692">
        <ele>358.1</ele>
        <time>2016-09-25T09:03:09Z</time>
      </trkpt>
      <trkpt lat="47.38744" lon="6.76712">
        <ele>357.33</ele>
        <time>2016-09-25T09:03:12Z</time>
      </trkpt>
      <trkpt lat="47.38757" lon="6.76735">
        <ele>356.35</ele>
        <time>2016-09-25T09:03:15Z</time>
      </trkpt>
      <trkpt lat="47.38769" lon="6.76763">
        <ele>356.58</ele>
        <time>2016-09-25T09:03:18Z</time>
      </trkpt>
      <trkpt lat="47.38776" lon="6.76791">
        <ele>357.31</ele>
        <time>2016-09-25T09:03:21Z</time>
      </trkpt>
      <trkpt lat="47.38789" lon="6.76815">
        <ele>357.48</ele>
        <time>2016-09-25T09:03:25Z</time>
      </trkpt>
      <trkpt lat="47.38805" lon="6.76828">
        <ele>357.8</ele>
        <time>2016-09-25T09:03:28Z</time>
      </trkpt>
      <trkpt lat="47.38823" lon="6.76839">
        <ele>358.84</ele>
        <time>2016-09-25T09:03:31Z</time>
      </trkpt>
      <trkpt lat="47.38842" lon="6.76849">
        <ele>359.44</ele>
        <time>2016-09-25T09:03:34Z</time>
      </trkpt>
      <trkpt lat="47.38859" lon="6.7686">
        <ele>358.61</ele>
        <time>2016-09-25T09:03:37Z</time>
      </trkpt>
      <trkpt lat="47.38877" lon="6.7687">
        <ele>357.91</ele>
        <time>2016-09-25T09:03:40Z</time>
      </trkpt>
      <trkpt lat="47.38896" lon="6.76882">
        <ele>357.8</ele>
        <time>2016-09-25T09:03:43Z</time>
      </trkpt>
      <trkpt lat="47.38915" lon="6.76895">
        <ele>357.6</ele>
        <time>2016-09-25T09:03:46Z</time>
      </trkpt>
      <trkpt lat="47.38936" lon="6.76907">
        <ele>356.94</ele>
        <time>2016-09-25T09:03:49Z</time>
      </trkpt>
      <trkpt lat="47.38955" lon="6.76919">
        <ele>355.48</ele>
        <time>2016-09-25T09:03:52Z</time>
      </trkpt>
      <trkpt lat="47.38973" lon="6.76929">
        <ele>353.8</ele>
        <time>2016-09-25T09:03:55Z</time>
      </trkpt>
      <trkpt lat="47.38994" lon="6.76943">
        <ele>351.84</ele>
        <time>2016-09-25T09:03:59Z</time>
      </trkpt>
      <trkpt lat="47.39011" lon="6.76952">
        <ele>352.12</ele>
        <time>2016-09-25T09:04:02Z</time>
      </trkpt>
      <trkpt lat="47.3903" lon="6.76962">
        <ele>352.01</ele>
        <time>2016-09-25T09:04:05Z</time>
      </trkpt>
      <trkpt lat="47.39048" lon="6.76972">
        <ele>352.99</ele>
        <time>2016-09-25T09:04:08Z</time>
      </trkpt>
      <trkpt lat="47.39067" lon="6.76983">
        <ele>353.67</ele>
        <time>2016-09-25T09:04:11Z</time>
      </trkpt>
      <trkpt lat="47.39085" lon="6.76995">
        <ele>353.47</ele>
        <time>2016-09-25T09:04:14Z</time>
      </trkpt>
      <trkpt lat="47.39105" lon="6.77001">
        <ele>351.79</ele>
        <time>2016-09-25T09:04:17Z</time>
      </trkpt>
      <trkpt lat="47.39123" lon="6.76994">
        <ele>350.76</ele>
        <time>2016-09-25T09:04:20Z</time>
      </trkpt>
      <trkpt lat="47.39142" lon="6.76983">
        <ele>351.97</ele>
        <time>2016-09-25T09:04:23Z</time>
      </trkpt>
      <trkpt lat="47.39164" lon="6.7697">
        <ele>352.06</ele>
        <time>2016-09-25T09:04:26Z</time>
      </trkpt>
      <trkpt lat="47.39182" lon="6.7696">
        <ele>351.92</ele>
        <time>2016-09-25T09:04:28Z</time>
      </trkpt>
      <trkpt lat="47.39202" lon="6.76951">
        <ele>351.86</ele>
        <time>2016-09-25T09:04:30Z</time>
      </trkpt>
      <trkpt lat="47.39223" lon="6.76946">
        <ele>352.25</ele>
        <time>2016-09-25T09:04:32Z</time>
      </trkpt>
      <trkpt lat="47.39242" lon="6.76954">
        <ele>352.22</ele>
        <time>2016-09-25T09:04:34Z</time>
      </trkpt>
      <trkpt lat="47.39254" lon="6.76973">
        <ele>352.37</ele>
        <time>2016-09-25T09:04:36Z</time>
      </trkpt>
      <trkpt lat="47.39262" lon="6.77004">
        <ele>351.25</ele>
        <time>2016-09-25T09:04:39Z</time>
      </trkpt>
      <trkpt lat="47.39267" lon="6.77031">
        <ele>351.93</ele>
        <time>2016-09-25T09:04:42Z</time>
      </trkpt>
      <trkpt lat="47.39262" lon="6.7706">
        <ele>351.91</ele>
        <time>2016-09-25T09:04:53Z</time>
      </trkpt>
      <trkpt lat="47.39276" lon="6.77085">
        <ele>349.55</ele>
        <time>2016-09-25T09:04:58Z</time>
      </trkpt>
      <trkpt lat="47.39279" lon="6.77113">
        <ele>347.7</ele>
        <time>2016-09-25T09:05:02Z</time>
      </trkpt>
      <trkpt lat="47.39267" lon="6.77134">
        <ele>347.43</ele>
        <time>2016-09-25T09:05:06Z</time>
      </trkpt>
      <trkpt lat="47.39259" lon="6.77159">
        <ele>347.66</ele>
        <time>2016-09-25T09:05:10Z</time>
      </trkpt>
      <trkpt lat="47.39242" lon="6.77172">
        <ele>347.75</ele>
        <time>2016-09-25T09:05:14Z</time>
      </trkpt>
      <trkpt lat="47.39248" lon="6.77203">
        <ele>346.86</ele>
        <time>2016-09-25T09:05:17Z</time>
      </trkpt>
      <trkpt lat="47.39252" lon="6.77239">
        <ele>345.26</ele>
        <time>2016-09-25T09:05:20Z</time>
      </trkpt>
      <trkpt lat="47.39256" lon="6.77272">
        <ele>342.65</ele>
        <time>2016-09-25T09:05:23Z</time>
      </trkpt>
      <trkpt lat="47.39257" lon="6.77304">
        <ele>341.22</ele>
        <time>2016-09-25T09:05:26Z</time>
      </trkpt>
      <trkpt lat="47.3926" lon="6.77338">
        <ele>341.31</ele>
        <time>2016-09-25T09:05:36Z</time>
      </trkpt>
      <trkpt lat="47.39262" lon="6.77366">
        <ele>340.91</ele>
        <time>2016-09-25T09:05:40Z</time>
      </trkpt>
      <trkpt lat="47.39264" lon="6.77393">
        <ele>341.38</ele>
        <time>2016-09-25T09:05:44Z</time>
      </trkpt>
      <trkpt lat="47.39283" lon="6.77393">
        <ele>342.11</ele>
        <time>2016-09-25T09:05:49Z</time>
      </trkpt>
      <trkpt lat="47.39304" lon="6.7738">
        <ele>340.3</ele>
        <time>2016-09-25T09:05:54Z</time>
      </trkpt>
      <trkpt lat="47.39324" lon="6.77373">
        <ele>339.61</ele>
        <time>2016-09-25T09:05:58Z</time>
      </trkpt>
      <trkpt lat="47.39347" lon="6.77365">
        <ele>338.02</ele>
        <time>2016-09-25T09:06:02Z</time>
      </trkpt>
      <trkpt lat="47.39368" lon="6.77358">
        <ele>338.46</ele>
        <time>2016-09-25T09:06:06Z</time>
      </trkpt>
      <trkpt lat="47.39389" lon="6.77352">
        <ele>337.28</ele>
        <time>2016-09-25T09:06:10Z</time>
      </trkpt>
      <trkpt lat="47.39411" lon="6.77343">
        <ele>336.11</ele>
        <time>2016-09-25T09:06:14Z</time>
      </trkpt>
      <trkpt lat="47.39434" lon="6.77334">
        <ele>336.67</ele>
        <time>2016-09-25T09:06:18Z</time>
      </trkpt>
      <trkpt lat="47.39457" lon="6.77327">
        <ele>336.76</ele>
        <time>2016-09-25T09:06:22Z</time>
      </trkpt>
      <trkpt lat="47.39476" lon="6.77318">
        <ele>337.18</ele>
        <time>2016-09-25T09:06:26Z</time>
      </trkpt>
      <trkpt lat="47.39496" lon="6.77304">
        <ele>337.61</ele>
        <time>2016-09-25T09:06:30Z</time>
      </trkpt>
      <trkpt lat="47.39515" lon="6.77293">
        <ele>336.3</ele>
        <time>2016-09-25T09:06:33Z</time>
      </trkpt>
      <trkpt lat="47.39537" lon="6.7729">
        <ele>336.9</ele>
        <time>2016-09-25T09:06:37Z</time>
      </trkpt>
      <trkpt lat="47.39558" lon="6.77292">
        <ele>337.76</ele>
        <time>2016-09-25T09:06:41Z</time>
      </trkpt>
      <trkpt lat="47.39576" lon="6.77287">
        <ele>338.08</ele>
        <time>2016-09-25T09:06:44Z</time>
      </trkpt>
      <trkpt lat="47.39594" lon="6.77276">
        <ele>339</ele>
        <time>2016-09-25T09:06:48Z</time>
      </trkpt>
      <trkpt lat="47.39613" lon="6.77259">
        <ele>341.64</ele>
        <time>2016-09-25T09:06:52Z</time>
      </trkpt>
      <trkpt lat="47.39634" lon="6.77243">
        <ele>341.28</ele>
        <time>2016-09-25T09:06:56Z</time>
      </trkpt>
      <trkpt lat="47.39649" lon="6.77228">
        <ele>339.55</ele>
        <time>2016-09-25T09:06:59Z</time>
      </trkpt>
      <trkpt lat="47.39669" lon="6.77215">
        <ele>337.86</ele>
        <time>2016-09-25T09:07:03Z</time>
      </trkpt>
      <trkpt lat="47.39686" lon="6.77205">
        <ele>334.86</ele>
        <time>2016-09-25T09:07:06Z</time>
      </trkpt>
      <trkpt lat="47.39705" lon="6.772">
        <ele>332.32</ele>
        <time>2016-09-25T09:07:09Z</time>
      </trkpt>
      <trkpt lat="47.39725" lon="6.77195">
        <ele>332.96</ele>
        <time>2016-09-25T09:07:13Z</time>
      </trkpt>
      <trkpt lat="47.39747" lon="6.77188">
        <ele>337.13</ele>
        <time>2016-09-25T09:07:17Z</time>
      </trkpt>
      <trkpt lat="47.39767" lon="6.77181">
        <ele>335.38</ele>
        <time>2016-09-25T09:07:21Z</time>
      </trkpt>
      <trkpt lat="47.39788" lon="6.77173">
        <ele>332.65</ele>
        <time>2016-09-25T09:07:26Z</time>
      </trkpt>
      <trkpt lat="47.39806" lon="6.77166">
        <ele>330.68</ele>
        <time>2016-09-25T09:07:30Z</time>
      </trkpt>
      <trkpt lat="47.3983" lon="6.77164">
        <ele>334.77</ele>
        <time>2016-09-25T09:07:34Z</time>
      </trkpt>
      <trkpt lat="47.39852" lon="6.77162">
        <ele>337.04</ele>
        <time>2016-09-25T09:07:38Z</time>
      </trkpt>
      <trkpt lat="47.39871" lon="6.77158">
        <ele>341.7</ele>
        <time>2016-09-25T09:07:41Z</time>
      </trkpt>
      <trkpt lat="47.39895" lon="6.77156">
        <ele>344.26</ele>
        <time>2016-09-25T09:07:45Z</time>
      </trkpt>
      <trkpt lat="47.39915" lon="6.77152">
        <ele>344.73</ele>
        <time>2016-09-25T09:07:48Z</time>
      </trkpt>
      <trkpt lat="47.39934" lon="6.77149">
        <ele>345.7</ele>
        <time>2016-09-25T09:07:51Z</time>
      </trkpt>
      <trkpt lat="47.39954" lon="6.77148">
        <ele>344.54</ele>
        <time>2016-09-25T09:07:54Z</time>
      </trkpt>
      <trkpt lat="47.39973" lon="6.77149">
        <ele>343.84</ele>
        <time>2016-09-25T09:07:57Z</time>
      </trkpt>
      <trkpt lat="47.39997" lon="6.77151">
        <ele>344.54</ele>
        <time>2016-09-25T09:08:01Z</time>
      </trkpt>
      <trkpt lat="47.40017" lon="6.77152">
        <ele>344.32</ele>
        <time>2016-09-25T09:08:04Z</time>
      </trkpt>
      <trkpt lat="47.40037" lon="6.77155">
        <ele>346.02</ele>
        <time>2016-09-25T09:08:07Z</time>
      </trkpt>
      <trkpt lat="47.40057" lon="6.77157">
        <ele>345.47</ele>
        <time>2016-09-25T09:08:10Z</time>
      </trkpt>
      <trkpt lat="47.40077" lon="6.77159">
        <ele>343.52</ele>
        <time>2016-09-25T09:08:13Z</time>
      </trkpt>
      <trkpt lat="47.40097" lon="6.7716">
        <ele>343.22</ele>
        <time>2016-09-25T09:08:16Z</time>
      </trkpt>
      <trkpt lat="47.40116" lon="6.77162">
        <ele>343.64</ele>
        <time>2016-09-25T09:08:19Z</time>
      </trkpt>
      <trkpt lat="47.40136" lon="6.77164">
        <ele>345.09</ele>
        <time>2016-09-25T09:08:22Z</time>
      </trkpt>
      <trkpt lat="47.40159" lon="6.77166">
        <ele>346.91</ele>
        <time>2016-09-25T09:08:26Z</time>
      </trkpt>
      <trkpt lat="47.40178" lon="6.77164">
        <ele>346.63</ele>
        <time>2016-09-25T09:08:29Z</time>
      </trkpt>
      <trkpt lat="47.40199" lon="6.77163">
        <ele>347.28</ele>
        <time>2016-09-25T09:08:32Z</time>
      </trkpt>
      <trkpt lat="47.40217" lon="6.77159">
        <ele>347.05</ele>
        <time>2016-09-25T09:08:35Z</time>
      </trkpt>
      <trkpt lat="47.40234" lon="6.77145">
        <ele>345.12</ele>
        <time>2016-09-25T09:08:38Z</time>
      </trkpt>
      <trkpt lat="47.40253" lon="6.77127">
        <ele>343.72</ele>
        <time>2016-09-25T09:08:41Z</time>
      </trkpt>
      <trkpt lat="47.40272" lon="6.7712">
        <ele>343.51</ele>
        <time>2016-09-25T09:08:44Z</time>
      </trkpt>
      <trkpt lat="47.40294" lon="6.77115">
        <ele>343.86</ele>
        <time>2016-09-25T09:08:47Z</time>
      </trkpt>
      <trkpt lat="47.40319" lon="6.7711">
        <ele>343.25</ele>
        <time>2016-09-25T09:08:50Z</time>
      </trkpt>
      <trkpt lat="47.40343" lon="6.77104">
        <ele>341.41</ele>
        <time>2016-09-25T09:08:53Z</time>
      </trkpt>
      <trkpt lat="47.40367" lon="6.77098">
        <ele>339.77</ele>
        <time>2016-09-25T09:08:56Z</time>
      </trkpt>
      <trkpt lat="47.40391" lon="6.77094">
        <ele>338.09</ele>
        <time>2016-09-25T09:08:59Z</time>
      </trkpt>
      <trkpt lat="47.40413" lon="6.77096">
        <ele>334.7</ele>
        <time>2016-09-25T09:09:02Z</time>
      </trkpt>
      <trkpt lat="47.40434" lon="6.771">
        <ele>335.15</ele>
        <time>2016-09-25T09:09:05Z</time>
      </trkpt>
      <trkpt lat="47.40457" lon="6.77105">
        <ele>336.03</ele>
        <time>2016-09-25T09:09:08Z</time>
      </trkpt>
      <trkpt lat="47.40478" lon="6.77109">
        <ele>334.94</ele>
        <time>2016-09-25T09:09:11Z</time>
      </trkpt>
      <trkpt lat="47.40499" lon="6.77112">
        <ele>334.8</ele>
        <time>2016-09-25T09:09:14Z</time>
      </trkpt>
      <trkpt lat="47.4052" lon="6.77112">
        <ele>336.68</ele>
        <time>2016-09-25T09:09:17Z</time>
      </trkpt>
      <trkpt lat="47.4054" lon="6.77112">
        <ele>336.82</ele>
        <time>2016-09-25T09:09:20Z</time>
      </trkpt>
      <trkpt lat="47.40561" lon="6.77114">
        <ele>336.57</ele>
        <time>2016-09-25T09:09:23Z</time>
      </trkpt>
      <trkpt lat="47.40581" lon="6.77118">
        <ele>338.32</ele>
        <time>2016-09-25T09:09:26Z</time>
      </trkpt>
      <trkpt lat="47.40602" lon="6.77123">
        <ele>340.15</ele>
        <time>2016-09-25T09:09:29Z</time>
      </trkpt>
      <trkpt lat="47.40624" lon="6.7713">
        <ele>341.27</ele>
        <time>2016-09-25T09:09:32Z</time>
      </trkpt>
      <trkpt lat="47.40644" lon="6.7714">
        <ele>341.96</ele>
        <time>2016-09-25T09:09:35Z</time>
      </trkpt>
      <trkpt lat="47.40661" lon="6.77153">
        <ele>340.45</ele>
        <time>2016-09-25T09:09:38Z</time>
      </trkpt>
      <trkpt lat="47.40678" lon="6.77168">
        <ele>339.14</ele>
        <time>2016-09-25T09:09:41Z</time>
      </trkpt>
      <trkpt lat="47.40697" lon="6.77186">
        <ele>339.44</ele>
        <time>2016-09-25T09:09:44Z</time>
      </trkpt>
      <trkpt lat="47.40712" lon="6.77201">
        <ele>337.11</ele>
        <time>2016-09-25T09:09:47Z</time>
      </trkpt>
      <trkpt lat="47.40731" lon="6.77223">
        <ele>335.3</ele>
        <time>2016-09-25T09:09:51Z</time>
      </trkpt>
      <trkpt lat="47.40747" lon="6.77244">
        <ele>334.29</ele>
        <time>2016-09-25T09:09:54Z</time>
      </trkpt>
      <trkpt lat="47.40762" lon="6.77268">
        <ele>335.89</ele>
        <time>2016-09-25T09:09:57Z</time>
      </trkpt>
      <trkpt lat="47.40775" lon="6.77294">
        <ele>335.79</ele>
        <time>2016-09-25T09:10:00Z</time>
      </trkpt>
      <trkpt lat="47.40786" lon="6.77321">
        <ele>337.43</ele>
        <time>2016-09-25T09:10:03Z</time>
      </trkpt>
      <trkpt lat="47.40797" lon="6.77345">
        <ele>337.98</ele>
        <time>2016-09-25T09:10:06Z</time>
      </trkpt>
      <trkpt lat="47.40809" lon="6.7737">
        <ele>336.34</ele>
        <time>2016-09-25T09:10:09Z</time>
      </trkpt>
      <trkpt lat="47.40819" lon="6.77394">
        <ele>334.39</ele>
        <time>2016-09-25T09:10:12Z</time>
      </trkpt>
      <trkpt lat="47.4083" lon="6.77418">
        <ele>332.85</ele>
        <time>2016-09-25T09:10:15Z</time>
      </trkpt>
      <trkpt lat="47.4084" lon="6.77442">
        <ele>330.98</ele>
        <time>2016-09-25T09:10:18Z</time>
      </trkpt>
      <trkpt lat="47.40851" lon="6.77466">
        <ele>332.27</ele>
        <time>2016-09-25T09:10:21Z</time>
      </trkpt>
      <trkpt lat="47.40862" lon="6.7749">
        <ele>330.8</ele>
        <time>2016-09-25T09:10:24Z</time>
      </trkpt>
      <trkpt lat="47.40873" lon="6.77516">
        <ele>330.65</ele>
        <time>2016-09-25T09:10:27Z</time>
      </trkpt>
      <trkpt lat="47.40884" lon="6.77543">
        <ele>330.82</ele>
        <time>2016-09-25T09:10:30Z</time>
      </trkpt>
      <trkpt lat="47.40894" lon="6.77567">
        <ele>330.8</ele>
        <time>2016-09-25T09:10:33Z</time>
      </trkpt>
      <trkpt lat="47.40906" lon="6.77589">
        <ele>330.56</ele>
        <time>2016-09-25T09:10:36Z</time>
      </trkpt>
      <trkpt lat="47.40921" lon="6.77618">
        <ele>332.64</ele>
        <time>2016-09-25T09:10:40Z</time>
      </trkpt>
      <trkpt lat="47.4093" lon="6.77644">
        <ele>332.09</ele>
        <time>2016-09-25T09:10:43Z</time>
      </trkpt>
      <trkpt lat="47.40938" lon="6.77672">
        <ele>331.88</ele>
        <time>2016-09-25T09:10:46Z</time>
      </trkpt>
      <trkpt lat="47.40944" lon="6.77698">
        <ele>335.59</ele>
        <time>2016-09-25T09:10:49Z</time>
      </trkpt>
      <trkpt lat="47.40961" lon="6.77725">
        <ele>337.66</ele>
        <time>2016-09-25T09:10:53Z</time>
      </trkpt>
      <trkpt lat="47.40976" lon="6.77746">
        <ele>337.01</ele>
        <time>2016-09-25T09:10:56Z</time>
      </trkpt>
      <trkpt lat="47.40994" lon="6.77762">
        <ele>334.81</ele>
        <time>2016-09-25T09:10:59Z</time>
      </trkpt>
      <trkpt lat="47.41011" lon="6.77754">
        <ele>332.67</ele>
        <time>2016-09-25T09:11:02Z</time>
      </trkpt>
      <trkpt lat="47.41025" lon="6.77731">
        <ele>332.35</ele>
        <time>2016-09-25T09:11:05Z</time>
      </trkpt>
      <trkpt lat="47.4104" lon="6.77709">
        <ele>332.23</ele>
        <time>2016-09-25T09:11:08Z</time>
      </trkpt>
      <trkpt lat="47.41054" lon="6.7769">
        <ele>332.99</ele>
        <time>2016-09-25T09:11:11Z</time>
      </trkpt>
      <trkpt lat="47.41069" lon="6.77671">
        <ele>333.76</ele>
        <time>2016-09-25T09:11:14Z</time>
      </trkpt>
      <trkpt lat="47.41083" lon="6.77653">
        <ele>335.9</ele>
        <time>2016-09-25T09:11:17Z</time>
      </trkpt>
      <trkpt lat="47.41097" lon="6.77634">
        <ele>337.95</ele>
        <time>2016-09-25T09:11:20Z</time>
      </trkpt>
      <trkpt lat="47.41112" lon="6.77615">
        <ele>338.76</ele>
        <time>2016-09-25T09:11:23Z</time>
      </trkpt>
      <trkpt lat="47.41127" lon="6.77598">
        <ele>338.62</ele>
        <time>2016-09-25T09:11:26Z</time>
      </trkpt>
      <trkpt lat="47.41149" lon="6.77598">
        <ele>338.99</ele>
        <time>2016-09-25T09:11:30Z</time>
      </trkpt>
      <trkpt lat="47.41168" lon="6.77618">
        <ele>336.38</ele>
        <time>2016-09-25T09:11:34Z</time>
      </trkpt>
      <trkpt lat="47.41187" lon="6.77637">
        <ele>334.66</ele>
        <time>2016-09-25T09:11:38Z</time>
      </trkpt>
      <trkpt lat="47.41201" lon="6.77654">
        <ele>332.22</ele>
        <time>2016-09-25T09:11:41Z</time>
      </trkpt>
      <trkpt lat="47.41217" lon="6.77671">
        <ele>331.5</ele>
        <time>2016-09-25T09:11:44Z</time>
      </trkpt>
      <trkpt lat="47.41231" lon="6.77687">
        <ele>329.91</ele>
        <time>2016-09-25T09:11:47Z</time>
      </trkpt>
      <trkpt lat="47.41246" lon="6.77704">
        <ele>329.6</ele>
        <time>2016-09-25T09:11:50Z</time>
      </trkpt>
      <trkpt lat="47.41263" lon="6.77723">
        <ele>330.91</ele>
        <time>2016-09-25T09:11:53Z</time>
      </trkpt>
      <trkpt lat="47.4128" lon="6.77746">
        <ele>333.16</ele>
        <time>2016-09-25T09:11:56Z</time>
      </trkpt>
      <trkpt lat="47.41294" lon="6.77769">
        <ele>336.08</ele>
        <time>2016-09-25T09:11:59Z</time>
      </trkpt>
      <trkpt lat="47.41305" lon="6.77791">
        <ele>338.31</ele>
        <time>2016-09-25T09:12:02Z</time>
      </trkpt>
      <trkpt lat="47.41315" lon="6.77815">
        <ele>338.15</ele>
        <time>2016-09-25T09:12:05Z</time>
      </trkpt>
      <trkpt lat="47.41325" lon="6.7784">
        <ele>339.27</ele>
        <time>2016-09-25T09:12:08Z</time>
      </trkpt>
      <trkpt lat="47.41334" lon="6.77865">
        <ele>341.23</ele>
        <time>2016-09-25T09:12:11Z</time>
      </trkpt>
      <trkpt lat="47.41345" lon="6.77896">
        <ele>341.77</ele>
        <time>2016-09-25T09:12:15Z</time>
      </trkpt>
      <trkpt lat="47.41357" lon="6.77926">
        <ele>342.3</ele>
        <time>2016-09-25T09:12:19Z</time>
      </trkpt>
      <trkpt lat="47.41359" lon="6.7796">
        <ele>341.42</ele>
        <time>2016-09-25T09:12:23Z</time>
      </trkpt>
      <trkpt lat="47.41359" lon="6.77987">
        <ele>341.06</ele>
        <time>2016-09-25T09:12:26Z</time>
      </trkpt>
      <trkpt lat="47.41365" lon="6.78019">
        <ele>341.05</ele>
        <time>2016-09-25T09:12:30Z</time>
      </trkpt>
      <trkpt lat="47.41373" lon="6.78052">
        <ele>341.43</ele>
        <time>2016-09-25T09:12:34Z</time>
      </trkpt>
      <trkpt lat="47.41378" lon="6.7808">
        <ele>339.44</ele>
        <time>2016-09-25T09:12:38Z</time>
      </trkpt>
      <trkpt lat="47.41396" lon="6.78098">
        <ele>335.62</ele>
        <time>2016-09-25T09:12:42Z</time>
      </trkpt>
      <trkpt lat="47.41415" lon="6.78115">
        <ele>333.56</ele>
        <time>2016-09-25T09:12:46Z</time>
      </trkpt>
      <trkpt lat="47.4143" lon="6.78128">
        <ele>333.9</ele>
        <time>2016-09-25T09:12:49Z</time>
      </trkpt>
      <trkpt lat="47.41449" lon="6.78142">
        <ele>334.31</ele>
        <time>2016-09-25T09:12:52Z</time>
      </trkpt>
      <trkpt lat="47.41466" lon="6.78155">
        <ele>334.07</ele>
        <time>2016-09-25T09:12:55Z</time>
      </trkpt>
      <trkpt lat="47.41489" lon="6.78163">
        <ele>332.33</ele>
        <time>2016-09-25T09:12:59Z</time>
      </trkpt>
      <trkpt lat="47.41496" lon="6.78194">
        <ele>332.61</ele>
        <time>2016-09-25T09:13:04Z</time>
      </trkpt>
      <trkpt lat="47.41489" lon="6.78222">
        <ele>332.81</ele>
        <time>2016-09-25T09:13:07Z</time>
      </trkpt>
      <trkpt lat="47.41482" lon="6.78253">
        <ele>334.69</ele>
        <time>2016-09-25T09:13:10Z</time>
      </trkpt>
      <trkpt lat="47.41475" lon="6.78281">
        <ele>337.21</ele>
        <time>2016-09-25T09:13:13Z</time>
      </trkpt>
      <trkpt lat="47.41468" lon="6.78311">
        <ele>340.11</ele>
        <time>2016-09-25T09:13:16Z</time>
      </trkpt>
      <trkpt lat="47.41461" lon="6.7834">
        <ele>342.83</ele>
        <time>2016-09-25T09:13:19Z</time>
      </trkpt>
      <trkpt lat="47.41455" lon="6.78365">
        <ele>343.59</ele>
        <time>2016-09-25T09:13:22Z</time>
      </trkpt>
      <trkpt lat="47.41449" lon="6.78392">
        <ele>343.18</ele>
        <time>2016-09-25T09:13:25Z</time>
      </trkpt>
      <trkpt lat="47.41441" lon="6.78419">
        <ele>341.82</ele>
        <time>2016-09-25T09:13:28Z</time>
      </trkpt>
      <trkpt lat="47.41431" lon="6.78443">
        <ele>341.63</ele>
        <time>2016-09-25T09:13:31Z</time>
      </trkpt>
      <trkpt lat="47.41414" lon="6.7845">
        <ele>341.49</ele>
        <time>2016-09-25T09:13:34Z</time>
      </trkpt>
      <trkpt lat="47.41407" lon="6.78425">
        <ele>340.37</ele>
        <time>2016-09-25T09:13:38Z</time>
      </trkpt>
      <trkpt lat="47.41404" lon="6.78397">
        <ele>337.69</ele>
        <time>2016-09-25T09:14:19Z</time>
      </trkpt>
      <trkpt lat="47.41404" lon="6.78432">
        <ele>337.69</ele>
        <time>2016-09-25T09:14:42Z</time>
      </trkpt>
    </trkseg>
  </trk>
</gpx>